Darstellungsparameter: Aktuell verwendete Einstellungen:
Skalierung der Graphiken ... ?
xyx+y,   Skalierungsfaktor:      Skalierung: Modus: x, Faktor: 1
Darstellungszeitraum ... ?
Vom - - bis: - -   Zeitraum: 30.03.2014 - 29.09.2014
Min/Max/Avg-Anzeige ... ?
Zeige MMA aktuell
Zeige MMA Monat
Zeige MMA alles
Zeige --A aktuell
Zeige --A Monat
Zeige --A alles
Keine MMA-Anzeige
MMA:
Average (ber die Originaldaten)
MMA-Basis: 30.03.2014 - 29.09.2014
Quicknavigation für Darstellung... ?
Tage:      1T, 2T, 3T, 5T -1T -2T -3T -5T +1T +2T +3T +5T
Wochen: 1W, 2W, 3W -1W -2W -3W +1W +2W +3W
Monate: 1M, 3M, 6M -1M -3M -6M +1M +3M +6M
Jahre:    1J, 3J, 5J, 10J -1J -3J -5J -10J +1J +3J +5J +10J
Nutze für die Darstellung ... ?
Originaldaten oder Mittelwerte auf ...
Stundenbasis Tagesbasis Wochenbasis
Monatsbasis Jahresbasis      Datenbasis: Original-Daten
Darstellen als:
Statistik (Auto) Statistik J:M      Darstellung:
Zur Graphik,    zurück zur Übersicht aller Sensoren.
 
Tabellarische Datenbersicht: ?
 
Sensor: Nr:Datum:Temp:Abs-Feuchte:Windchill:Wind:
Aussen-T/F 1 30-03-2014 00:00:00 7.1 C 6.24 g/m*3 7.1 C 0 km/h
2 30-03-2014 00:05:00 7.1 C 6.24 g/m*3 7.1 C 0 km/h
3 30-03-2014 00:10:00 7.1 C 6.08 g/m*3 7.1 C 0 km/h
4 30-03-2014 00:15:00 7.1 C 6.08 g/m*3 7.1 C 1.6 km/h
5 30-03-2014 00:20:00 7 C 6.12 g/m*3 7 C 1.6 km/h
6 30-03-2014 00:25:00 6.9 C 6.08 g/m*3 6.9 C 1.6 km/h
7 30-03-2014 00:30:00 6.8 C 6.04 g/m*3 6.8 C 0 km/h
8 30-03-2014 00:35:00 6.7 C 6.08 g/m*3 6.7 C 0 km/h
9 30-03-2014 00:40:00 6.6 C 6.04 g/m*3 6.6 C 0 km/h
10 30-03-2014 00:45:00 6.6 C 6.11 g/m*3 6.6 C 1.6 km/h
11 30-03-2014 00:50:00 6.7 C 6.08 g/m*3 6.7 C 1.6 km/h
12 30-03-2014 00:55:00 6.7 C 6.08 g/m*3 6.7 C 1.6 km/h
13 30-03-2014 01:00:00 6.6 C 6.04 g/m*3 6.6 C 0 km/h
14 30-03-2014 01:05:00 6.6 C 6.04 g/m*3 6.6 C 0 km/h
15 30-03-2014 01:10:00 6.5 C 6 g/m*3 6.5 C 1.6 km/h
16 30-03-2014 01:15:00 6.4 C 5.96 g/m*3 6.4 C 0 km/h
17 30-03-2014 01:20:00 6.3 C 6 g/m*3 6.3 C 0 km/h
18 30-03-2014 01:25:00 6.2 C 6.03 g/m*3 6.2 C 0 km/h
19 30-03-2014 01:30:00 6 C 5.95 g/m*3 6 C 1.6 km/h
20 30-03-2014 01:35:00 5.9 C 5.98 g/m*3 5.9 C 0 km/h
21 30-03-2014 01:40:00 5.8 C 5.95 g/m*3 5.8 C 0 km/h
22 30-03-2014 01:45:00 5.7 C 5.91 g/m*3 5.7 C 0 km/h
23 30-03-2014 01:50:00 5.6 C 5.94 g/m*3 5.6 C 0 km/h
24 30-03-2014 01:55:00 5.6 C 6.01 g/m*3 5.6 C 0 km/h
25 30-03-2014 02:00:00 5.4 C 5.86 g/m*3 5.4 C 0 km/h
Sensor: Nr:Datum:Temp:Abs-Feuchte:Windchill:Wind:
Aussen-T/F 26 30-03-2014 02:05:00 5.2 C 5.85 g/m*3 5.2 C 0 km/h
27 30-03-2014 02:10:00 5.2 C 5.85 g/m*3 5.2 C 0 km/h
28 30-03-2014 02:15:00 5.1 C 5.81 g/m*3 5.1 C 0 km/h
29 30-03-2014 02:20:00 5.1 C 5.88 g/m*3 5.1 C 0 km/h
30 30-03-2014 02:25:00 5 C 5.84 g/m*3 5 C 1.6 km/h
31 30-03-2014 02:30:00 4.9 C 5.81 g/m*3 4.9 C 0 km/h
32 30-03-2014 02:35:00 4.9 C 5.81 g/m*3 4.9 C 0 km/h
33 30-03-2014 02:40:00 4.9 C 5.87 g/m*3 4.9 C 0 km/h
34 30-03-2014 02:45:00 4.8 C 5.83 g/m*3 4.8 C 0 km/h
35 30-03-2014 02:50:00 4.8 C 5.83 g/m*3 4.8 C 0 km/h
36 30-03-2014 02:55:00 4.8 C 5.83 g/m*3 4.8 C 0 km/h
37 30-03-2014 04:00:00 4.7 C 5.8 g/m*3 4.7 C 0 km/h
38 30-03-2014 04:05:00 4.7 C 5.8 g/m*3 4.7 C 0 km/h
39 30-03-2014 04:10:00 4.6 C 5.76 g/m*3 4.6 C 0 km/h
40 30-03-2014 04:15:00 4.5 C 5.72 g/m*3 4.5 C 0 km/h
41 30-03-2014 04:20:00 4.4 C 5.75 g/m*3 4.4 C 0 km/h
42 30-03-2014 04:25:00 4.4 C 5.75 g/m*3 4.4 C 0 km/h
43 30-03-2014 04:30:00 4.3 C 5.71 g/m*3 4.3 C 0 km/h
44 30-03-2014 04:35:00 4.3 C 5.71 g/m*3 4.3 C 0 km/h
45 30-03-2014 04:40:00 4.2 C 5.73 g/m*3 4.2 C 0 km/h
46 30-03-2014 04:45:00 4.1 C 5.63 g/m*3 4.1 C 0 km/h
47 30-03-2014 04:50:00 4.1 C 5.7 g/m*3 4.1 C 0 km/h
48 30-03-2014 04:55:00 4 C 5.66 g/m*3 4 C 0 km/h
49 30-03-2014 05:00:00 3.9 C 5.62 g/m*3 3.9 C 0 km/h
50 30-03-2014 05:05:00 4 C 5.66 g/m*3 4 C 0 km/h
Sensor: Nr:Datum:Temp:Abs-Feuchte:Windchill:Wind:
Aussen-T/F 51 30-03-2014 05:10:00 3.9 C 5.62 g/m*3 3.9 C 0 km/h
52 30-03-2014 05:15:00 3.9 C 5.62 g/m*3 3.9 C 0 km/h
53 30-03-2014 05:20:00 3.9 C 5.62 g/m*3 3.9 C 0 km/h
54 30-03-2014 05:25:00 3.8 C 5.65 g/m*3 3.8 C 0 km/h
55 30-03-2014 05:30:00 3.7 C 5.55 g/m*3 3.7 C 0 km/h
56 30-03-2014 05:35:00 3.6 C 5.57 g/m*3 3.6 C 0 km/h
57 30-03-2014 05:40:00 3.6 C 5.57 g/m*3 3.6 C 0 km/h
58 30-03-2014 05:45:00 3.6 C 5.63 g/m*3 3.6 C 0 km/h
59 30-03-2014 05:50:00 3.6 C 5.63 g/m*3 3.6 C 1.6 km/h
60 30-03-2014 05:55:00 3.6 C 5.63 g/m*3 3.6 C 0 km/h
61 30-03-2014 06:00:00 3.6 C 5.63 g/m*3 3.6 C 0 km/h
62 30-03-2014 06:05:00 3.6 C 5.63 g/m*3 3.6 C 0 km/h
63 30-03-2014 06:10:00 3.6 C 5.63 g/m*3 3.6 C 0 km/h
64 30-03-2014 06:15:00 3.4 C 5.5 g/m*3 3.4 C 0 km/h
65 30-03-2014 06:20:00 3.3 C 5.52 g/m*3 3.3 C 0 km/h
66 30-03-2014 06:25:00 3.2 C 5.48 g/m*3 3.2 C 0 km/h
67 30-03-2014 06:30:00 3.2 C 5.48 g/m*3 3.2 C 0 km/h
68 30-03-2014 06:35:00 3.2 C 5.48 g/m*3 3.2 C 0 km/h
69 30-03-2014 06:40:00 3.1 C 5.51 g/m*3 3.1 C 0 km/h
70 30-03-2014 06:45:00 3.1 C 5.51 g/m*3 3.1 C 0 km/h
71 30-03-2014 06:50:00 3.1 C 5.51 g/m*3 3.1 C 0 km/h
72 30-03-2014 06:55:00 3 C 5.47 g/m*3 3 C 0 km/h
73 30-03-2014 07:00:00 2.9 C 5.43 g/m*3 2.9 C 0 km/h
74 30-03-2014 07:05:00 2.9 C 5.43 g/m*3 2.9 C 0 km/h
75 30-03-2014 07:10:00 2.8 C 5.4 g/m*3 2.8 C 0 km/h
Sensor: Nr:Datum:Temp:Abs-Feuchte:Windchill:Wind:
Aussen-T/F 76 30-03-2014 07:15:00 2.8 C 5.4 g/m*3 2.8 C 0 km/h
77 30-03-2014 07:20:00 2.8 C 5.46 g/m*3 2.8 C 0 km/h
78 30-03-2014 07:25:00 2.8 C 5.46 g/m*3 2.8 C 0 km/h
79 30-03-2014 07:30:00 2.9 C 5.49 g/m*3 2.9 C 0 km/h
80 30-03-2014 07:35:00 2.9 C 5.49 g/m*3 2.9 C 0 km/h
81 30-03-2014 07:40:00 2.9 C 5.49 g/m*3 2.9 C 0 km/h
82 30-03-2014 07:45:00 3 C 5.53 g/m*3 3 C 1.6 km/h
83 30-03-2014 07:50:00 3.1 C 5.57 g/m*3 3.1 C 0 km/h
84 30-03-2014 07:55:00 3.2 C 5.6 g/m*3 3.2 C 0 km/h
85 30-03-2014 08:00:00 3.2 C 5.6 g/m*3 3.2 C 1.6 km/h
86 30-03-2014 08:05:00 3.3 C 5.64 g/m*3 3.3 C 1.6 km/h
87 30-03-2014 08:10:00 3.3 C 5.64 g/m*3 3.3 C 0 km/h
88 30-03-2014 08:15:00 3.3 C 5.64 g/m*3 3.3 C 0 km/h
89 30-03-2014 08:20:00 3.3 C 5.58 g/m*3 3.3 C 0 km/h
90 30-03-2014 08:25:00 3.3 C 5.58 g/m*3 3.3 C 1.6 km/h
91 30-03-2014 08:30:00 3.3 C 5.64 g/m*3 3.3 C 0 km/h
92 30-03-2014 08:35:00 3.4 C 5.68 g/m*3 3.4 C 0 km/h
93 30-03-2014 08:40:00 3.4 C 5.68 g/m*3 3.4 C 0 km/h
94 30-03-2014 08:45:00 3.5 C 5.72 g/m*3 3.5 C 0 km/h
95 30-03-2014 08:50:00 3.6 C 5.76 g/m*3 3.6 C 0 km/h
96 30-03-2014 08:55:00 3.6 C 5.76 g/m*3 3.6 C 0 km/h
97 30-03-2014 09:00:00 3.7 C 5.8 g/m*3 3.7 C 0 km/h
98 30-03-2014 09:05:00 3.8 C 5.83 g/m*3 3.8 C 0 km/h
99 30-03-2014 09:10:00 3.9 C 5.87 g/m*3 3.9 C 0 km/h
100 30-03-2014 09:15:00 4.1 C 5.95 g/m*3 4.1 C 0 km/h
Sensor: Nr:Datum:Temp:Abs-Feuchte:Windchill:Wind:
Aussen-T/F 101 30-03-2014 09:20:00 4.2 C 5.99 g/m*3 4.2 C 1.6 km/h
102 30-03-2014 09:25:00 4.3 C 6.03 g/m*3 4.3 C 0 km/h
103 30-03-2014 09:30:00 4.3 C 6.03 g/m*3 4.3 C 0 km/h
104 30-03-2014 10:10:00 6.5 C 6.52 g/m*3 6.5 C 1.6 km/h
105 30-03-2014 10:15:00 6.8 C 6.65 g/m*3 6.8 C 1.6 km/h
106 30-03-2014 10:20:00 6.9 C 6.7 g/m*3 6.9 C 0 km/h
107 30-03-2014 10:25:00 7.2 C 6.67 g/m*3 7.2 C 0 km/h
108 30-03-2014 10:30:00 7.3 C 6.79 g/m*3 7.3 C 0 km/h
109 30-03-2014 10:35:00 7.6 C 6.77 g/m*3 7.6 C 0 km/h
110 30-03-2014 10:40:00 7.8 C 6.77 g/m*3 7.8 C 0 km/h
111 30-03-2014 10:45:00 8 C 6.86 g/m*3 8 C 0 km/h
112 30-03-2014 10:50:00 8.2 C 6.87 g/m*3 8.2 C 1.6 km/h
113 30-03-2014 10:55:00 8.4 C 6.87 g/m*3 8.4 C 0 km/h
114 30-03-2014 11:00:00 8.7 C 7.01 g/m*3 8.7 C 0 km/h
115 30-03-2014 11:05:00 8.9 C 7.01 g/m*3 8.9 C 0 km/h
116 30-03-2014 11:10:00 9.1 C 7.01 g/m*3 9.1 C 0 km/h
117 30-03-2014 11:15:00 9.4 C 7.05 g/m*3 9.4 C 0 km/h
118 30-03-2014 11:20:00 9.7 C 7.19 g/m*3 9.7 C 0 km/h
119 30-03-2014 11:25:00 9.9 C 7.1 g/m*3 9.9 C 1.6 km/h
120 30-03-2014 11:30:00 10.3 C 7.18 g/m*3 10.3 C 0 km/h
121 30-03-2014 11:35:00 10.7 C 7.27 g/m*3 10.7 C 3.2 km/h
122 30-03-2014 11:40:00 10.9 C 7.36 g/m*3 10.9 C 1.6 km/h
123 30-03-2014 11:45:00 11.3 C 7.55 g/m*3 11.3 C 1.6 km/h
124 30-03-2014 11:50:00 11.3 C 7.55 g/m*3 11.3 C 0 km/h
125 30-03-2014 11:55:00 11.9 C 7.52 g/m*3 11.9 C 0 km/h
Sensor: Nr:Datum:Temp:Abs-Feuchte:Windchill:Wind:
Aussen-T/F 126 30-03-2014 12:00:00 12.3 C 7.93 g/m*3 12.3 C 3.2 km/h
127 30-03-2014 12:05:00 12.6 C 7.63 g/m*3 12.6 C 3.2 km/h
128 30-03-2014 12:10:00 12.8 C 7.62 g/m*3 12.8 C 1.6 km/h
129 30-03-2014 12:15:00 13.1 C 7.65 g/m*3 13.1 C 0 km/h
130 30-03-2014 12:20:00 13.4 C 7.79 g/m*3 13.4 C 0 km/h
131 30-03-2014 12:25:00 13.7 C 7.82 g/m*3 13.7 C 3.2 km/h
132 30-03-2014 12:30:00 14.1 C 8.13 g/m*3 14.1 C 1.6 km/h
133 30-03-2014 12:35:00 14.3 C 8.11 g/m*3 14.3 C 4.8 km/h
134 30-03-2014 12:40:00 14.7 C 8.18 g/m*3 14.7 C 4.8 km/h
135 30-03-2014 12:45:00 15 C 7.95 g/m*3 15 C 3.2 km/h
136 30-03-2014 12:50:00 15.3 C 8.1 g/m*3 15.3 C 1.6 km/h
137 30-03-2014 12:55:00 15.6 C 8.51 g/m*3 15.6 C 1.6 km/h
138 30-03-2014 13:00:00 16.1 C 8.91 g/m*3 16.1 C 3.2 km/h
139 30-03-2014 13:05:00 16.6 C 9.18 g/m*3 16.6 C 1.6 km/h
140 30-03-2014 13:10:00 17.2 C 8.64 g/m*3 17.2 C 6.4 km/h
141 30-03-2014 13:15:00 17.7 C 8.75 g/m*3 17.7 C 1.6 km/h
142 30-03-2014 13:20:00 18.2 C 8.7 g/m*3 18.2 C 6.4 km/h
143 30-03-2014 13:25:00 18.5 C 8.39 g/m*3 18.5 C 1.6 km/h
144 30-03-2014 13:30:00 18.5 C 8.39 g/m*3 18.5 C 4.8 km/h
145 30-03-2014 13:35:00 19.2 C 9.23 g/m*3 19.2 C 3.2 km/h
146 30-03-2014 13:40:00 19.6 C 8.78 g/m*3 19.6 C 3.2 km/h
147 30-03-2014 13:45:00 19.9 C 8.76 g/m*3 19.9 C 3.2 km/h
148 30-03-2014 13:50:00 20.1 C 7.65 g/m*3 20.1 C 6.4 km/h
149 30-03-2014 13:55:00 20.2 C 8.04 g/m*3 20.2 C 4.8 km/h
150 30-03-2014 14:00:00 20.3 C 8.27 g/m*3 20.3 C 6.4 km/h
Sensor: Nr:Datum:Temp:Abs-Feuchte:Windchill:Wind:
Aussen-T/F 151 30-03-2014 14:05:00 20.6 C 7.7 g/m*3 20.6 C 4.8 km/h
152 30-03-2014 14:10:00 20.7 C 7.74 g/m*3 20.7 C 6.4 km/h
153 30-03-2014 14:15:00 20.6 C 6.98 g/m*3 20.6 C 12.9 km/h
154 30-03-2014 14:20:00 20.7 C 7.56 g/m*3 20.7 C 9.7 km/h
155 30-03-2014 14:25:00 20.8 C 7.6 g/m*3 20.8 C 9.7 km/h
156 30-03-2014 14:30:00 20.8 C 7.24 g/m*3 20.8 C 4.8 km/h
157 30-03-2014 14:35:00 20.8 C 7.06 g/m*3 20.8 C 6.4 km/h
158 30-03-2014 14:40:00 20.9 C 7.29 g/m*3 20.9 C 9.7 km/h
159 30-03-2014 14:45:00 20.9 C 6.92 g/m*3 20.9 C 6.4 km/h
160 30-03-2014 14:50:00 20.9 C 6.92 g/m*3 20.9 C 4.8 km/h
161 30-03-2014 14:55:00 20.8 C 6.7 g/m*3 20.8 C 4.8 km/h
162 30-03-2014 15:00:00 20.7 C 6.48 g/m*3 20.7 C 6.4 km/h
163 30-03-2014 15:05:00 20.7 C 6.84 g/m*3 20.7 C 1.6 km/h
164 30-03-2014 15:10:00 20.7 C 7.2 g/m*3 20.7 C 3.2 km/h
165 30-03-2014 15:15:00 20.8 C 6.88 g/m*3 20.8 C 4.8 km/h
166 30-03-2014 15:20:00 20.8 C 6.88 g/m*3 20.8 C 1.6 km/h
167 30-03-2014 20:05:00 14.7 C 7.43 g/m*3 14.7 C 3.2 km/h
168 30-03-2014 20:10:00 14.5 C 7.34 g/m*3 14.5 C 4.8 km/h
169 30-03-2014 20:15:00 14.4 C 7.42 g/m*3 14.4 C 4.8 km/h
170 30-03-2014 20:20:00 14.2 C 7.45 g/m*3 14.2 C 3.2 km/h
171 30-03-2014 20:25:00 14.1 C 7.52 g/m*3 14.1 C 1.6 km/h
172 30-03-2014 20:30:00 13.9 C 7.55 g/m*3 13.9 C 1.6 km/h
173 30-03-2014 20:35:00 13.7 C 7.46 g/m*3 13.7 C 3.2 km/h
174 30-03-2014 20:40:00 13.4 C 7.44 g/m*3 13.4 C 1.6 km/h
175 30-03-2014 20:45:00 13.4 C 7.44 g/m*3 13.4 C 4.8 km/h
Sensor: Nr:Datum:Temp:Abs-Feuchte:Windchill:Wind:
Aussen-T/F 176 30-03-2014 20:50:00 13.4 C 7.44 g/m*3 13.4 C 1.6 km/h
177 30-03-2014 21:10:00 12.9 C 7.44 g/m*3 12.9 C 1.6 km/h
178 30-03-2014 21:15:00 12.8 C 7.5 g/m*3 12.8 C 0 km/h
179 30-03-2014 21:20:00 12.7 C 7.57 g/m*3 12.7 C 1.6 km/h
180 30-03-2014 21:25:00 12.6 C 7.41 g/m*3 12.6 C 0 km/h
181 30-03-2014 21:30:00 12.4 C 7.43 g/m*3 12.4 C 1.6 km/h
182 30-03-2014 21:35:00 12.4 C 7.43 g/m*3 12.4 C 0 km/h
183 30-03-2014 21:40:00 12.3 C 7.49 g/m*3 12.3 C 0 km/h
184 30-03-2014 21:45:00 12.2 C 7.55 g/m*3 12.2 C 0 km/h
185 30-03-2014 21:50:00 12.2 C 7.45 g/m*3 12.2 C 0 km/h
186 30-03-2014 21:55:00 12.1 C 7.51 g/m*3 12.1 C 0 km/h
187 30-03-2014 22:00:00 12.1 C 7.18 g/m*3 12.1 C 0 km/h
188 30-03-2014 22:05:00 12.1 C 7.29 g/m*3 12.1 C 0 km/h
189 30-03-2014 22:10:00 12 C 7.14 g/m*3 12 C 0 km/h
190 30-03-2014 22:15:00 11.9 C 7.31 g/m*3 11.9 C 0 km/h
191 30-03-2014 22:20:00 11.8 C 7.37 g/m*3 11.8 C 1.6 km/h
192 30-03-2014 22:25:00 11.7 C 7.22 g/m*3 11.7 C 0 km/h
193 30-03-2014 22:30:00 11.6 C 7.28 g/m*3 11.6 C 0 km/h
194 30-03-2014 22:35:00 11.4 C 7.19 g/m*3 11.4 C 0 km/h
195 30-03-2014 22:40:00 11.3 C 7.24 g/m*3 11.3 C 0 km/h
196 30-03-2014 22:45:00 11.2 C 7.2 g/m*3 11.2 C 0 km/h
197 30-03-2014 22:50:00 11.1 C 7.15 g/m*3 11.1 C 0 km/h
198 30-03-2014 22:55:00 10.9 C 7.16 g/m*3 10.9 C 0 km/h
199 30-03-2014 23:00:00 10.8 C 7.22 g/m*3 10.8 C 0 km/h
200 30-03-2014 23:05:00 10.7 C 7.27 g/m*3 10.7 C 0 km/h
Sensor: Nr:Datum:Temp:Abs-Feuchte:Windchill:Wind:
Aussen-T/F 201 30-03-2014 23:10:00 10.7 C 7.17 g/m*3 10.7 C 0 km/h
202 30-03-2014 23:15:00 10.6 C 7.22 g/m*3 10.6 C 0 km/h
203 30-03-2014 23:20:00 10.4 C 7.23 g/m*3 10.4 C 0 km/h
204 30-03-2014 23:25:00 10.3 C 7.28 g/m*3 10.3 C 0 km/h
205 30-03-2014 23:30:00 10.3 C 7.18 g/m*3 10.3 C 0 km/h
206 30-03-2014 23:35:00 10.3 C 7.18 g/m*3 10.3 C 0 km/h
207 30-03-2014 23:40:00 10.3 C 7.09 g/m*3 10.3 C 0 km/h
208 30-03-2014 23:45:00 10.3 C 7.09 g/m*3 10.3 C 0 km/h
209 30-03-2014 23:50:00 10.2 C 7.04 g/m*3 10.2 C 0 km/h
210 30-03-2014 23:55:00 10.2 C 7.04 g/m*3 10.2 C 0 km/h
211 31-03-2014 00:00:00 10.1 C 6.9 g/m*3 10.1 C 1.6 km/h
212 31-03-2014 00:05:00 10.1 C 7 g/m*3 10.1 C 1.6 km/h
213 31-03-2014 00:10:00 10 C 6.95 g/m*3 10 C 0 km/h
214 31-03-2014 00:15:00 9.9 C 7.1 g/m*3 9.9 C 0 km/h
215 31-03-2014 00:20:00 9.9 C 7.1 g/m*3 9.9 C 0 km/h
216 31-03-2014 00:25:00 9.8 C 7.14 g/m*3 9.8 C 0 km/h
217 31-03-2014 00:30:00 9.7 C 7.01 g/m*3 9.7 C 0 km/h
218 31-03-2014 00:35:00 9.7 C 7.1 g/m*3 9.7 C 0 km/h
219 31-03-2014 00:40:00 9.7 C 7.1 g/m*3 9.7 C 0 km/h
220 31-03-2014 00:45:00 9.7 C 7.19 g/m*3 9.7 C 0 km/h
221 31-03-2014 00:50:00 9.4 C 7.15 g/m*3 9.4 C 1.6 km/h
222 31-03-2014 00:55:00 9.3 C 7.1 g/m*3 9.3 C 0 km/h
223 31-03-2014 01:00:00 9.2 C 7.05 g/m*3 9.2 C 0 km/h
224 31-03-2014 01:05:00 9.1 C 7.01 g/m*3 9.1 C 0 km/h
225 31-03-2014 01:10:00 9.1 C 7.01 g/m*3 9.1 C 0 km/h
Sensor: Nr:Datum:Temp:Abs-Feuchte:Windchill:Wind:
Aussen-T/F 226 31-03-2014 01:15:00 8.9 C 6.92 g/m*3 8.9 C 0 km/h
227 31-03-2014 01:20:00 8.8 C 6.96 g/m*3 8.8 C 0 km/h
228 31-03-2014 01:25:00 8.8 C 6.96 g/m*3 8.8 C 0 km/h
229 31-03-2014 01:30:00 8.8 C 7.05 g/m*3 8.8 C 0 km/h
230 31-03-2014 01:35:00 8.7 C 7.09 g/m*3 8.7 C 0 km/h
231 31-03-2014 01:40:00 8.6 C 6.96 g/m*3 8.6 C 1.6 km/h
232 31-03-2014 01:45:00 8.6 C 6.96 g/m*3 8.6 C 3.2 km/h
233 31-03-2014 01:50:00 8.7 C 7.01 g/m*3 8.7 C 1.6 km/h
234 31-03-2014 01:55:00 8.7 C 7.01 g/m*3 8.7 C 0 km/h
235 31-03-2014 02:00:00 8.7 C 7.01 g/m*3 8.7 C 0 km/h
236 31-03-2014 02:05:00 8.5 C 6.92 g/m*3 8.5 C 0 km/h
237 31-03-2014 02:10:00 8.3 C 6.91 g/m*3 8.3 C 0 km/h
238 31-03-2014 02:15:00 8.3 C 6.91 g/m*3 8.3 C 0 km/h
239 31-03-2014 02:20:00 8.2 C 6.95 g/m*3 8.2 C 0 km/h
240 31-03-2014 02:25:00 8.3 C 7 g/m*3 8.3 C 1.6 km/h
241 31-03-2014 02:30:00 8.3 C 7 g/m*3 8.3 C 0 km/h
242 31-03-2014 02:35:00 8.3 C 7 g/m*3 8.3 C 0 km/h
243 31-03-2014 02:40:00 8.3 C 7 g/m*3 8.3 C 0 km/h
244 31-03-2014 02:45:00 8.3 C 7 g/m*3 8.3 C 0 km/h
245 31-03-2014 02:50:00 8.2 C 6.95 g/m*3 8.2 C 0 km/h
246 31-03-2014 02:55:00 8.2 C 6.95 g/m*3 8.2 C 3.2 km/h
247 31-03-2014 03:00:00 8.3 C 7 g/m*3 8.3 C 1.6 km/h
248 31-03-2014 03:05:00 8.3 C 7 g/m*3 8.3 C 0 km/h
249 31-03-2014 03:10:00 8.3 C 7 g/m*3 8.3 C 1.6 km/h
250 31-03-2014 03:15:00 8.3 C 7 g/m*3 8.3 C 0 km/h
Sensor: Nr:Datum:Temp:Abs-Feuchte:Windchill:Wind:
Aussen-T/F 251 31-03-2014 03:20:00 8.2 C 6.95 g/m*3 8.2 C 0 km/h
252 31-03-2014 03:25:00 8.1 C 6.91 g/m*3 8.1 C 0 km/h
253 31-03-2014 03:30:00 7.9 C 6.9 g/m*3 7.9 C 0 km/h
254 31-03-2014 03:35:00 7.8 C 6.86 g/m*3 7.8 C 0 km/h
255 31-03-2014 03:40:00 7.8 C 6.86 g/m*3 7.8 C 0 km/h
256 31-03-2014 03:45:00 7.9 C 6.98 g/m*3 7.9 C 0 km/h
257 31-03-2014 03:50:00 7.9 C 6.98 g/m*3 7.9 C 0 km/h
258 31-03-2014 03:55:00 8 C 6.94 g/m*3 8 C 0 km/h
259 31-03-2014 04:00:00 8.1 C 6.99 g/m*3 8.1 C 0 km/h
260 31-03-2014 04:05:00 8 C 6.94 g/m*3 8 C 0 km/h
261 31-03-2014 04:10:00 7.9 C 6.9 g/m*3 7.9 C 0 km/h
262 31-03-2014 04:15:00 7.8 C 6.94 g/m*3 7.8 C 0 km/h
263 31-03-2014 04:20:00 7.7 C 6.89 g/m*3 7.7 C 0 km/h
264 31-03-2014 04:25:00 7.6 C 6.85 g/m*3 7.6 C 0 km/h
265 31-03-2014 04:30:00 7.4 C 6.84 g/m*3 7.4 C 0 km/h
266 31-03-2014 04:35:00 7.3 C 6.79 g/m*3 7.3 C 0 km/h
267 31-03-2014 04:40:00 7.2 C 6.83 g/m*3 7.2 C 0 km/h
268 31-03-2014 04:45:00 7.2 C 6.83 g/m*3 7.2 C 0 km/h
269 31-03-2014 04:50:00 7.1 C 6.79 g/m*3 7.1 C 0 km/h
270 31-03-2014 04:55:00 7 C 6.82 g/m*3 7 C 0 km/h
271 31-03-2014 05:00:00 7 C 6.82 g/m*3 7 C 0 km/h
272 31-03-2014 05:05:00 7 C 6.82 g/m*3 7 C 0 km/h
273 31-03-2014 05:10:00 7.1 C 6.86 g/m*3 7.1 C 0 km/h
274 31-03-2014 05:15:00 7.1 C 6.86 g/m*3 7.1 C 0 km/h
275 31-03-2014 05:20:00 7.1 C 6.86 g/m*3 7.1 C 0 km/h
Sensor: Nr:Datum:Temp:Abs-Feuchte:Windchill:Wind:
Aussen-T/F 276 31-03-2014 05:25:00 7.2 C 6.91 g/m*3 7.2 C 0 km/h
277 31-03-2014 05:30:00 7.1 C 6.79 g/m*3 7.1 C 0 km/h
278 31-03-2014 05:35:00 7.1 C 6.79 g/m*3 7.1 C 0 km/h
279 31-03-2014 05:40:00 7.1 C 6.86 g/m*3 7.1 C 0 km/h
280 31-03-2014 05:45:00 7.1 C 6.79 g/m*3 7.1 C 0 km/h
281 31-03-2014 05:50:00 7.1 C 6.86 g/m*3 7.1 C 0 km/h
282 31-03-2014 05:55:00 7.1 C 6.86 g/m*3 7.1 C 1.6 km/h
283 31-03-2014 06:00:00 7.1 C 6.79 g/m*3 7.1 C 0 km/h
284 31-03-2014 06:05:00 7 C 6.74 g/m*3 7 C 0 km/h
285 31-03-2014 06:10:00 6.9 C 6.77 g/m*3 6.9 C 0 km/h
286 31-03-2014 06:15:00 6.9 C 6.77 g/m*3 6.9 C 0 km/h
287 31-03-2014 06:20:00 6.8 C 6.73 g/m*3 6.8 C 0 km/h
288 31-03-2014 06:25:00 6.7 C 6.69 g/m*3 6.7 C 0 km/h
289 31-03-2014 06:30:00 6.7 C 6.69 g/m*3 6.7 C 0 km/h
290 31-03-2014 06:35:00 6.6 C 6.64 g/m*3 6.6 C 0 km/h
291 31-03-2014 06:40:00 6.6 C 6.72 g/m*3 6.6 C 0 km/h
292 31-03-2014 06:45:00 6.5 C 6.67 g/m*3 6.5 C 0 km/h
293 31-03-2014 06:50:00 6.4 C 6.63 g/m*3 6.4 C 0 km/h
294 31-03-2014 06:55:00 6.4 C 6.63 g/m*3 6.4 C 0 km/h
295 31-03-2014 07:00:00 6.3 C 6.59 g/m*3 6.3 C 0 km/h
296 31-03-2014 07:05:00 6.3 C 6.59 g/m*3 6.3 C 0 km/h
297 31-03-2014 07:10:00 6.2 C 6.55 g/m*3 6.2 C 0 km/h
298 31-03-2014 07:15:00 6.2 C 6.55 g/m*3 6.2 C 0 km/h
299 31-03-2014 07:20:00 6.2 C 6.62 g/m*3 6.2 C 0 km/h
300 31-03-2014 07:25:00 6.2 C 6.62 g/m*3 6.2 C 0 km/h
Sensor: Nr:Datum:Temp:Abs-Feuchte:Windchill:Wind:
Aussen-T/F 301 31-03-2014 07:30:00 6.2 C 6.62 g/m*3 6.2 C 0 km/h
302 31-03-2014 07:35:00 6.2 C 6.62 g/m*3 6.2 C 0 km/h
303 31-03-2014 07:40:00 6.2 C 6.62 g/m*3 6.2 C 0 km/h
304 31-03-2014 07:45:00 6.2 C 6.69 g/m*3 6.2 C 0 km/h
305 31-03-2014 07:50:00 6.2 C 6.69 g/m*3 6.2 C 0 km/h
306 31-03-2014 07:55:00 6.3 C 6.74 g/m*3 6.3 C 0 km/h
307 31-03-2014 08:00:00 6.3 C 6.74 g/m*3 6.3 C 0 km/h
308 31-03-2014 08:05:00 6.3 C 6.74 g/m*3 6.3 C 0 km/h
309 31-03-2014 08:10:00 6.4 C 6.78 g/m*3 6.4 C 0 km/h
310 31-03-2014 08:15:00 6.4 C 6.78 g/m*3 6.4 C 0 km/h
311 31-03-2014 08:20:00 6.5 C 6.82 g/m*3 6.5 C 0 km/h
312 31-03-2014 08:25:00 6.6 C 6.87 g/m*3 6.6 C 0 km/h
313 31-03-2014 08:30:00 6.6 C 6.87 g/m*3 6.6 C 0 km/h
314 31-03-2014 08:35:00 6.7 C 6.91 g/m*3 6.7 C 0 km/h
315 31-03-2014 08:40:00 6.8 C 6.96 g/m*3 6.8 C 0 km/h
316 31-03-2014 08:45:00 6.8 C 6.88 g/m*3 6.8 C 0 km/h
317 31-03-2014 08:50:00 6.9 C 6.93 g/m*3 6.9 C 0 km/h
318 31-03-2014 08:55:00 6.9 C 6.93 g/m*3 6.9 C 0 km/h
319 31-03-2014 09:00:00 7.1 C 7.02 g/m*3 7.1 C 0 km/h
320 31-03-2014 09:05:00 7.2 C 7.06 g/m*3 7.2 C 0 km/h
321 31-03-2014 09:10:00 7.3 C 7.11 g/m*3 7.3 C 0 km/h
322 31-03-2014 09:15:00 7.4 C 7.08 g/m*3 7.4 C 0 km/h
323 31-03-2014 09:20:00 7.6 C 7.17 g/m*3 7.6 C 0 km/h
324 31-03-2014 09:25:00 7.7 C 7.22 g/m*3 7.7 C 1.6 km/h
325 31-03-2014 09:30:00 7.8 C 7.18 g/m*3 7.8 C 1.6 km/h
Sensor: Nr:Datum:Temp:Abs-Feuchte:Windchill:Wind:
Aussen-T/F 326 31-03-2014 09:35:00 7.9 C 7.15 g/m*3 7.9 C 0 km/h
327 31-03-2014 09:40:00 8.1 C 7.16 g/m*3 8.1 C 0 km/h
328 31-03-2014 09:45:00 8.2 C 7.2 g/m*3 8.2 C 1.6 km/h
329 31-03-2014 09:50:00 8.3 C 7.25 g/m*3 8.3 C 1.6 km/h
330 31-03-2014 09:55:00 8.3 C 7.25 g/m*3 8.3 C 1.6 km/h
331 31-03-2014 10:00:00 8.4 C 7.3 g/m*3 8.4 C 0 km/h
332 31-03-2014 10:05:00 8.6 C 7.3 g/m*3 8.6 C 0 km/h
333 31-03-2014 10:10:00 8.8 C 7.4 g/m*3 8.8 C 0 km/h
334 31-03-2014 10:15:00 8.9 C 7.36 g/m*3 8.9 C 0 km/h
335 31-03-2014 10:20:00 9.1 C 7.36 g/m*3 9.1 C 0 km/h
336 31-03-2014 10:25:00 9.2 C 7.41 g/m*3 9.2 C 0 km/h
337 31-03-2014 10:30:00 9.4 C 7.51 g/m*3 9.4 C 1.6 km/h
338 31-03-2014 10:35:00 9.6 C 7.6 g/m*3 9.6 C 1.6 km/h
339 31-03-2014 10:40:00 9.7 C 7.56 g/m*3 9.7 C 0 km/h
340 31-03-2014 10:45:00 9.8 C 7.52 g/m*3 9.8 C 0 km/h
341 31-03-2014 10:50:00 9.9 C 7.56 g/m*3 9.9 C 0 km/h
342 31-03-2014 10:55:00 10.1 C 7.47 g/m*3 10.1 C 0 km/h
343 31-03-2014 11:00:00 10.3 C 7.66 g/m*3 10.3 C 1.6 km/h
344 31-03-2014 11:05:00 10.4 C 7.61 g/m*3 10.4 C 0 km/h
345 31-03-2014 11:10:00 10.6 C 7.71 g/m*3 10.6 C 3.2 km/h
346 31-03-2014 11:15:00 10.8 C 7.81 g/m*3 10.8 C 1.6 km/h
347 31-03-2014 11:20:00 11 C 7.81 g/m*3 11 C 1.6 km/h
348 31-03-2014 11:25:00 11.2 C 7.91 g/m*3 11.2 C 1.6 km/h
349 31-03-2014 11:30:00 11.4 C 7.8 g/m*3 11.4 C 1.6 km/h
350 31-03-2014 11:35:00 11.7 C 7.95 g/m*3 11.7 C 0 km/h
Sensor: Nr:Datum:Temp:Abs-Feuchte:Windchill:Wind:
Aussen-T/F 351 31-03-2014 11:40:00 11.9 C 7.94 g/m*3 11.9 C 0 km/h
352 31-03-2014 11:45:00 12.2 C 8.31 g/m*3 12.2 C 3.2 km/h
353 31-03-2014 11:50:00 12.5 C 8.03 g/m*3 12.5 C 1.6 km/h
354 31-03-2014 11:55:00 12.8 C 8.06 g/m*3 12.8 C 3.2 km/h
355 31-03-2014 12:00:00 13.1 C 8.1 g/m*3 13.1 C 1.6 km/h
356 31-03-2014 12:05:00 13.3 C 8.09 g/m*3 13.3 C 4.8 km/h
357 31-03-2014 12:10:00 13.6 C 8.12 g/m*3 13.6 C 4.8 km/h
358 31-03-2014 12:15:00 13.8 C 8.1 g/m*3 13.8 C 1.6 km/h
359 31-03-2014 12:20:00 14.2 C 8.55 g/m*3 14.2 C 6.4 km/h
360 31-03-2014 12:25:00 14.4 C 8.28 g/m*3 14.4 C 4.8 km/h
361 31-03-2014 12:30:00 14.7 C 8.31 g/m*3 14.7 C 4.8 km/h
362 31-03-2014 12:35:00 15.1 C 8.51 g/m*3 15.1 C 3.2 km/h
363 31-03-2014 12:40:00 15.4 C 8.41 g/m*3 15.4 C 4.8 km/h
364 31-03-2014 12:45:00 15.7 C 8.56 g/m*3 15.7 C 4.8 km/h
365 31-03-2014 12:50:00 16.1 C 8.77 g/m*3 16.1 C 1.6 km/h
366 31-03-2014 12:55:00 16.4 C 8.79 g/m*3 16.4 C 3.2 km/h
367 31-03-2014 13:00:00 16.7 C 8.67 g/m*3 16.7 C 1.6 km/h
368 31-03-2014 13:05:00 17 C 8.83 g/m*3 17 C 4.8 km/h
369 31-03-2014 13:10:00 17.3 C 8.54 g/m*3 17.3 C 4.8 km/h
370 31-03-2014 13:15:00 17.6 C 8.55 g/m*3 17.6 C 3.2 km/h
371 31-03-2014 13:20:00 17.8 C 8.65 g/m*3 17.8 C 4.8 km/h
372 31-03-2014 13:25:00 17.9 C 8.4 g/m*3 17.9 C 4.8 km/h
373 31-03-2014 13:30:00 18.1 C 8.03 g/m*3 18.1 C 3.2 km/h
374 31-03-2014 13:35:00 18.3 C 8.6 g/m*3 18.3 C 1.6 km/h
375 31-03-2014 13:40:00 18.4 C 8.18 g/m*3 18.4 C 1.6 km/h
Sensor: Nr:Datum:Temp:Abs-Feuchte:Windchill:Wind:
Aussen-T/F 376 31-03-2014 13:45:00 18.6 C 8.44 g/m*3 18.6 C 4.8 km/h
377 31-03-2014 13:50:00 18.7 C 8.33 g/m*3 18.7 C 1.6 km/h
378 31-03-2014 13:55:00 18.8 C 8.54 g/m*3 18.8 C 1.6 km/h
379 31-03-2014 14:00:00 18.9 C 8.59 g/m*3 18.9 C 4.8 km/h
380 31-03-2014 14:05:00 19.1 C 8.03 g/m*3 19.1 C 4.8 km/h
381 31-03-2014 14:10:00 19.3 C 8.63 g/m*3 19.3 C 3.2 km/h
382 31-03-2014 14:15:00 19.8 C 8.37 g/m*3 19.8 C 4.8 km/h
383 31-03-2014 14:20:00 20.1 C 8.69 g/m*3 20.1 C 3.2 km/h
384 31-03-2014 14:25:00 20.3 C 7.56 g/m*3 20.3 C 3.2 km/h
385 31-03-2014 14:30:00 20.5 C 6.05 g/m*3 20.5 C 1.6 km/h
386 31-03-2014 14:35:00 20.8 C 6.34 g/m*3 20.8 C 4.8 km/h
387 31-03-2014 14:40:00 20.9 C 6.56 g/m*3 20.9 C 4.8 km/h
388 31-03-2014 14:45:00 21 C 5.31 g/m*3 21 C 6.4 km/h
389 31-03-2014 14:50:00 21.1 C 6.45 g/m*3 21.1 C 6.4 km/h
390 31-03-2014 14:55:00 21.3 C 5.41 g/m*3 21.3 C 6.4 km/h
391 31-03-2014 15:00:00 21.6 C 4.17 g/m*3 21.6 C 9.7 km/h
392 31-03-2014 15:05:00 21.6 C 4.36 g/m*3 21.6 C 6.4 km/h
393 31-03-2014 15:10:00 21.6 C 4.74 g/m*3 21.6 C 4.8 km/h
394 31-03-2014 15:15:00 21.7 C 4.39 g/m*3 21.7 C 4.8 km/h
395 31-03-2014 15:20:00 21.8 C 4.22 g/m*3 21.8 C 8.1 km/h
396 31-03-2014 15:25:00 21.9 C 4.05 g/m*3 21.9 C 6.4 km/h
397 31-03-2014 15:30:00 22.1 C 4.88 g/m*3 22.1 C 9.7 km/h
398 31-03-2014 15:35:00 22.3 C 4.74 g/m*3 22.3 C 6.4 km/h
399 31-03-2014 15:40:00 22.6 C 5.22 g/m*3 22.6 C 6.4 km/h
400 31-03-2014 15:45:00 22.8 C 5.49 g/m*3 22.8 C 8.1 km/h
Sensor: Nr:Datum:Temp:Abs-Feuchte:Windchill:Wind:
Aussen-T/F 401 31-03-2014 15:50:00 22.8 C 5.69 g/m*3 22.8 C 4.8 km/h
402 31-03-2014 15:55:00 22.9 C 6.13 g/m*3 22.9 C 6.4 km/h
403 31-03-2014 16:00:00 23 C 5.34 g/m*3 23 C 6.4 km/h
404 31-03-2014 16:05:00 22.9 C 5.52 g/m*3 22.9 C 8.1 km/h
405 31-03-2014 16:10:00 22.9 C 5.31 g/m*3 22.9 C 6.4 km/h
406 31-03-2014 16:15:00 22.9 C 5.72 g/m*3 22.9 C 8.1 km/h
407 31-03-2014 16:20:00 22.8 C 5.89 g/m*3 22.8 C 9.7 km/h
408 31-03-2014 16:25:00 22.8 C 5.49 g/m*3 22.8 C 8.1 km/h
409 31-03-2014 16:30:00 22.8 C 5.89 g/m*3 22.8 C 11.3 km/h
410 31-03-2014 16:35:00 22.9 C 5.93 g/m*3 22.9 C 11.3 km/h
411 31-03-2014 16:40:00 23 C 5.96 g/m*3 23 C 11.3 km/h
412 31-03-2014 16:45:00 23.1 C 6.41 g/m*3 23.1 C 11.3 km/h
413 31-03-2014 16:50:00 23.1 C 6.2 g/m*3 23.1 C 9.7 km/h
414 31-03-2014 16:55:00 23.2 C 5.82 g/m*3 23.2 C 14.5 km/h
415 31-03-2014 17:00:00 23.1 C 5.79 g/m*3 23.1 C 14.5 km/h
416 31-03-2014 17:05:00 23 C 5.96 g/m*3 23 C 9.7 km/h
417 31-03-2014 17:10:00 22.9 C 5.93 g/m*3 22.9 C 8.1 km/h
418 31-03-2014 17:15:00 23 C 5.96 g/m*3 23 C 8.1 km/h
419 31-03-2014 17:20:00 23.1 C 5.99 g/m*3 23.1 C 6.4 km/h
420 31-03-2014 17:25:00 23.1 C 6.41 g/m*3 23.1 C 8.1 km/h
421 31-03-2014 17:30:00 23.1 C 5.58 g/m*3 23.1 C 8.1 km/h
422 31-03-2014 17:35:00 22.9 C 5.93 g/m*3 22.9 C 9.7 km/h
423 31-03-2014 17:40:00 22.9 C 5.52 g/m*3 22.9 C 8.1 km/h
424 31-03-2014 17:45:00 22.8 C 5.49 g/m*3 22.8 C 6.4 km/h
425 31-03-2014 17:50:00 22.7 C 5.46 g/m*3 22.7 C 8.1 km/h
Sensor: Nr:Datum:Temp:Abs-Feuchte:Windchill:Wind:
Aussen-T/F 426 31-03-2014 17:55:00 22.7 C 5.66 g/m*3 22.7 C 6.4 km/h
427 31-03-2014 18:00:00 22.6 C 5.22 g/m*3 22.6 C 6.4 km/h
428 31-03-2014 18:05:00 22.6 C 5.02 g/m*3 22.6 C 4.8 km/h
429 31-03-2014 18:10:00 22.4 C 4.77 g/m*3 22.4 C 1.6 km/h
430 31-03-2014 18:15:00 22.4 C 5.96 g/m*3 22.4 C 4.8 km/h
431 31-03-2014 18:20:00 22.3 C 6.32 g/m*3 22.3 C 3.2 km/h
432 31-03-2014 18:25:00 22.1 C 5.08 g/m*3 22.1 C 3.2 km/h
433 31-03-2014 18:30:00 21.8 C 5.95 g/m*3 21.8 C 4.8 km/h
434 31-03-2014 18:35:00 21.3 C 6.9 g/m*3 21.3 C 3.2 km/h
435 31-03-2014 18:40:00 20.6 C 7.16 g/m*3 20.6 C 1.6 km/h
436 31-03-2014 18:45:00 20.1 C 6.78 g/m*3 20.1 C 1.6 km/h
437 31-03-2014 18:50:00 19.7 C 6.96 g/m*3 19.7 C 1.6 km/h
438 31-03-2014 18:55:00 19.4 C 6.84 g/m*3 19.4 C 1.6 km/h
439 31-03-2014 19:00:00 19.2 C 6.93 g/m*3 19.2 C 3.2 km/h
440 31-03-2014 19:05:00 18.8 C 7.09 g/m*3 18.8 C 4.8 km/h
441 31-03-2014 19:10:00 18.4 C 6.61 g/m*3 18.4 C 4.8 km/h
442 31-03-2014 19:15:00 18.1 C 6.8 g/m*3 18.1 C 3.2 km/h
443 31-03-2014 19:20:00 17.8 C 6.68 g/m*3 17.8 C 4.8 km/h
444 31-03-2014 19:25:00 17.4 C 6.37 g/m*3 17.4 C 6.4 km/h
445 31-03-2014 19:30:00 17.2 C 6.44 g/m*3 17.2 C 4.8 km/h
446 31-03-2014 19:35:00 16.9 C 6.18 g/m*3 16.9 C 4.8 km/h
447 31-03-2014 19:40:00 16.7 C 6.4 g/m*3 16.7 C 6.4 km/h
448 31-03-2014 19:45:00 16.4 C 6.14 g/m*3 16.4 C 6.4 km/h
449 31-03-2014 19:50:00 16.2 C 6.21 g/m*3 16.2 C 6.4 km/h
450 31-03-2014 19:55:00 15.8 C 6.06 g/m*3 15.8 C 6.4 km/h
Sensor: Nr:Datum:Temp:Abs-Feuchte:Windchill:Wind:
Aussen-T/F 451 31-03-2014 20:00:00 15.7 C 5.89 g/m*3 15.7 C 4.8 km/h
452 31-03-2014 20:05:00 15.6 C 6.25 g/m*3 15.6 C 4.8 km/h
453 31-03-2014 20:10:00 15.5 C 6.08 g/m*3 15.5 C 6.4 km/h
454 31-03-2014 20:15:00 15.2 C 5.97 g/m*3 15.2 C 6.4 km/h
455 31-03-2014 20:20:00 15.2 C 5.97 g/m*3 15.2 C 6.4 km/h
456 31-03-2014 20:25:00 15.1 C 5.93 g/m*3 15.1 C 4.8 km/h
457 31-03-2014 20:30:00 15.1 C 6.06 g/m*3 15.1 C 4.8 km/h
458 31-03-2014 20:35:00 15 C 6.28 g/m*3 15 C 6.4 km/h
459 31-03-2014 20:40:00 14.9 C 6.12 g/m*3 14.9 C 6.4 km/h
460 31-03-2014 20:45:00 14.9 C 6.25 g/m*3 14.9 C 6.4 km/h
461 31-03-2014 20:50:00 14.8 C 6.46 g/m*3 14.8 C 4.8 km/h
462 31-03-2014 20:55:00 14.7 C 6.42 g/m*3 14.7 C 4.8 km/h
463 31-03-2014 21:00:00 14.6 C 6.51 g/m*3 14.6 C 4.8 km/h
464 31-03-2014 21:05:00 14.5 C 6.59 g/m*3 14.5 C 4.8 km/h
465 31-03-2014 21:10:00 14.4 C 7.05 g/m*3 14.4 C 1.6 km/h
466 31-03-2014 21:15:00 14.2 C 7.08 g/m*3 14.2 C 3.2 km/h
467 31-03-2014 21:20:00 14.1 C 7.4 g/m*3 14.1 C 1.6 km/h
468 31-03-2014 21:25:00 14.1 C 7.52 g/m*3 14.1 C 3.2 km/h
469 31-03-2014 21:30:00 14.1 C 7.52 g/m*3 14.1 C 4.8 km/h
470 31-03-2014 21:35:00 14 C 7.6 g/m*3 14 C 6.4 km/h
471 31-03-2014 21:40:00 13.9 C 7.67 g/m*3 13.9 C 3.2 km/h
472 31-03-2014 21:45:00 13.8 C 7.74 g/m*3 13.8 C 4.8 km/h
473 31-03-2014 21:50:00 13.7 C 7.7 g/m*3 13.7 C 4.8 km/h
474 31-03-2014 21:55:00 13.5 C 7.72 g/m*3 13.5 C 1.6 km/h
475 31-03-2014 22:00:00 13.3 C 7.74 g/m*3 13.3 C 0 km/h
Sensor: Nr:Datum:Temp:Abs-Feuchte:Windchill:Wind:
Aussen-T/F 476 31-03-2014 22:05:00 13.1 C 7.53 g/m*3 13.1 C 1.6 km/h
477 31-03-2014 22:10:00 12.9 C 7.66 g/m*3 12.9 C 1.6 km/h
478 31-03-2014 22:15:00 12.8 C 7.73 g/m*3 12.8 C 0 km/h
479 31-03-2014 22:20:00 12.6 C 7.63 g/m*3 12.6 C 0 km/h
480 31-03-2014 22:25:00 12.5 C 7.7 g/m*3 12.5 C 0 km/h
481 31-03-2014 22:30:00 12.4 C 7.65 g/m*3 12.4 C 0 km/h
482 31-03-2014 22:35:00 12.3 C 7.49 g/m*3 12.3 C 0 km/h
483 31-03-2014 22:40:00 12.4 C 7.65 g/m*3 12.4 C 0 km/h
484 31-03-2014 22:45:00 12.4 C 7.87 g/m*3 12.4 C 0 km/h
485 31-03-2014 22:50:00 12.4 C 7.98 g/m*3 12.4 C 0 km/h
486 31-03-2014 22:55:00 12.4 C 7.76 g/m*3 12.4 C 0 km/h
487 31-03-2014 23:00:00 12.4 C 7.54 g/m*3 12.4 C 0 km/h
488 31-03-2014 23:05:00 12.5 C 7.48 g/m*3 12.5 C 0 km/h
489 31-03-2014 23:10:00 12.5 C 7.48 g/m*3 12.5 C 0 km/h
490 31-03-2014 23:15:00 12.4 C 7.54 g/m*3 12.4 C 0 km/h
491 31-03-2014 23:20:00 12.3 C 7.49 g/m*3 12.3 C 0 km/h
492 31-03-2014 23:25:00 12.1 C 7.4 g/m*3 12.1 C 0 km/h
493 31-03-2014 23:30:00 12 C 7.35 g/m*3 12 C 1.6 km/h
494 31-03-2014 23:35:00 11.9 C 7.41 g/m*3 11.9 C 0 km/h
495 31-03-2014 23:40:00 11.7 C 7.53 g/m*3 11.7 C 0 km/h
496 31-03-2014 23:45:00 11.6 C 7.38 g/m*3 11.6 C 3.2 km/h
497 31-03-2014 23:50:00 11.5 C 7.44 g/m*3 11.5 C 1.6 km/h
498 31-03-2014 23:55:00 11.3 C 7.34 g/m*3 11.3 C 0 km/h
499 01-04-2014 00:00:00 11.2 C 7.3 g/m*3 11.2 C 0 km/h
500 01-04-2014 00:05:00 11.1 C 7.35 g/m*3 11.1 C 0 km/h
Sensor: Nr:Datum:Temp:Abs-Feuchte:Windchill:Wind:
Aussen-T/F 501 01-04-2014 00:10:00 11 C 7.61 g/m*3 11 C 0 km/h
502 01-04-2014 00:15:00 11 C 7.31 g/m*3 11 C 1.6 km/h
503 01-04-2014 00:20:00 11 C 7.41 g/m*3 11 C 0 km/h
504 01-04-2014 00:25:00 10.9 C 7.36 g/m*3 10.9 C 0 km/h
505 01-04-2014 00:30:00 10.8 C 7.31 g/m*3 10.8 C 0 km/h
506 01-04-2014 00:35:00 10.8 C 7.41 g/m*3 10.8 C 0 km/h
507 01-04-2014 00:40:00 10.8 C 7.61 g/m*3 10.8 C 0 km/h
508 01-04-2014 00:45:00 10.9 C 7.46 g/m*3 10.9 C 1.6 km/h
509 01-04-2014 00:50:00 10.9 C 7.36 g/m*3 10.9 C 3.2 km/h
510 01-04-2014 00:55:00 10.9 C 7.36 g/m*3 10.9 C 3.2 km/h
511 01-04-2014 01:00:00 10.9 C 7.46 g/m*3 10.9 C 0 km/h
512 01-04-2014 01:05:00 10.9 C 7.56 g/m*3 10.9 C 0 km/h
513 01-04-2014 01:10:00 10.8 C 7.41 g/m*3 10.8 C 3.2 km/h
514 01-04-2014 01:15:00 10.8 C 7.51 g/m*3 10.8 C 3.2 km/h
515 01-04-2014 01:20:00 10.8 C 7.41 g/m*3 10.8 C 0 km/h
516 01-04-2014 01:25:00 10.8 C 7.61 g/m*3 10.8 C 0 km/h
517 01-04-2014 01:30:00 10.8 C 7.41 g/m*3 10.8 C 3.2 km/h
518 01-04-2014 01:35:00 10.8 C 7.61 g/m*3 10.8 C 0 km/h
519 01-04-2014 01:40:00 10.7 C 7.46 g/m*3 10.7 C 0 km/h
520 01-04-2014 01:45:00 10.7 C 7.46 g/m*3 10.7 C 0 km/h
521 01-04-2014 01:50:00 10.7 C 7.46 g/m*3 10.7 C 0 km/h
522 01-04-2014 01:55:00 10.7 C 7.46 g/m*3 10.7 C 0 km/h
523 01-04-2014 02:00:00 10.7 C 7.56 g/m*3 10.7 C 0 km/h
524 01-04-2014 02:05:00 10.7 C 7.56 g/m*3 10.7 C 0 km/h
525 01-04-2014 02:10:00 10.7 C 7.56 g/m*3 10.7 C 0 km/h
Sensor: Nr:Datum:Temp:Abs-Feuchte:Windchill:Wind:
Aussen-T/F 526 01-04-2014 02:15:00 10.6 C 7.52 g/m*3 10.6 C 0 km/h
527 01-04-2014 02:20:00 10.6 C 7.71 g/m*3 10.6 C 0 km/h
528 01-04-2014 02:25:00 10.6 C 7.61 g/m*3 10.6 C 0 km/h
529 01-04-2014 02:30:00 10.6 C 7.61 g/m*3 10.6 C 0 km/h
530 01-04-2014 02:35:00 10.6 C 7.61 g/m*3 10.6 C 0 km/h
531 01-04-2014 02:40:00 10.6 C 7.52 g/m*3 10.6 C 0 km/h
532 01-04-2014 02:45:00 10.4 C 7.52 g/m*3 10.4 C 0 km/h
533 01-04-2014 02:50:00 10.2 C 7.42 g/m*3 10.2 C 3.2 km/h
534 01-04-2014 02:55:00 10 C 7.42 g/m*3 10 C 0 km/h
535 01-04-2014 03:00:00 9.8 C 7.33 g/m*3 9.8 C 0 km/h
536 01-04-2014 03:05:00 9.8 C 7.42 g/m*3 9.8 C 0 km/h
537 01-04-2014 03:10:00 9.7 C 7.38 g/m*3 9.7 C 0 km/h
538 01-04-2014 03:15:00 9.7 C 7.38 g/m*3 9.7 C 0 km/h
539 01-04-2014 03:20:00 9.7 C 7.38 g/m*3 9.7 C 0 km/h
540 01-04-2014 03:25:00 9.6 C 7.33 g/m*3 9.6 C 0 km/h
541 01-04-2014 03:30:00 9.6 C 7.33 g/m*3 9.6 C 0 km/h
542 01-04-2014 03:35:00 9.5 C 7.37 g/m*3 9.5 C 1.6 km/h
543 01-04-2014 03:40:00 9.4 C 7.33 g/m*3 9.4 C 1.6 km/h
544 01-04-2014 03:45:00 9.4 C 7.33 g/m*3 9.4 C 0 km/h
545 01-04-2014 03:50:00 9.3 C 7.28 g/m*3 9.3 C 0 km/h
546 01-04-2014 03:55:00 9.3 C 7.19 g/m*3 9.3 C 0 km/h
547 01-04-2014 04:00:00 9.3 C 7.28 g/m*3 9.3 C 0 km/h
548 01-04-2014 04:05:00 9.3 C 7.28 g/m*3 9.3 C 0 km/h
549 01-04-2014 04:10:00 9.3 C 7.37 g/m*3 9.3 C 0 km/h
550 01-04-2014 04:15:00 9.2 C 7.23 g/m*3 9.2 C 1.6 km/h
Sensor: Nr:Datum:Temp:Abs-Feuchte:Windchill:Wind:
Aussen-T/F 551 01-04-2014 04:20:00 9.2 C 7.23 g/m*3 9.2 C 0 km/h
552 01-04-2014 04:25:00 9.1 C 7.28 g/m*3 9.1 C 0 km/h
553 01-04-2014 04:30:00 9.1 C 7.28 g/m*3 9.1 C 0 km/h
554 01-04-2014 04:35:00 8.9 C 7.18 g/m*3 8.9 C 0 km/h
555 01-04-2014 04:40:00 8.8 C 7.14 g/m*3 8.8 C 0 km/h
556 01-04-2014 04:45:00 8.8 C 7.14 g/m*3 8.8 C 0 km/h
557 01-04-2014 04:50:00 8.8 C 7.14 g/m*3 8.8 C 0 km/h
558 01-04-2014 04:55:00 8.7 C 7.09 g/m*3 8.7 C 0 km/h
559 01-04-2014 05:00:00 8.8 C 7.22 g/m*3 8.8 C 0 km/h
560 01-04-2014 05:05:00 8.7 C 7.18 g/m*3 8.7 C 0 km/h
561 01-04-2014 05:10:00 8.7 C 7.18 g/m*3 8.7 C 0 km/h
562 01-04-2014 05:15:00 8.7 C 7.18 g/m*3 8.7 C 0 km/h
563 01-04-2014 05:20:00 8.7 C 7.18 g/m*3 8.7 C 0 km/h
564 01-04-2014 05:25:00 8.6 C 7.13 g/m*3 8.6 C 0 km/h
565 01-04-2014 05:30:00 8.5 C 7.09 g/m*3 8.5 C 0 km/h
566 01-04-2014 05:35:00 8.4 C 7.13 g/m*3 8.4 C 0 km/h
567 01-04-2014 05:40:00 8.4 C 7.13 g/m*3 8.4 C 0 km/h
568 01-04-2014 05:45:00 8.3 C 7.08 g/m*3 8.3 C 0 km/h
569 01-04-2014 05:50:00 8.3 C 7.08 g/m*3 8.3 C 0 km/h
570 01-04-2014 05:55:00 8.3 C 7.08 g/m*3 8.3 C 0 km/h
571 01-04-2014 06:00:00 8.2 C 7.03 g/m*3 8.2 C 0 km/h
572 01-04-2014 06:05:00 8.1 C 6.99 g/m*3 8.1 C 0 km/h
573 01-04-2014 06:10:00 8.1 C 6.99 g/m*3 8.1 C 0 km/h
574 01-04-2014 06:15:00 7.9 C 6.9 g/m*3 7.9 C 0 km/h
575 01-04-2014 06:20:00 7.9 C 6.98 g/m*3 7.9 C 1.6 km/h
Sensor: Nr:Datum:Temp:Abs-Feuchte:Windchill:Wind:
Aussen-T/F 576 01-04-2014 06:25:00 8 C 7.03 g/m*3 8 C 0 km/h
577 01-04-2014 06:30:00 8 C 7.11 g/m*3 8 C 0 km/h
578 01-04-2014 06:35:00 8 C 7.03 g/m*3 8 C 0 km/h
579 01-04-2014 06:40:00 8 C 6.94 g/m*3 8 C 0 km/h
580 01-04-2014 06:45:00 8 C 6.94 g/m*3 8 C 0 km/h
581 01-04-2014 06:50:00 8 C 7.03 g/m*3 8 C 0 km/h
582 01-04-2014 06:55:00 7.9 C 6.98 g/m*3 7.9 C 0 km/h
583 01-04-2014 07:00:00 7.8 C 6.94 g/m*3 7.8 C 0 km/h
584 01-04-2014 07:05:00 7.7 C 6.89 g/m*3 7.7 C 0 km/h
585 01-04-2014 07:10:00 7.6 C 6.85 g/m*3 7.6 C 0 km/h
586 01-04-2014 07:15:00 7.6 C 6.85 g/m*3 7.6 C 0 km/h
587 01-04-2014 07:20:00 7.6 C 6.93 g/m*3 7.6 C 0 km/h
588 01-04-2014 07:25:00 7.6 C 7.01 g/m*3 7.6 C 0 km/h
589 01-04-2014 07:30:00 7.6 C 7.01 g/m*3 7.6 C 0 km/h
590 01-04-2014 07:35:00 7.5 C 6.96 g/m*3 7.5 C 3.2 km/h
591 01-04-2014 07:40:00 7.6 C 7.01 g/m*3 7.6 C 0 km/h
592 01-04-2014 07:45:00 7.7 C 7.05 g/m*3 7.7 C 0 km/h
593 01-04-2014 07:50:00 7.8 C 7.18 g/m*3 7.8 C 0 km/h
594 01-04-2014 07:55:00 7.8 C 7.18 g/m*3 7.8 C 0 km/h
595 01-04-2014 08:00:00 7.9 C 7.23 g/m*3 7.9 C 0 km/h
596 01-04-2014 08:05:00 7.9 C 7.23 g/m*3 7.9 C 0 km/h
597 01-04-2014 08:10:00 8.1 C 7.24 g/m*3 8.1 C 0 km/h
598 01-04-2014 08:15:00 8.1 C 7.24 g/m*3 8.1 C 0 km/h
599 01-04-2014 08:20:00 8.2 C 7.37 g/m*3 8.2 C 0 km/h
600 01-04-2014 08:25:00 8.3 C 7.33 g/m*3 8.3 C 1.6 km/h
Sensor: Nr:Datum:Temp:Abs-Feuchte:Windchill:Wind:
Aussen-T/F 601 01-04-2014 08:30:00 8.4 C 7.38 g/m*3 8.4 C 0 km/h
602 01-04-2014 08:35:00 8.5 C 7.43 g/m*3 8.5 C 0 km/h
603 01-04-2014 08:40:00 8.7 C 7.52 g/m*3 8.7 C 0 km/h
604 01-04-2014 08:45:00 8.8 C 7.49 g/m*3 8.8 C 0 km/h
605 01-04-2014 08:50:00 8.8 C 7.49 g/m*3 8.8 C 0 km/h
606 01-04-2014 08:55:00 8.9 C 7.53 g/m*3 8.9 C 0 km/h
607 01-04-2014 09:00:00 9.1 C 7.63 g/m*3 9.1 C 0 km/h
608 01-04-2014 09:05:00 9.2 C 7.68 g/m*3 9.2 C 0 km/h
609 01-04-2014 09:10:00 9.3 C 7.73 g/m*3 9.3 C 1.6 km/h
610 01-04-2014 09:15:00 9.4 C 7.69 g/m*3 9.4 C 0 km/h
611 01-04-2014 09:20:00 9.6 C 7.51 g/m*3 9.6 C 0 km/h
612 01-04-2014 09:25:00 9.7 C 7.47 g/m*3 9.7 C 0 km/h
613 01-04-2014 09:30:00 9.9 C 7.56 g/m*3 9.9 C 0 km/h
614 01-04-2014 09:35:00 10.1 C 7.75 g/m*3 10.1 C 0 km/h
615 01-04-2014 09:40:00 10.2 C 7.8 g/m*3 10.2 C 0 km/h
616 01-04-2014 09:45:00 10.2 C 7.71 g/m*3 10.2 C 0 km/h
617 01-04-2014 09:50:00 10.4 C 7.81 g/m*3 10.4 C 0 km/h
618 01-04-2014 09:55:00 10.5 C 7.86 g/m*3 10.5 C 0 km/h
619 01-04-2014 10:00:00 10.7 C 7.96 g/m*3 10.7 C 0 km/h
620 01-04-2014 10:05:00 10.8 C 8.11 g/m*3 10.8 C 0 km/h
621 01-04-2014 10:10:00 11 C 8.01 g/m*3 11 C 0 km/h
622 01-04-2014 10:15:00 11.2 C 8.01 g/m*3 11.2 C 0 km/h
623 01-04-2014 10:20:00 11.3 C 7.96 g/m*3 11.3 C 0 km/h
624 01-04-2014 10:25:00 11.5 C 7.95 g/m*3 11.5 C 0 km/h
625 01-04-2014 10:30:00 11.7 C 8.05 g/m*3 11.7 C 0 km/h
Sensor: Nr:Datum:Temp:Abs-Feuchte:Windchill:Wind:
Aussen-T/F 626 01-04-2014 10:35:00 11.8 C 7.89 g/m*3 11.8 C 0 km/h
627 01-04-2014 10:40:00 12 C 8.1 g/m*3 12 C 0 km/h
628 01-04-2014 10:45:00 12.2 C 8.09 g/m*3 12.2 C 0 km/h
629 01-04-2014 10:50:00 12.4 C 8.09 g/m*3 12.4 C 0 km/h
630 01-04-2014 10:55:00 12.6 C 8.08 g/m*3 12.6 C 0 km/h
631 01-04-2014 11:00:00 12.7 C 8.01 g/m*3 12.7 C 0 km/h
632 01-04-2014 11:05:00 12.9 C 8.23 g/m*3 12.9 C 0 km/h
633 01-04-2014 11:10:00 13.2 C 8.04 g/m*3 13.2 C 0 km/h
634 01-04-2014 11:15:00 13.4 C 8.25 g/m*3 13.4 C 0 km/h
635 01-04-2014 11:20:00 13.7 C 8.53 g/m*3 13.7 C 0 km/h
636 01-04-2014 11:25:00 13.9 C 8.39 g/m*3 13.9 C 0 km/h
637 01-04-2014 11:30:00 14.2 C 8.3 g/m*3 14.2 C 0 km/h
638 01-04-2014 11:35:00 14.4 C 8.03 g/m*3 14.4 C 0 km/h
639 01-04-2014 11:40:00 14.7 C 8.31 g/m*3 14.7 C 0 km/h
640 01-04-2014 11:45:00 15.1 C 8.51 g/m*3 15.1 C 0 km/h
641 01-04-2014 11:50:00 15.3 C 8.23 g/m*3 15.3 C 0 km/h
642 01-04-2014 11:55:00 15.6 C 8.25 g/m*3 15.6 C 3.2 km/h
643 01-04-2014 12:00:00 15.8 C 8.21 g/m*3 15.8 C 0 km/h
644 01-04-2014 12:05:00 16.1 C 8.22 g/m*3 16.1 C 0 km/h
645 01-04-2014 12:10:00 16.4 C 8.23 g/m*3 16.4 C 1.6 km/h
646 01-04-2014 12:15:00 16.7 C 8.1 g/m*3 16.7 C 1.6 km/h
647 01-04-2014 12:20:00 16.9 C 8.49 g/m*3 16.9 C 0 km/h
648 01-04-2014 12:25:00 17.2 C 8.49 g/m*3 17.2 C 0 km/h
649 01-04-2014 12:30:00 17.5 C 8.05 g/m*3 17.5 C 1.6 km/h
650 01-04-2014 12:35:00 17.8 C 8.04 g/m*3 17.8 C 0 km/h
Sensor: Nr:Datum:Temp:Abs-Feuchte:Windchill:Wind:
Aussen-T/F 651 01-04-2014 12:40:00 18.1 C 8.34 g/m*3 18.1 C 1.6 km/h
652 01-04-2014 12:45:00 18.3 C 8.29 g/m*3 18.3 C 1.6 km/h
653 01-04-2014 12:50:00 18.7 C 8.33 g/m*3 18.7 C 3.2 km/h
654 01-04-2014 12:55:00 18.9 C 8.75 g/m*3 18.9 C 0 km/h
655 01-04-2014 13:00:00 19.4 C 8.84 g/m*3 19.4 C 3.2 km/h
656 01-04-2014 13:05:00 19.7 C 9 g/m*3 19.7 C 1.6 km/h
657 01-04-2014 13:10:00 20.3 C 9.32 g/m*3 20.3 C 1.6 km/h
658 01-04-2014 13:15:00 20.8 C 8.87 g/m*3 20.8 C 3.2 km/h
659 01-04-2014 13:20:00 21 C 8.06 g/m*3 21 C 3.2 km/h
660 01-04-2014 13:25:00 21.2 C 8.34 g/m*3 21.2 C 4.8 km/h
661 01-04-2014 13:30:00 21.3 C 8.39 g/m*3 21.3 C 4.8 km/h
662 01-04-2014 13:35:00 21.5 C 8.11 g/m*3 21.5 C 4.8 km/h
663 01-04-2014 13:40:00 21.6 C 8.16 g/m*3 21.6 C 3.2 km/h
664 01-04-2014 13:45:00 21.7 C 8.58 g/m*3 21.7 C 3.2 km/h
665 01-04-2014 13:50:00 22 C 8.73 g/m*3 22 C 4.8 km/h
666 01-04-2014 13:55:00 22.3 C 8.49 g/m*3 22.3 C 0 km/h
667 01-04-2014 14:00:00 22.4 C 7.55 g/m*3 22.4 C 6.4 km/h
668 01-04-2014 14:05:00 22.3 C 7.9 g/m*3 22.3 C 6.4 km/h
669 01-04-2014 14:10:00 22.3 C 7.5 g/m*3 22.3 C 4.8 km/h
670 01-04-2014 14:15:00 22.1 C 7.22 g/m*3 22.1 C 4.8 km/h
671 01-04-2014 14:20:00 22 C 8.35 g/m*3 22 C 4.8 km/h
672 01-04-2014 14:25:00 22.1 C 7.81 g/m*3 22.1 C 4.8 km/h
673 01-04-2014 14:30:00 22.2 C 7.85 g/m*3 22.2 C 3.2 km/h
674 01-04-2014 14:35:00 22.1 C 7.81 g/m*3 22.1 C 3.2 km/h
675 01-04-2014 14:40:00 21.9 C 7.72 g/m*3 21.9 C 6.4 km/h
Sensor: Nr:Datum:Temp:Abs-Feuchte:Windchill:Wind:
Aussen-T/F 676 01-04-2014 14:45:00 21.9 C 7.91 g/m*3 21.9 C 6.4 km/h
677 01-04-2014 14:50:00 22 C 7.76 g/m*3 22 C 6.4 km/h
678 01-04-2014 14:55:00 21.9 C 7.91 g/m*3 21.9 C 3.2 km/h
679 01-04-2014 15:00:00 22 C 7.57 g/m*3 22 C 6.4 km/h
680 01-04-2014 15:05:00 22 C 7.57 g/m*3 22 C 8.1 km/h
681 01-04-2014 15:10:00 21.8 C 7.48 g/m*3 21.8 C 3.2 km/h
682 01-04-2014 15:15:00 21.8 C 7.29 g/m*3 21.8 C 1.6 km/h
683 01-04-2014 15:20:00 21.8 C 7.29 g/m*3 21.8 C 0 km/h
684 01-04-2014 15:25:00 21.8 C 7.29 g/m*3 21.8 C 3.2 km/h
685 01-04-2014 15:30:00 21.8 C 7.29 g/m*3 21.8 C 1.6 km/h
686 01-04-2014 15:35:00 21.8 C 7.29 g/m*3 21.8 C 3.2 km/h
687 01-04-2014 15:40:00 21.8 C 7.29 g/m*3 21.8 C 8.1 km/h
688 01-04-2014 15:45:00 21.8 C 7.29 g/m*3 21.8 C 8.1 km/h
689 01-04-2014 15:50:00 22.5 C 7.79 g/m*3 22.5 C 4.8 km/h
690 01-04-2014 15:55:00 22.6 C 7.83 g/m*3 22.6 C 4.8 km/h
691 01-04-2014 16:00:00 22.8 C 8.13 g/m*3 22.8 C 1.6 km/h
692 01-04-2014 16:05:00 22.9 C 7.77 g/m*3 22.9 C 3.2 km/h
693 01-04-2014 16:10:00 23.1 C 7.03 g/m*3 23.1 C 8.1 km/h
694 01-04-2014 16:15:00 23.1 C 7.44 g/m*3 23.1 C 6.4 km/h
695 01-04-2014 16:20:00 23.1 C 7.44 g/m*3 23.1 C 4.8 km/h
696 01-04-2014 16:25:00 23.1 C 7.03 g/m*3 23.1 C 3.2 km/h
697 01-04-2014 16:30:00 23.2 C 6.86 g/m*3 23.2 C 4.8 km/h
698 01-04-2014 16:35:00 23.1 C 7.03 g/m*3 23.1 C 4.8 km/h
699 01-04-2014 16:40:00 23.1 C 7.03 g/m*3 23.1 C 4.8 km/h
700 01-04-2014 16:45:00 23.1 C 7.03 g/m*3 23.1 C 8.1 km/h
Sensor: Nr:Datum:Temp:Abs-Feuchte:Windchill:Wind:
Aussen-T/F 701 01-04-2014 16:50:00 23.1 C 7.03 g/m*3 23.1 C 9.7 km/h
702 01-04-2014 16:55:00 23.1 C 7.03 g/m*3 23.1 C 4.8 km/h
703 01-04-2014 17:00:00 22.8 C 6.91 g/m*3 22.8 C 8.1 km/h
704 01-04-2014 17:05:00 22.7 C 6.87 g/m*3 22.7 C 8.1 km/h
705 01-04-2014 17:10:00 22.7 C 6.87 g/m*3 22.7 C 8.1 km/h
706 01-04-2014 17:15:00 22.8 C 6.91 g/m*3 22.8 C 8.1 km/h
707 01-04-2014 17:20:00 22.8 C 6.91 g/m*3 22.8 C 6.4 km/h
708 01-04-2014 19:25:00 18.4 C 8.65 g/m*3 18.4 C 6.4 km/h
709 01-04-2014 19:30:00 18.3 C 8.76 g/m*3 18.3 C 4.8 km/h
710 01-04-2014 19:35:00 18.1 C 8.65 g/m*3 18.1 C 3.2 km/h
711 01-04-2014 19:40:00 17.8 C 8.65 g/m*3 17.8 C 4.8 km/h
712 01-04-2014 19:45:00 17.6 C 8.55 g/m*3 17.6 C 4.8 km/h
713 01-04-2014 19:50:00 17.4 C 8.74 g/m*3 17.4 C 6.4 km/h
714 01-04-2014 19:55:00 17.3 C 8.54 g/m*3 17.3 C 6.4 km/h
715 01-04-2014 20:00:00 17.3 C 8.69 g/m*3 17.3 C 3.2 km/h
716 01-04-2014 20:05:00 17.2 C 8.79 g/m*3 17.2 C 4.8 km/h
717 01-04-2014 20:10:00 17.2 C 8.64 g/m*3 17.2 C 3.2 km/h
718 01-04-2014 20:15:00 17.2 C 8.64 g/m*3 17.2 C 4.8 km/h
719 01-04-2014 20:20:00 17.1 C 8.73 g/m*3 17.1 C 4.8 km/h
720 01-04-2014 20:25:00 17 C 8.68 g/m*3 17 C 3.2 km/h
721 01-04-2014 20:30:00 16.9 C 8.77 g/m*3 16.9 C 4.8 km/h
722 01-04-2014 20:35:00 16.9 C 8.63 g/m*3 16.9 C 3.2 km/h
723 01-04-2014 20:40:00 16.8 C 8.58 g/m*3 16.8 C 4.8 km/h
724 01-04-2014 20:45:00 16.8 C 8.72 g/m*3 16.8 C 4.8 km/h
725 01-04-2014 20:50:00 16.8 C 8.72 g/m*3 16.8 C 4.8 km/h
Sensor: Nr:Datum:Temp:Abs-Feuchte:Windchill:Wind:
Aussen-T/F 726 01-04-2014 20:55:00 16.8 C 8.72 g/m*3 16.8 C 3.2 km/h
727 01-04-2014 21:10:00 15.9 C 13.54 g/m*3 15.9 C 3.2 km/h
728 01-04-2014 21:15:00 15.7 C 13.38 g/m*3 15.7 C 3.2 km/h
729 01-04-2014 21:20:00 15.6 C 8.25 g/m*3 15.6 C 3.2 km/h
730 01-04-2014 21:25:00 15.4 C 8.15 g/m*3 15.4 C 3.2 km/h
731 01-04-2014 21:30:00 15.3 C 8.23 g/m*3 15.3 C 3.2 km/h
732 01-04-2014 21:35:00 15.2 C 8.18 g/m*3 15.2 C 4.8 km/h
733 01-04-2014 21:40:00 15.1 C 8 g/m*3 15.1 C 4.8 km/h
734 01-04-2014 21:45:00 15 C 7.95 g/m*3 15 C 1.6 km/h
735 01-04-2014 21:50:00 14.9 C 7.9 g/m*3 14.9 C 4.8 km/h
736 01-04-2014 21:55:00 14.9 C 8.28 g/m*3 14.9 C 4.8 km/h
737 01-04-2014 22:00:00 14.9 C 8.03 g/m*3 14.9 C 1.6 km/h
738 01-04-2014 22:05:00 14.6 C 8.13 g/m*3 14.6 C 4.8 km/h
739 01-04-2014 22:10:00 14.3 C 8.11 g/m*3 14.3 C 0 km/h
740 01-04-2014 22:15:00 14.2 C 8.06 g/m*3 14.2 C 3.2 km/h
741 01-04-2014 22:20:00 14.1 C 8.01 g/m*3 14.1 C 1.6 km/h
742 01-04-2014 22:25:00 13.8 C 7.98 g/m*3 13.8 C 1.6 km/h
743 01-04-2014 22:30:00 13.8 C 7.98 g/m*3 13.8 C 3.2 km/h
744 01-04-2014 22:35:00 13.7 C 7.93 g/m*3 13.7 C 3.2 km/h
745 01-04-2014 22:40:00 13.6 C 8.12 g/m*3 13.6 C 1.6 km/h
746 01-04-2014 22:45:00 13.4 C 8.14 g/m*3 13.4 C 1.6 km/h
747 01-04-2014 22:50:00 13.3 C 7.97 g/m*3 13.3 C 3.2 km/h
748 01-04-2014 22:55:00 13.3 C 7.74 g/m*3 13.3 C 3.2 km/h
749 01-04-2014 23:00:00 13.3 C 7.86 g/m*3 13.3 C 1.6 km/h
750 01-04-2014 23:05:00 13.2 C 7.69 g/m*3 13.2 C 3.2 km/h
Sensor: Nr:Datum:Temp:Abs-Feuchte:Windchill:Wind:
Aussen-T/F 751 01-04-2014 23:10:00 13.2 C 7.81 g/m*3 13.2 C 1.6 km/h
752 01-04-2014 23:15:00 13.1 C 8.1 g/m*3 13.1 C 3.2 km/h
753 01-04-2014 23:20:00 12.9 C 8 g/m*3 12.9 C 3.2 km/h
754 01-04-2014 23:25:00 12.8 C 7.84 g/m*3 12.8 C 0 km/h
755 01-04-2014 23:30:00 12.6 C 7.85 g/m*3 12.6 C 1.6 km/h
756 01-04-2014 23:35:00 12.4 C 7.76 g/m*3 12.4 C 1.6 km/h
757 01-04-2014 23:40:00 12.4 C 7.98 g/m*3 12.4 C 0 km/h
758 01-04-2014 23:45:00 12.3 C 7.93 g/m*3 12.3 C 0 km/h
759 01-04-2014 23:50:00 12.2 C 7.77 g/m*3 12.2 C 0 km/h
760 01-04-2014 23:55:00 12.1 C 7.72 g/m*3 12.1 C 0 km/h
761 02-04-2014 00:00:00 12 C 7.67 g/m*3 12 C 0 km/h
762 02-04-2014 00:05:00 11.9 C 7.73 g/m*3 11.9 C 0 km/h
763 02-04-2014 00:10:00 11.8 C 7.58 g/m*3 11.8 C 0 km/h
764 02-04-2014 00:15:00 11.7 C 7.53 g/m*3 11.7 C 0 km/h
765 02-04-2014 00:20:00 11.6 C 7.59 g/m*3 11.6 C 0 km/h
766 02-04-2014 00:25:00 11.5 C 7.54 g/m*3 11.5 C 0 km/h
767 02-04-2014 00:30:00 11.4 C 7.49 g/m*3 11.4 C 0 km/h
768 02-04-2014 00:35:00 11.4 C 7.49 g/m*3 11.4 C 0 km/h
769 02-04-2014 00:40:00 11.3 C 7.55 g/m*3 11.3 C 0 km/h
770 02-04-2014 00:45:00 11.3 C 7.65 g/m*3 11.3 C 0 km/h
771 02-04-2014 00:50:00 11.2 C 7.6 g/m*3 11.2 C 0 km/h
772 02-04-2014 00:55:00 11.1 C 7.66 g/m*3 11.1 C 0 km/h
773 02-04-2014 01:00:00 10.9 C 7.46 g/m*3 10.9 C 0 km/h
774 02-04-2014 01:05:00 10.9 C 7.46 g/m*3 10.9 C 0 km/h
775 02-04-2014 01:10:00 10.9 C 7.46 g/m*3 10.9 C 1.6 km/h
Sensor: Nr:Datum:Temp:Abs-Feuchte:Windchill:Wind:
Aussen-T/F 776 02-04-2014 01:15:00 10.9 C 7.56 g/m*3 10.9 C 1.6 km/h
777 02-04-2014 01:20:00 10.9 C 7.56 g/m*3 10.9 C 3.2 km/h
778 02-04-2014 01:25:00 10.9 C 7.56 g/m*3 10.9 C 1.6 km/h
779 02-04-2014 01:30:00 10.9 C 7.56 g/m*3 10.9 C 1.6 km/h
780 02-04-2014 01:35:00 10.8 C 7.51 g/m*3 10.8 C 0 km/h
781 02-04-2014 01:40:00 10.5 C 7.57 g/m*3 10.5 C 0 km/h
782 02-04-2014 01:45:00 10.2 C 7.52 g/m*3 10.2 C 3.2 km/h
783 02-04-2014 01:50:00 10 C 7.33 g/m*3 10 C 0 km/h
784 02-04-2014 01:55:00 9.8 C 7.24 g/m*3 9.8 C 0 km/h
785 02-04-2014 02:00:00 9.8 C 7.42 g/m*3 9.8 C 0 km/h
786 02-04-2014 02:05:00 9.7 C 7.38 g/m*3 9.7 C 0 km/h
787 02-04-2014 02:10:00 9.6 C 7.33 g/m*3 9.6 C 0 km/h
788 02-04-2014 02:15:00 9.4 C 7.24 g/m*3 9.4 C 0 km/h
789 02-04-2014 02:20:00 9.4 C 7.33 g/m*3 9.4 C 0 km/h
790 02-04-2014 02:25:00 9.3 C 7.28 g/m*3 9.3 C 0 km/h
791 02-04-2014 02:30:00 9.4 C 7.33 g/m*3 9.4 C 0 km/h
792 02-04-2014 02:35:00 9.3 C 7.28 g/m*3 9.3 C 1.6 km/h
793 02-04-2014 02:40:00 9.3 C 7.28 g/m*3 9.3 C 0 km/h
794 02-04-2014 02:45:00 9.3 C 7.28 g/m*3 9.3 C 0 km/h
795 02-04-2014 02:50:00 9.3 C 7.28 g/m*3 9.3 C 0 km/h
796 02-04-2014 02:55:00 9.2 C 7.23 g/m*3 9.2 C 0 km/h
797 02-04-2014 03:00:00 9.1 C 7.19 g/m*3 9.1 C 0 km/h
798 02-04-2014 03:05:00 9.1 C 7.19 g/m*3 9.1 C 0 km/h
799 02-04-2014 03:10:00 9 C 7.14 g/m*3 9 C 0 km/h
800 02-04-2014 03:15:00 8.9 C 7.18 g/m*3 8.9 C 0 km/h
Sensor: Nr:Datum:Temp:Abs-Feuchte:Windchill:Wind:
Aussen-T/F 801 02-04-2014 03:20:00 8.9 C 7.18 g/m*3 8.9 C 0 km/h
802 02-04-2014 03:25:00 8.9 C 7.27 g/m*3 8.9 C 0 km/h
803 02-04-2014 03:30:00 8.8 C 7.22 g/m*3 8.8 C 0 km/h
804 02-04-2014 03:35:00 8.7 C 7.18 g/m*3 8.7 C 0 km/h
805 02-04-2014 03:40:00 8.6 C 7.13 g/m*3 8.6 C 0 km/h
806 02-04-2014 03:45:00 8.4 C 7.04 g/m*3 8.4 C 0 km/h
807 02-04-2014 03:50:00 8.4 C 7.13 g/m*3 8.4 C 1.6 km/h
808 02-04-2014 03:55:00 8.3 C 7.08 g/m*3 8.3 C 1.6 km/h
809 02-04-2014 04:00:00 8.2 C 7.12 g/m*3 8.2 C 0 km/h
810 02-04-2014 04:05:00 8.2 C 7.12 g/m*3 8.2 C 0 km/h
811 02-04-2014 04:10:00 8.1 C 7.07 g/m*3 8.1 C 0 km/h
812 02-04-2014 04:15:00 8 C 7.03 g/m*3 8 C 1.6 km/h
813 02-04-2014 04:20:00 8 C 7.11 g/m*3 8 C 0 km/h
814 02-04-2014 04:25:00 8 C 7.03 g/m*3 8 C 0 km/h
815 02-04-2014 04:30:00 7.9 C 6.98 g/m*3 7.9 C 0 km/h
816 02-04-2014 04:35:00 7.9 C 7.06 g/m*3 7.9 C 1.6 km/h
817 02-04-2014 04:40:00 7.9 C 7.06 g/m*3 7.9 C 0 km/h
818 02-04-2014 04:45:00 7.9 C 7.06 g/m*3 7.9 C 0 km/h
819 02-04-2014 04:50:00 7.8 C 7.02 g/m*3 7.8 C 0 km/h
820 02-04-2014 04:55:00 7.7 C 6.97 g/m*3 7.7 C 0 km/h
821 02-04-2014 05:00:00 7.7 C 6.97 g/m*3 7.7 C 0 km/h
822 02-04-2014 05:05:00 7.6 C 6.93 g/m*3 7.6 C 0 km/h
823 02-04-2014 05:10:00 7.5 C 6.96 g/m*3 7.5 C 0 km/h
824 02-04-2014 05:15:00 7.4 C 6.92 g/m*3 7.4 C 0 km/h
825 02-04-2014 05:20:00 7.4 C 6.92 g/m*3 7.4 C 0 km/h
Sensor: Nr:Datum:Temp:Abs-Feuchte:Windchill:Wind:
Aussen-T/F 826 02-04-2014 05:25:00 7.4 C 6.92 g/m*3 7.4 C 0 km/h
827 02-04-2014 05:30:00 7.3 C 6.87 g/m*3 7.3 C 1.6 km/h
828 02-04-2014 05:35:00 7.2 C 6.91 g/m*3 7.2 C 1.6 km/h
829 02-04-2014 05:40:00 7.1 C 6.86 g/m*3 7.1 C 0 km/h
830 02-04-2014 05:45:00 7.1 C 6.86 g/m*3 7.1 C 0 km/h
831 02-04-2014 05:50:00 6.9 C 6.77 g/m*3 6.9 C 0 km/h
832 02-04-2014 05:55:00 6.8 C 6.81 g/m*3 6.8 C 0 km/h
833 02-04-2014 06:00:00 6.8 C 6.81 g/m*3 6.8 C 0 km/h
834 02-04-2014 06:05:00 6.7 C 6.76 g/m*3 6.7 C 1.6 km/h
835 02-04-2014 06:10:00 6.7 C 6.76 g/m*3 6.7 C 0 km/h
836 02-04-2014 06:15:00 6.6 C 6.79 g/m*3 6.6 C 0 km/h
837 02-04-2014 06:20:00 6.6 C 6.72 g/m*3 6.6 C 0 km/h
838 02-04-2014 06:25:00 6.5 C 6.67 g/m*3 6.5 C 0 km/h
839 02-04-2014 06:30:00 6.4 C 6.71 g/m*3 6.4 C 0 km/h
840 02-04-2014 06:35:00 6.4 C 6.71 g/m*3 6.4 C 0 km/h
841 02-04-2014 06:40:00 6.5 C 6.75 g/m*3 6.5 C 0 km/h
842 02-04-2014 06:45:00 6.6 C 6.87 g/m*3 6.6 C 0 km/h
843 02-04-2014 06:50:00 6.7 C 6.91 g/m*3 6.7 C 1.6 km/h
844 02-04-2014 06:55:00 6.8 C 6.88 g/m*3 6.8 C 0 km/h
845 02-04-2014 07:00:00 6.8 C 6.88 g/m*3 6.8 C 0 km/h
846 02-04-2014 07:05:00 6.8 C 6.88 g/m*3 6.8 C 0 km/h
847 02-04-2014 07:10:00 6.8 C 6.88 g/m*3 6.8 C 0 km/h
848 02-04-2014 07:15:00 6.8 C 6.88 g/m*3 6.8 C 0 km/h
849 02-04-2014 07:20:00 6.8 C 6.88 g/m*3 6.8 C 0 km/h
850 02-04-2014 07:25:00 6.8 C 6.88 g/m*3 6.8 C 0 km/h
Sensor: Nr:Datum:Temp:Abs-Feuchte:Windchill:Wind:
Aussen-T/F 851 02-04-2014 07:30:00 6.8 C 6.88 g/m*3 6.8 C 1.6 km/h
852 02-04-2014 07:35:00 6.8 C 6.88 g/m*3 6.8 C 0 km/h
853 02-04-2014 07:40:00 6.8 C 6.88 g/m*3 6.8 C 0 km/h
854 02-04-2014 07:45:00 6.8 C 6.88 g/m*3 6.8 C 0 km/h
855 02-04-2014 07:50:00 6.7 C 6.84 g/m*3 6.7 C 0 km/h
856 02-04-2014 07:55:00 6.7 C 6.84 g/m*3 6.7 C 0 km/h
857 02-04-2014 08:00:00 6.7 C 6.91 g/m*3 6.7 C 0 km/h
858 02-04-2014 08:05:00 6.7 C 6.91 g/m*3 6.7 C 1.6 km/h
859 02-04-2014 08:10:00 6.7 C 6.91 g/m*3 6.7 C 3.2 km/h
860 02-04-2014 08:15:00 6.8 C 6.96 g/m*3 6.8 C 1.6 km/h
861 02-04-2014 08:20:00 6.9 C 7.01 g/m*3 6.9 C 1.6 km/h
862 02-04-2014 08:25:00 6.9 C 6.93 g/m*3 6.9 C 3.2 km/h
863 02-04-2014 08:30:00 7.1 C 7.02 g/m*3 7.1 C 1.6 km/h
864 02-04-2014 08:35:00 7.2 C 7.06 g/m*3 7.2 C 0 km/h
865 02-04-2014 08:40:00 7.2 C 7.06 g/m*3 7.2 C 0 km/h
866 02-04-2014 08:45:00 7.3 C 7.03 g/m*3 7.3 C 0 km/h
867 02-04-2014 08:50:00 7.3 C 7.11 g/m*3 7.3 C 0 km/h
868 02-04-2014 08:55:00 7.3 C 7.11 g/m*3 7.3 C 0 km/h
869 02-04-2014 09:00:00 7.4 C 7.08 g/m*3 7.4 C 0 km/h
870 02-04-2014 09:05:00 7.5 C 7.2 g/m*3 7.5 C 0 km/h
871 02-04-2014 09:10:00 7.6 C 7.25 g/m*3 7.6 C 0 km/h
872 02-04-2014 09:15:00 7.7 C 7.3 g/m*3 7.7 C 1.6 km/h
873 02-04-2014 09:20:00 7.8 C 7.35 g/m*3 7.8 C 0 km/h
874 02-04-2014 09:25:00 7.9 C 7.39 g/m*3 7.9 C 0 km/h
875 02-04-2014 09:30:00 8.1 C 7.41 g/m*3 8.1 C 0 km/h
Sensor: Nr:Datum:Temp:Abs-Feuchte:Windchill:Wind:
Aussen-T/F 876 02-04-2014 09:35:00 8.2 C 7.45 g/m*3 8.2 C 0 km/h
877 02-04-2014 09:40:00 8.3 C 7.42 g/m*3 8.3 C 0 km/h
878 02-04-2014 09:45:00 8.5 C 7.43 g/m*3 8.5 C 0 km/h
879 02-04-2014 09:50:00 8.7 C 7.52 g/m*3 8.7 C 0 km/h
880 02-04-2014 09:55:00 8.8 C 7.57 g/m*3 8.8 C 0 km/h
881 02-04-2014 10:00:00 9.1 C 7.72 g/m*3 9.1 C 0 km/h
882 02-04-2014 10:05:00 9.3 C 7.73 g/m*3 9.3 C 0 km/h
883 02-04-2014 10:10:00 9.5 C 7.74 g/m*3 9.5 C 0 km/h
884 02-04-2014 10:15:00 9.8 C 7.79 g/m*3 9.8 C 0 km/h
885 02-04-2014 10:20:00 10.1 C 7.94 g/m*3 10.1 C 0 km/h
886 02-04-2014 10:25:00 10.3 C 7.95 g/m*3 10.3 C 1.6 km/h
887 02-04-2014 10:30:00 10.4 C 8 g/m*3 10.4 C 0 km/h
888 02-04-2014 10:35:00 10.7 C 8.15 g/m*3 10.7 C 1.6 km/h
889 02-04-2014 10:40:00 10.9 C 8.16 g/m*3 10.9 C 0 km/h
890 02-04-2014 10:45:00 11.2 C 8.21 g/m*3 11.2 C 0 km/h
891 02-04-2014 10:50:00 11.4 C 8.21 g/m*3 11.4 C 0 km/h
892 02-04-2014 10:55:00 11.8 C 8.21 g/m*3 11.8 C 0 km/h
893 02-04-2014 11:00:00 12.1 C 8.47 g/m*3 12.1 C 0 km/h
894 02-04-2014 11:05:00 12.3 C 8.47 g/m*3 12.3 C 0 km/h
895 02-04-2014 11:10:00 12.4 C 8.52 g/m*3 12.4 C 0 km/h
896 02-04-2014 11:15:00 12.6 C 8.52 g/m*3 12.6 C 0 km/h
897 02-04-2014 11:20:00 12.9 C 8.45 g/m*3 12.9 C 0 km/h
898 02-04-2014 11:25:00 13.2 C 8.61 g/m*3 13.2 C 0 km/h
899 02-04-2014 11:30:00 13.6 C 8.83 g/m*3 13.6 C 0 km/h
900 02-04-2014 11:35:00 13.9 C 8.87 g/m*3 13.9 C 1.6 km/h
Sensor: Nr:Datum:Temp:Abs-Feuchte:Windchill:Wind:
Aussen-T/F 901 02-04-2014 11:40:00 13.9 C 8.87 g/m*3 13.9 C 3.2 km/h
902 02-04-2014 11:45:00 14.6 C 9.26 g/m*3 14.6 C 3.2 km/h
903 02-04-2014 11:50:00 14.6 C 9.26 g/m*3 14.6 C 1.6 km/h
904 02-04-2014 11:55:00 15.4 C 8.93 g/m*3 15.4 C 1.6 km/h
905 02-04-2014 12:00:00 15.8 C 8.75 g/m*3 15.8 C 0 km/h
906 02-04-2014 12:05:00 16.1 C 8.77 g/m*3 16.1 C 1.6 km/h
907 02-04-2014 12:10:00 16.4 C 9.21 g/m*3 16.4 C 3.2 km/h
908 02-04-2014 12:15:00 16.7 C 8.95 g/m*3 16.7 C 1.6 km/h
909 02-04-2014 12:20:00 17 C 8.97 g/m*3 17 C 4.8 km/h
910 02-04-2014 12:25:00 17 C 8.97 g/m*3 17 C 4.8 km/h
911 02-04-2014 12:30:00 17 C 8.97 g/m*3 17 C 4.8 km/h
912 02-04-2014 12:35:00 17 C 8.97 g/m*3 17 C 8.1 km/h
913 02-04-2014 12:40:00 17 C 8.97 g/m*3 17 C 6.4 km/h
914 02-04-2014 12:45:00 18.7 C 8.97 g/m*3 18.7 C 6.4 km/h
915 02-04-2014 12:50:00 18.7 C 8.97 g/m*3 18.7 C 8.1 km/h
916 02-04-2014 13:15:00 20.4 C 9.2 g/m*3 20.4 C 6.4 km/h
917 02-04-2014 13:20:00 20.7 C 9 g/m*3 20.7 C 8.1 km/h
918 02-04-2014 13:25:00 20.7 C 9 g/m*3 20.7 C 9.7 km/h
919 02-04-2014 13:30:00 20.8 C 9.05 g/m*3 20.8 C 4.8 km/h
920 02-04-2014 13:35:00 20.8 C 9.05 g/m*3 20.8 C 4.8 km/h
921 02-04-2014 13:40:00 21.1 C 9.21 g/m*3 21.1 C 4.8 km/h
922 02-04-2014 13:45:00 21.3 C 8.2 g/m*3 21.3 C 12.9 km/h
923 02-04-2014 13:50:00 21.5 C 8.11 g/m*3 21.5 C 11.3 km/h
924 02-04-2014 13:55:00 21.6 C 7.78 g/m*3 21.6 C 12.9 km/h
925 02-04-2014 14:00:00 21.9 C 7.91 g/m*3 21.9 C 14.5 km/h
Sensor: Nr:Datum:Temp:Abs-Feuchte:Windchill:Wind:
Aussen-T/F 926 02-04-2014 14:05:00 22.1 C 8.2 g/m*3 22.1 C 14.5 km/h
927 02-04-2014 14:10:00 22.3 C 7.7 g/m*3 22.3 C 9.7 km/h
928 02-04-2014 14:15:00 22.4 C 7.75 g/m*3 22.4 C 17.7 km/h
929 02-04-2014 14:20:00 22.3 C 7.7 g/m*3 22.3 C 17.7 km/h
930 02-04-2014 14:25:00 22.3 C 7.7 g/m*3 22.3 C 3.2 km/h
931 02-04-2014 14:30:00 22.7 C 8.49 g/m*3 22.7 C 9.7 km/h
932 02-04-2014 14:35:00 22.6 C 8.24 g/m*3 22.6 C 12.9 km/h
933 02-04-2014 14:40:00 22.6 C 7.63 g/m*3 22.6 C 14.5 km/h
934 02-04-2014 14:45:00 22.5 C 8.19 g/m*3 22.5 C 11.3 km/h
935 02-04-2014 14:50:00 22.5 C 7.79 g/m*3 22.5 C 11.3 km/h
936 02-04-2014 14:55:00 22.7 C 7.88 g/m*3 22.7 C 12.9 km/h
937 02-04-2014 15:00:00 22.4 C 7.75 g/m*3 22.4 C 17.7 km/h
938 02-04-2014 15:05:00 22.4 C 8.14 g/m*3 22.4 C 9.7 km/h
939 02-04-2014 15:10:00 22.6 C 7.63 g/m*3 22.6 C 16.1 km/h
940 02-04-2014 15:15:00 22.4 C 7.75 g/m*3 22.4 C 12.9 km/h
941 02-04-2014 15:20:00 22.3 C 8.29 g/m*3 22.3 C 8.1 km/h
942 02-04-2014 15:25:00 22.6 C 8.04 g/m*3 22.6 C 9.7 km/h
943 02-04-2014 15:30:00 22.7 C 7.88 g/m*3 22.7 C 9.7 km/h
944 02-04-2014 15:35:00 22.9 C 7.77 g/m*3 22.9 C 9.7 km/h
945 02-04-2014 15:40:00 22.9 C 7.56 g/m*3 22.9 C 14.5 km/h
946 02-04-2014 15:45:00 23 C 7.81 g/m*3 23 C 9.7 km/h
947 02-04-2014 15:50:00 22.9 C 7.97 g/m*3 22.9 C 14.5 km/h
948 02-04-2014 15:55:00 22.9 C 7.77 g/m*3 22.9 C 12.9 km/h
949 02-04-2014 16:00:00 23.1 C 7.86 g/m*3 23.1 C 12.9 km/h
950 02-04-2014 16:05:00 23.2 C 7.69 g/m*3 23.2 C 20.9 km/h
Sensor: Nr:Datum:Temp:Abs-Feuchte:Windchill:Wind:
Aussen-T/F 951 02-04-2014 16:10:00 23.2 C 8.32 g/m*3 23.2 C 8.1 km/h
952 02-04-2014 16:15:00 23.2 C 7.48 g/m*3 23.2 C 16.1 km/h
953 02-04-2014 16:20:00 23.2 C 7.9 g/m*3 23.2 C 4.8 km/h
954 02-04-2014 16:25:00 23.2 C 7.69 g/m*3 23.2 C 9.7 km/h
955 02-04-2014 16:30:00 23.1 C 7.23 g/m*3 23.1 C 12.9 km/h
956 02-04-2014 16:35:00 23 C 7.81 g/m*3 23 C 6.4 km/h
957 02-04-2014 16:40:00 23.1 C 7.86 g/m*3 23.1 C 9.7 km/h
958 02-04-2014 16:45:00 23.2 C 7.48 g/m*3 23.2 C 4.8 km/h
959 02-04-2014 16:50:00 23.2 C 7.48 g/m*3 23.2 C 3.2 km/h
960 02-04-2014 16:55:00 23.7 C 8.56 g/m*3 23.7 C 4.8 km/h
961 02-04-2014 17:00:00 23.9 C 7.79 g/m*3 23.9 C 6.4 km/h
962 02-04-2014 17:05:00 24 C 7.61 g/m*3 24 C 6.4 km/h
963 02-04-2014 17:10:00 23.8 C 7.31 g/m*3 23.8 C 12.9 km/h
964 02-04-2014 17:15:00 23.6 C 7.66 g/m*3 23.6 C 4.8 km/h
965 02-04-2014 17:20:00 23.7 C 7.7 g/m*3 23.7 C 8.1 km/h
966 02-04-2014 17:25:00 23.7 C 7.49 g/m*3 23.7 C 8.1 km/h
967 02-04-2014 17:30:00 23.5 C 7.4 g/m*3 23.5 C 11.3 km/h
968 02-04-2014 17:35:00 23.2 C 7.28 g/m*3 23.2 C 8.1 km/h
969 02-04-2014 17:40:00 22.9 C 7.97 g/m*3 22.9 C 4.8 km/h
970 02-04-2014 17:45:00 22.8 C 7.52 g/m*3 22.8 C 14.5 km/h
971 02-04-2014 17:50:00 22.6 C 8.04 g/m*3 22.6 C 9.7 km/h
972 02-04-2014 17:55:00 22.7 C 7.68 g/m*3 22.7 C 11.3 km/h
973 02-04-2014 18:00:00 22.9 C 7.56 g/m*3 22.9 C 8.1 km/h
974 02-04-2014 18:05:00 23.1 C 7.65 g/m*3 23.1 C 11.3 km/h
975 02-04-2014 18:10:00 23.1 C 7.65 g/m*3 23.1 C 11.3 km/h
Sensor: Nr:Datum:Temp:Abs-Feuchte:Windchill:Wind:
Aussen-T/F 976 02-04-2014 18:15:00 23.1 C 7.86 g/m*3 23.1 C 6.4 km/h
977 02-04-2014 18:20:00 22.9 C 7.77 g/m*3 22.9 C 6.4 km/h
978 02-04-2014 18:25:00 22.8 C 7.72 g/m*3 22.8 C 4.8 km/h
979 02-04-2014 18:30:00 22.7 C 8.28 g/m*3 22.7 C 6.4 km/h
980 02-04-2014 18:35:00 22.4 C 7.75 g/m*3 22.4 C 14.5 km/h
981 02-04-2014 18:40:00 22.2 C 8.25 g/m*3 22.2 C 6.4 km/h
982 02-04-2014 18:45:00 22.1 C 8.2 g/m*3 22.1 C 3.2 km/h
983 02-04-2014 18:50:00 21.9 C 8.88 g/m*3 21.9 C 1.6 km/h
984 02-04-2014 18:55:00 21.3 C 9.13 g/m*3 21.3 C 3.2 km/h
985 02-04-2014 19:00:00 20.6 C 9.13 g/m*3 20.6 C 1.6 km/h
986 02-04-2014 19:05:00 20 C 9.16 g/m*3 20 C 1.6 km/h
987 02-04-2014 19:10:00 19.6 C 9.12 g/m*3 19.6 C 1.6 km/h
988 02-04-2014 19:15:00 19.2 C 9.07 g/m*3 19.2 C 0 km/h
989 02-04-2014 19:20:00 19 C 9.29 g/m*3 19 C 1.6 km/h
990 02-04-2014 19:25:00 18.7 C 9.29 g/m*3 18.7 C 3.2 km/h
991 02-04-2014 19:30:00 18.3 C 9.07 g/m*3 18.3 C 1.6 km/h
992 02-04-2014 19:35:00 17.9 C 9.01 g/m*3 17.9 C 4.8 km/h
993 02-04-2014 19:40:00 17.7 C 9.05 g/m*3 17.7 C 4.8 km/h
994 02-04-2014 19:45:00 17.4 C 9.04 g/m*3 17.4 C 4.8 km/h
995 02-04-2014 19:50:00 17.1 C 8.88 g/m*3 17.1 C 4.8 km/h
996 02-04-2014 19:55:00 16.9 C 8.92 g/m*3 16.9 C 3.2 km/h
997 02-04-2014 20:00:00 16.8 C 9.01 g/m*3 16.8 C 3.2 km/h
998 02-04-2014 20:05:00 16.8 C 9.01 g/m*3 16.8 C 4.8 km/h
999 02-04-2014 20:10:00 16.3 C 8.88 g/m*3 16.3 C 4.8 km/h
1000 02-04-2014 20:15:00 16.1 C 8.91 g/m*3 16.1 C 3.2 km/h
Sensor: Nr:Datum:Temp:Abs-Feuchte:Windchill:Wind:
Aussen-T/F 1001 02-04-2014 20:20:00 15.9 C 8.8 g/m*3 15.9 C 4.8 km/h
1002 02-04-2014 20:25:00 15.8 C 8.88 g/m*3 15.8 C 4.8 km/h
1003 02-04-2014 20:30:00 15.7 C 8.83 g/m*3 15.7 C 4.8 km/h
1004 02-04-2014 20:35:00 15.7 C 8.96 g/m*3 15.7 C 3.2 km/h
1005 02-04-2014 20:40:00 15.6 C 8.91 g/m*3 15.6 C 3.2 km/h
1006 02-04-2014 20:45:00 15.5 C 8.86 g/m*3 15.5 C 3.2 km/h
1007 02-04-2014 20:50:00 15.4 C 8.8 g/m*3 15.4 C 3.2 km/h
1008 02-04-2014 20:55:00 15.3 C 8.88 g/m*3 15.3 C 3.2 km/h
1009 02-04-2014 21:00:00 15.3 C 8.88 g/m*3 15.3 C 1.6 km/h
1010 02-04-2014 21:05:00 15.2 C 8.83 g/m*3 15.2 C 4.8 km/h
1011 02-04-2014 21:10:00 15.2 C 8.83 g/m*3 15.2 C 4.8 km/h
1012 02-04-2014 21:15:00 15.2 C 8.96 g/m*3 15.2 C 1.6 km/h
1013 02-04-2014 21:20:00 15.1 C 8.77 g/m*3 15.1 C 3.2 km/h
1014 02-04-2014 21:25:00 15 C 8.85 g/m*3 15 C 4.8 km/h
1015 02-04-2014 21:30:00 15 C 8.85 g/m*3 15 C 4.8 km/h
1016 02-04-2014 21:35:00 14.9 C 8.92 g/m*3 14.9 C 4.8 km/h
1017 02-04-2014 21:40:00 14.7 C 8.81 g/m*3 14.7 C 3.2 km/h
1018 02-04-2014 21:45:00 14.6 C 9.01 g/m*3 14.6 C 0 km/h
1019 02-04-2014 21:50:00 14.4 C 8.9 g/m*3 14.4 C 0 km/h
1020 02-04-2014 21:55:00 14.3 C 8.97 g/m*3 14.3 C 0 km/h
1021 02-04-2014 22:00:00 14.2 C 8.91 g/m*3 14.2 C 0 km/h
1022 02-04-2014 22:05:00 14.1 C 8.86 g/m*3 14.1 C 0 km/h
1023 02-04-2014 22:10:00 13.9 C 8.87 g/m*3 13.9 C 0 km/h
1024 02-04-2014 22:15:00 13.8 C 8.94 g/m*3 13.8 C 0 km/h
1025 02-04-2014 22:20:00 13.7 C 8.88 g/m*3 13.7 C 0 km/h
Sensor: Nr:Datum:Temp:Abs-Feuchte:Windchill:Wind:
Aussen-T/F 1026 02-04-2014 22:25:00 13.7 C 8.76 g/m*3 13.7 C 0 km/h
1027 02-04-2014 22:30:00 13.6 C 8.71 g/m*3 13.6 C 0 km/h
1028 02-04-2014 22:35:00 13.4 C 8.72 g/m*3 13.4 C 0 km/h
1029 02-04-2014 22:40:00 13.4 C 8.72 g/m*3 13.4 C 0 km/h
1030 02-04-2014 22:45:00 13.3 C 8.78 g/m*3 13.3 C 1.6 km/h
1031 02-04-2014 22:50:00 13.3 C 8.66 g/m*3 13.3 C 4.8 km/h
1032 02-04-2014 22:55:00 13.3 C 8.66 g/m*3 13.3 C 3.2 km/h
1033 02-04-2014 23:00:00 13.2 C 8.73 g/m*3 13.2 C 0 km/h
1034 02-04-2014 23:05:00 13.1 C 8.67 g/m*3 13.1 C 0 km/h
1035 02-04-2014 23:10:00 13.1 C 8.56 g/m*3 13.1 C 0 km/h
1036 02-04-2014 23:15:00 13.1 C 8.56 g/m*3 13.1 C 0 km/h
1037 02-04-2014 23:20:00 12.9 C 8.57 g/m*3 12.9 C 0 km/h
1038 02-04-2014 23:25:00 12.7 C 8.46 g/m*3 12.7 C 0 km/h
1039 02-04-2014 23:30:00 12.6 C 8.52 g/m*3 12.6 C 1.6 km/h
1040 02-04-2014 23:35:00 12.6 C 8.52 g/m*3 12.6 C 3.2 km/h
1041 02-04-2014 23:40:00 12.4 C 8.52 g/m*3 12.4 C 0 km/h
1042 02-04-2014 23:45:00 12.3 C 8.47 g/m*3 12.3 C 0 km/h
1043 02-04-2014 23:50:00 12.2 C 8.42 g/m*3 12.2 C 0 km/h
1044 02-04-2014 23:55:00 12.1 C 8.47 g/m*3 12.1 C 0 km/h
1045 03-04-2014 00:00:00 11.9 C 8.37 g/m*3 11.9 C 0 km/h
1046 03-04-2014 00:05:00 11.7 C 8.37 g/m*3 11.7 C 0 km/h
1047 03-04-2014 00:10:00 11.7 C 8.37 g/m*3 11.7 C 0 km/h
1048 03-04-2014 00:15:00 11.6 C 8.32 g/m*3 11.6 C 0 km/h
1049 03-04-2014 00:20:00 11.6 C 8.32 g/m*3 11.6 C 0 km/h
1050 03-04-2014 00:25:00 11.4 C 8.21 g/m*3 11.4 C 0 km/h
Sensor: Nr:Datum:Temp:Abs-Feuchte:Windchill:Wind:
Aussen-T/F 1051 03-04-2014 00:30:00 11.3 C 8.16 g/m*3 11.3 C 0 km/h
1052 03-04-2014 00:35:00 11.3 C 8.26 g/m*3 11.3 C 0 km/h
1053 03-04-2014 00:40:00 11.3 C 8.36 g/m*3 11.3 C 0 km/h
1054 03-04-2014 00:45:00 11.4 C 8.42 g/m*3 11.4 C 0 km/h
1055 03-04-2014 00:50:00 11.4 C 8.42 g/m*3 11.4 C 0 km/h
1056 03-04-2014 00:55:00 11.4 C 8.42 g/m*3 11.4 C 0 km/h
1057 03-04-2014 01:00:00 11.4 C 8.42 g/m*3 11.4 C 0 km/h
1058 03-04-2014 01:05:00 11.4 C 8.42 g/m*3 11.4 C 0 km/h
1059 03-04-2014 01:10:00 11.4 C 8.31 g/m*3 11.4 C 0 km/h
1060 03-04-2014 01:15:00 11.4 C 8.31 g/m*3 11.4 C 0 km/h
1061 03-04-2014 01:20:00 11.4 C 8.31 g/m*3 11.4 C 0 km/h
1062 03-04-2014 01:25:00 11.4 C 8.31 g/m*3 11.4 C 0 km/h
1063 03-04-2014 01:30:00 11.4 C 8.42 g/m*3 11.4 C 0 km/h
1064 03-04-2014 01:35:00 11.4 C 8.42 g/m*3 11.4 C 1.6 km/h
1065 03-04-2014 01:40:00 11.3 C 8.36 g/m*3 11.3 C 4.8 km/h
1066 03-04-2014 01:45:00 11.3 C 8.36 g/m*3 11.3 C 1.6 km/h
1067 03-04-2014 01:50:00 11.4 C 8.42 g/m*3 11.4 C 3.2 km/h
1068 03-04-2014 01:55:00 11.5 C 8.47 g/m*3 11.5 C 4.8 km/h
1069 03-04-2014 02:00:00 11.5 C 8.47 g/m*3 11.5 C 0 km/h
1070 03-04-2014 02:05:00 11.3 C 8.36 g/m*3 11.3 C 0 km/h
1071 03-04-2014 02:10:00 11.2 C 8.31 g/m*3 11.2 C 1.6 km/h
1072 03-04-2014 02:15:00 11.1 C 8.36 g/m*3 11.1 C 0 km/h
1073 03-04-2014 02:20:00 10.9 C 8.26 g/m*3 10.9 C 1.6 km/h
1074 03-04-2014 02:25:00 10.8 C 8.2 g/m*3 10.8 C 0 km/h
1075 03-04-2014 02:30:00 10.7 C 8.15 g/m*3 10.7 C 0 km/h
Sensor: Nr:Datum:Temp:Abs-Feuchte:Windchill:Wind:
Aussen-T/F 1076 03-04-2014 02:35:00 10.7 C 8.25 g/m*3 10.7 C 0 km/h
1077 03-04-2014 02:40:00 10.7 C 8.25 g/m*3 10.7 C 0 km/h
1078 03-04-2014 02:45:00 10.7 C 8.25 g/m*3 10.7 C 0 km/h
1079 03-04-2014 02:50:00 10.7 C 8.25 g/m*3 10.7 C 1.6 km/h
1080 03-04-2014 02:55:00 10.7 C 8.25 g/m*3 10.7 C 0 km/h
1081 03-04-2014 03:00:00 10.7 C 8.25 g/m*3 10.7 C 0 km/h
1082 03-04-2014 03:05:00 10.7 C 8.35 g/m*3 10.7 C 0 km/h
1083 03-04-2014 03:10:00 10.7 C 8.35 g/m*3 10.7 C 0 km/h
1084 03-04-2014 03:15:00 10.7 C 8.35 g/m*3 10.7 C 0 km/h
1085 03-04-2014 03:20:00 10.6 C 8.3 g/m*3 10.6 C 0 km/h
1086 03-04-2014 03:25:00 10.6 C 8.3 g/m*3 10.6 C 0 km/h
1087 03-04-2014 03:30:00 10.4 C 8.19 g/m*3 10.4 C 0 km/h
1088 03-04-2014 03:35:00 10.4 C 8.29 g/m*3 10.4 C 0 km/h
1089 03-04-2014 03:40:00 10.3 C 8.14 g/m*3 10.3 C 0 km/h
1090 03-04-2014 03:45:00 10.2 C 8.09 g/m*3 10.2 C 0 km/h
1091 03-04-2014 03:50:00 10.2 C 8.09 g/m*3 10.2 C 0 km/h
1092 03-04-2014 03:55:00 10.1 C 8.04 g/m*3 10.1 C 0 km/h
1093 03-04-2014 04:00:00 9.9 C 7.94 g/m*3 9.9 C 0 km/h
1094 03-04-2014 04:05:00 9.8 C 7.98 g/m*3 9.8 C 0 km/h
1095 03-04-2014 04:10:00 9.7 C 7.93 g/m*3 9.7 C 0 km/h
1096 03-04-2014 04:15:00 9.7 C 7.93 g/m*3 9.7 C 0 km/h
1097 03-04-2014 04:20:00 9.7 C 7.93 g/m*3 9.7 C 0 km/h
1098 03-04-2014 04:25:00 9.7 C 7.93 g/m*3 9.7 C 0 km/h
1099 03-04-2014 04:30:00 9.6 C 7.88 g/m*3 9.6 C 0 km/h
1100 03-04-2014 04:35:00 9.4 C 7.87 g/m*3 9.4 C 0 km/h
Sensor: Nr:Datum:Temp:Abs-Feuchte:Windchill:Wind:
Aussen-T/F 1101 03-04-2014 04:40:00 9.3 C 7.82 g/m*3 9.3 C 0 km/h
1102 03-04-2014 04:45:00 9.2 C 7.77 g/m*3 9.2 C 0 km/h
1103 03-04-2014 04:50:00 9.1 C 7.72 g/m*3 9.1 C 0 km/h
1104 03-04-2014 04:55:00 9.1 C 7.72 g/m*3 9.1 C 0 km/h
1105 03-04-2014 05:00:00 9 C 7.76 g/m*3 9 C 0 km/h
1106 03-04-2014 05:05:00 8.9 C 7.71 g/m*3 8.9 C 0 km/h
1107 03-04-2014 05:10:00 8.8 C 7.75 g/m*3 8.8 C 1.6 km/h
1108 03-04-2014 05:15:00 8.7 C 7.61 g/m*3 8.7 C 1.6 km/h
1109 03-04-2014 05:20:00 8.6 C 7.65 g/m*3 8.6 C 0 km/h
1110 03-04-2014 05:25:00 8.6 C 7.73 g/m*3 8.6 C 0 km/h
1111 03-04-2014 05:30:00 8.6 C 7.65 g/m*3 8.6 C 0 km/h
1112 03-04-2014 05:35:00 8.4 C 7.63 g/m*3 8.4 C 0 km/h
1113 03-04-2014 05:40:00 8.3 C 7.59 g/m*3 8.3 C 0 km/h
1114 03-04-2014 05:45:00 8.3 C 7.59 g/m*3 8.3 C 0 km/h
1115 03-04-2014 05:50:00 8.3 C 7.59 g/m*3 8.3 C 0 km/h
1116 03-04-2014 05:55:00 8.4 C 7.63 g/m*3 8.4 C 0 km/h
1117 03-04-2014 06:00:00 8.4 C 7.63 g/m*3 8.4 C 0 km/h
1118 03-04-2014 06:05:00 8.4 C 7.63 g/m*3 8.4 C 0 km/h
1119 03-04-2014 06:10:00 8.3 C 7.59 g/m*3 8.3 C 0 km/h
1120 03-04-2014 06:15:00 8.3 C 7.59 g/m*3 8.3 C 0 km/h
1121 03-04-2014 06:20:00 8.2 C 7.54 g/m*3 8.2 C 0 km/h
1122 03-04-2014 06:25:00 8.2 C 7.54 g/m*3 8.2 C 0 km/h
1123 03-04-2014 06:30:00 8.2 C 7.62 g/m*3 8.2 C 3.2 km/h
1124 03-04-2014 06:35:00 8.2 C 7.62 g/m*3 8.2 C 1.6 km/h
1125 03-04-2014 06:40:00 8.2 C 7.62 g/m*3 8.2 C 0 km/h
Sensor: Nr:Datum:Temp:Abs-Feuchte:Windchill:Wind:
Aussen-T/F 1126 03-04-2014 06:45:00 8.1 C 7.57 g/m*3 8.1 C 0 km/h
1127 03-04-2014 06:50:00 8.1 C 7.57 g/m*3 8.1 C 0 km/h
1128 03-04-2014 06:55:00 8 C 7.52 g/m*3 8 C 0 km/h
1129 03-04-2014 07:00:00 7.9 C 7.47 g/m*3 7.9 C 0 km/h
1130 03-04-2014 07:05:00 7.9 C 7.47 g/m*3 7.9 C 0 km/h
1131 03-04-2014 07:10:00 7.8 C 7.43 g/m*3 7.8 C 0 km/h
1132 03-04-2014 07:15:00 7.9 C 7.56 g/m*3 7.9 C 1.6 km/h
1133 03-04-2014 07:20:00 7.9 C 7.56 g/m*3 7.9 C 0 km/h
1134 03-04-2014 07:25:00 8 C 7.61 g/m*3 8 C 0 km/h
1135 03-04-2014 07:30:00 8.1 C 7.66 g/m*3 8.1 C 0 km/h
1136 03-04-2014 07:35:00 8.2 C 7.7 g/m*3 8.2 C 0 km/h
1137 03-04-2014 07:40:00 8.3 C 7.75 g/m*3 8.3 C 1.6 km/h
1138 03-04-2014 07:45:00 8.3 C 7.75 g/m*3 8.3 C 0 km/h
1139 03-04-2014 07:50:00 8.4 C 7.8 g/m*3 8.4 C 0 km/h
1140 03-04-2014 07:55:00 8.4 C 7.8 g/m*3 8.4 C 0 km/h
1141 03-04-2014 08:00:00 8.5 C 7.85 g/m*3 8.5 C 0 km/h
1142 03-04-2014 08:05:00 8.6 C 7.91 g/m*3 8.6 C 0 km/h
1143 03-04-2014 08:10:00 8.7 C 7.96 g/m*3 8.7 C 0 km/h
1144 03-04-2014 08:15:00 8.8 C 8.01 g/m*3 8.8 C 0 km/h
1145 03-04-2014 08:20:00 8.8 C 7.92 g/m*3 8.8 C 0 km/h
1146 03-04-2014 08:25:00 9 C 8.02 g/m*3 9 C 1.6 km/h
1147 03-04-2014 08:30:00 9.1 C 8.07 g/m*3 9.1 C 0 km/h
1148 03-04-2014 08:35:00 9.2 C 8.13 g/m*3 9.2 C 0 km/h
1149 03-04-2014 08:40:00 9.3 C 8.09 g/m*3 9.3 C 0 km/h
1150 03-04-2014 08:45:00 9.4 C 8.14 g/m*3 9.4 C 1.6 km/h
Sensor: Nr:Datum:Temp:Abs-Feuchte:Windchill:Wind:
Aussen-T/F 1151 03-04-2014 08:50:00 9.4 C 8.05 g/m*3 9.4 C 0 km/h
1152 03-04-2014 08:55:00 9.6 C 8.15 g/m*3 9.6 C 0 km/h
1153 03-04-2014 09:00:00 9.7 C 8.2 g/m*3 9.7 C 0 km/h
1154 03-04-2014 09:05:00 9.7 C 8.2 g/m*3 9.7 C 0 km/h
1155 03-04-2014 09:10:00 9.8 C 8.26 g/m*3 9.8 C 0 km/h
1156 03-04-2014 09:15:00 9.9 C 8.22 g/m*3 9.9 C 0 km/h
1157 03-04-2014 09:20:00 10.1 C 8.23 g/m*3 10.1 C 0 km/h
1158 03-04-2014 09:25:00 10.2 C 8.28 g/m*3 10.2 C 0 km/h
1159 03-04-2014 09:30:00 10.3 C 8.33 g/m*3 10.3 C 0 km/h
1160 03-04-2014 09:35:00 10.4 C 8.38 g/m*3 10.4 C 0 km/h
1161 03-04-2014 09:40:00 10.4 C 8.29 g/m*3 10.4 C 0 km/h
1162 03-04-2014 09:45:00 10.5 C 8.34 g/m*3 10.5 C 1.6 km/h
1163 03-04-2014 09:50:00 10.6 C 8.39 g/m*3 10.6 C 0 km/h
1164 03-04-2014 09:55:00 10.6 C 8.39 g/m*3 10.6 C 0 km/h
1165 03-04-2014 10:00:00 10.7 C 8.45 g/m*3 10.7 C 0 km/h
1166 03-04-2014 10:05:00 10.8 C 8.5 g/m*3 10.8 C 1.6 km/h
1167 03-04-2014 10:10:00 10.9 C 8.55 g/m*3 10.9 C 1.6 km/h
1168 03-04-2014 10:15:00 11.1 C 8.56 g/m*3 11.1 C 3.2 km/h
1169 03-04-2014 10:20:00 11.2 C 8.51 g/m*3 11.2 C 1.6 km/h
1170 03-04-2014 10:25:00 11.4 C 8.72 g/m*3 11.4 C 0 km/h
1171 03-04-2014 10:30:00 11.7 C 8.68 g/m*3 11.7 C 1.6 km/h
1172 03-04-2014 10:35:00 11.9 C 8.79 g/m*3 11.9 C 1.6 km/h
1173 03-04-2014 10:40:00 12.1 C 8.69 g/m*3 12.1 C 0 km/h
1174 03-04-2014 10:45:00 12.2 C 8.74 g/m*3 12.2 C 1.6 km/h
1175 03-04-2014 10:50:00 12.3 C 8.58 g/m*3 12.3 C 1.6 km/h
Sensor: Nr:Datum:Temp:Abs-Feuchte:Windchill:Wind:
Aussen-T/F 1176 03-04-2014 10:55:00 12.4 C 8.74 g/m*3 12.4 C 1.6 km/h
1177 03-04-2014 11:00:00 12.6 C 8.74 g/m*3 12.6 C 0 km/h
1178 03-04-2014 11:05:00 12.8 C 8.85 g/m*3 12.8 C 0 km/h
1179 03-04-2014 11:10:00 13 C 8.96 g/m*3 13 C 0 km/h
1180 03-04-2014 11:15:00 13.3 C 9.13 g/m*3 13.3 C 0 km/h
1181 03-04-2014 11:20:00 13.5 C 8.89 g/m*3 13.5 C 1.6 km/h
1182 03-04-2014 11:25:00 13.7 C 9.12 g/m*3 13.7 C 1.6 km/h
1183 03-04-2014 11:30:00 13.8 C 9.06 g/m*3 13.8 C 1.6 km/h
1184 03-04-2014 11:35:00 13.9 C 8.99 g/m*3 13.9 C 1.6 km/h
1185 03-04-2014 11:40:00 14.1 C 9.1 g/m*3 14.1 C 3.2 km/h
1186 03-04-2014 11:45:00 14.3 C 9.21 g/m*3 14.3 C 3.2 km/h
1187 03-04-2014 11:50:00 14.4 C 9.27 g/m*3 14.4 C 3.2 km/h
1188 03-04-2014 11:55:00 14.7 C 9.57 g/m*3 14.7 C 1.6 km/h
1189 03-04-2014 12:00:00 14.9 C 9.56 g/m*3 14.9 C 4.8 km/h
1190 03-04-2014 12:05:00 15.3 C 9.79 g/m*3 15.3 C 3.2 km/h
1191 03-04-2014 12:10:00 15.6 C 9.71 g/m*3 15.6 C 1.6 km/h
1192 03-04-2014 12:15:00 16 C 10.08 g/m*3 16 C 3.2 km/h
1193 03-04-2014 12:20:00 16.4 C 10.05 g/m*3 16.4 C 4.8 km/h
1194 03-04-2014 12:25:00 16.9 C 9.92 g/m*3 16.9 C 4.8 km/h
1195 03-04-2014 12:30:00 17.3 C 9.87 g/m*3 17.3 C 3.2 km/h
1196 03-04-2014 12:35:00 17.7 C 9.96 g/m*3 17.7 C 6.4 km/h
1197 03-04-2014 12:40:00 18.2 C 10.1 g/m*3 18.2 C 6.4 km/h
1198 03-04-2014 12:45:00 18.6 C 9.87 g/m*3 18.6 C 1.6 km/h
1199 03-04-2014 12:50:00 18.8 C 9.5 g/m*3 18.8 C 3.2 km/h
1200 03-04-2014 12:55:00 19.3 C 9.79 g/m*3 19.3 C 1.6 km/h
Sensor: Nr:Datum:Temp:Abs-Feuchte:Windchill:Wind:
Aussen-T/F 1201 03-04-2014 13:00:00 19.6 C 9.45 g/m*3 19.6 C 4.8 km/h
1202 03-04-2014 13:05:00 19.9 C 9.45 g/m*3 19.9 C 4.8 km/h
1203 03-04-2014 13:10:00 20.2 C 8.74 g/m*3 20.2 C 8.1 km/h
1204 03-04-2014 13:15:00 20.4 C 8.67 g/m*3 20.4 C 8.1 km/h
1205 03-04-2014 13:20:00 20.6 C 8.23 g/m*3 20.6 C 4.8 km/h
1206 03-04-2014 13:25:00 20.7 C 8.1 g/m*3 20.7 C 12.9 km/h
1207 03-04-2014 13:30:00 20.7 C 8.1 g/m*3 20.7 C 14.5 km/h
1208 03-04-2014 13:35:00 20.7 C 7.92 g/m*3 20.7 C 8.1 km/h
1209 03-04-2014 13:40:00 20.7 C 8.1 g/m*3 20.7 C 8.1 km/h
1210 03-04-2014 13:45:00 20.8 C 7.97 g/m*3 20.8 C 11.3 km/h
1211 03-04-2014 13:50:00 20.8 C 8.33 g/m*3 20.8 C 9.7 km/h
1212 03-04-2014 13:55:00 21 C 8.06 g/m*3 21 C 9.7 km/h
1213 03-04-2014 14:00:00 21.2 C 8.34 g/m*3 21.2 C 11.3 km/h
1214 03-04-2014 14:05:00 21.3 C 8.2 g/m*3 21.3 C 9.7 km/h
1215 03-04-2014 14:10:00 21.4 C 8.25 g/m*3 21.4 C 6.4 km/h
1216 03-04-2014 14:15:00 21.4 C 8.25 g/m*3 21.4 C 6.4 km/h
1217 03-04-2014 14:20:00 21.4 C 8.25 g/m*3 21.4 C 4.8 km/h
1218 03-04-2014 14:25:00 21.4 C 8.25 g/m*3 21.4 C 6.4 km/h
1219 03-04-2014 18:55:00 20.4 C 9.02 g/m*3 20.4 C 1.6 km/h
1220 03-04-2014 19:00:00 19.9 C 9.11 g/m*3 19.9 C 3.2 km/h
1221 03-04-2014 19:05:00 19.6 C 9.12 g/m*3 19.6 C 4.8 km/h
1222 03-04-2014 19:10:00 19.4 C 9.18 g/m*3 19.4 C 3.2 km/h
1223 03-04-2014 19:15:00 19.4 C 9.18 g/m*3 19.4 C 3.2 km/h
1224 03-04-2014 20:25:00 16.4 C 13.96 g/m*3 16.4 C 1.6 km/h
1225 03-04-2014 20:30:00 16.3 C 8.46 g/m*3 16.3 C 1.6 km/h
Sensor: Nr:Datum:Temp:Abs-Feuchte:Windchill:Wind:
Aussen-T/F 1226 03-04-2014 20:35:00 16.2 C 8.41 g/m*3 16.2 C 6.4 km/h
1227 03-04-2014 20:40:00 16.2 C 8.27 g/m*3 16.2 C 8.1 km/h
1228 03-04-2014 20:45:00 16.2 C 8.83 g/m*3 16.2 C 6.4 km/h
1229 03-04-2014 20:50:00 15.9 C 8.53 g/m*3 15.9 C 6.4 km/h
1230 03-04-2014 20:55:00 15.8 C 8.35 g/m*3 15.8 C 4.8 km/h
1231 03-04-2014 21:00:00 15.8 C 8.35 g/m*3 15.8 C 4.8 km/h
1232 03-04-2014 21:05:00 15.7 C 8.43 g/m*3 15.7 C 4.8 km/h
1233 03-04-2014 21:10:00 15.6 C 8.51 g/m*3 15.6 C 1.6 km/h
1234 03-04-2014 21:15:00 15.5 C 8.33 g/m*3 15.5 C 1.6 km/h
1235 03-04-2014 21:20:00 15.4 C 8.54 g/m*3 15.4 C 1.6 km/h
1236 03-04-2014 21:25:00 15.3 C 8.62 g/m*3 15.3 C 1.6 km/h
1237 03-04-2014 21:30:00 15.2 C 8.83 g/m*3 15.2 C 0 km/h
1238 03-04-2014 21:35:00 15.2 C 8.83 g/m*3 15.2 C 3.2 km/h
1239 03-04-2014 21:40:00 15.2 C 8.96 g/m*3 15.2 C 0 km/h
1240 03-04-2014 21:45:00 15.2 C 8.31 g/m*3 15.2 C 4.8 km/h
1241 03-04-2014 21:50:00 15.3 C 8.62 g/m*3 15.3 C 4.8 km/h
1242 03-04-2014 21:55:00 15.4 C 8.67 g/m*3 15.4 C 3.2 km/h
1243 03-04-2014 22:00:00 15.3 C 8.75 g/m*3 15.3 C 0 km/h
1244 03-04-2014 22:05:00 15.1 C 8.51 g/m*3 15.1 C 0 km/h
1245 03-04-2014 22:10:00 14.9 C 8.67 g/m*3 14.9 C 0 km/h
1246 03-04-2014 22:15:00 14.7 C 8.69 g/m*3 14.7 C 3.2 km/h
1247 03-04-2014 22:20:00 14.6 C 8.88 g/m*3 14.6 C 0 km/h
1248 03-04-2014 22:25:00 14.4 C 8.78 g/m*3 14.4 C 3.2 km/h
1249 03-04-2014 22:30:00 14.3 C 8.97 g/m*3 14.3 C 0 km/h
1250 03-04-2014 22:35:00 14.1 C 8.62 g/m*3 14.1 C 1.6 km/h
Sensor: Nr:Datum:Temp:Abs-Feuchte:Windchill:Wind:
Aussen-T/F 1251 03-04-2014 22:40:00 14.1 C 8.62 g/m*3 14.1 C 1.6 km/h
1252 03-04-2014 22:45:00 14 C 8.44 g/m*3 14 C 0 km/h
1253 03-04-2014 22:50:00 13.9 C 8.51 g/m*3 13.9 C 0 km/h
1254 03-04-2014 22:55:00 13.9 C 8.51 g/m*3 13.9 C 1.6 km/h
1255 03-04-2014 23:00:00 13.7 C 8.64 g/m*3 13.7 C 0 km/h
1256 03-04-2014 23:05:00 13.6 C 8.59 g/m*3 13.6 C 0 km/h
1257 03-04-2014 23:10:00 13.5 C 8.42 g/m*3 13.5 C 0 km/h
1258 03-04-2014 23:15:00 13.4 C 8.49 g/m*3 13.4 C 0 km/h
1259 03-04-2014 23:20:00 13.3 C 8.66 g/m*3 13.3 C 0 km/h
1260 03-04-2014 23:25:00 13.2 C 8.61 g/m*3 13.2 C 0 km/h
1261 03-04-2014 23:30:00 13.1 C 8.56 g/m*3 13.1 C 0 km/h
1262 03-04-2014 23:35:00 13.1 C 8.56 g/m*3 13.1 C 0 km/h
1263 03-04-2014 23:40:00 12.9 C 8.57 g/m*3 12.9 C 0 km/h
1264 03-04-2014 23:45:00 12.8 C 8.51 g/m*3 12.8 C 0 km/h
1265 03-04-2014 23:50:00 12.8 C 8.4 g/m*3 12.8 C 0 km/h
1266 03-04-2014 23:55:00 12.7 C 8.46 g/m*3 12.7 C 0 km/h
1267 04-04-2014 00:00:00 12.7 C 8.57 g/m*3 12.7 C 0 km/h
1268 04-04-2014 00:05:00 12.6 C 8.52 g/m*3 12.6 C 0 km/h
1269 04-04-2014 00:10:00 12.5 C 8.47 g/m*3 12.5 C 0 km/h
1270 04-04-2014 00:15:00 12.4 C 8.3 g/m*3 12.4 C 0 km/h
1271 04-04-2014 00:20:00 12.3 C 8.25 g/m*3 12.3 C 0 km/h
1272 04-04-2014 00:25:00 12.2 C 8.31 g/m*3 12.2 C 0 km/h
1273 04-04-2014 00:30:00 12.2 C 8.42 g/m*3 12.2 C 0 km/h
1274 04-04-2014 00:35:00 12.2 C 8.42 g/m*3 12.2 C 0 km/h
1275 04-04-2014 00:40:00 12.2 C 8.42 g/m*3 12.2 C 0 km/h
Sensor: Nr:Datum:Temp:Abs-Feuchte:Windchill:Wind:
Aussen-T/F 1276 04-04-2014 00:45:00 12.2 C 8.42 g/m*3 12.2 C 0 km/h
1277 04-04-2014 00:50:00 12.3 C 8.58 g/m*3 12.3 C 1.6 km/h
1278 04-04-2014 00:55:00 12.3 C 8.69 g/m*3 12.3 C 0 km/h
1279 04-04-2014 01:00:00 12.3 C 8.69 g/m*3 12.3 C 0 km/h
1280 04-04-2014 01:05:00 12.4 C 8.63 g/m*3 12.4 C 0 km/h
1281 04-04-2014 01:10:00 12.5 C 8.58 g/m*3 12.5 C 1.6 km/h
1282 04-04-2014 01:15:00 12.7 C 8.57 g/m*3 12.7 C 3.2 km/h
1283 04-04-2014 01:20:00 12.8 C 8.74 g/m*3 12.8 C 0 km/h
1284 04-04-2014 01:25:00 12.8 C 8.62 g/m*3 12.8 C 3.2 km/h
1285 04-04-2014 01:30:00 12.9 C 8.57 g/m*3 12.9 C 6.4 km/h
1286 04-04-2014 01:35:00 13.1 C 8.67 g/m*3 13.1 C 1.6 km/h
1287 04-04-2014 01:40:00 13.1 C 8.79 g/m*3 13.1 C 3.2 km/h
1288 04-04-2014 01:45:00 13.1 C 8.79 g/m*3 13.1 C 0 km/h
1289 04-04-2014 01:50:00 12.9 C 8.68 g/m*3 12.9 C 0 km/h
1290 04-04-2014 01:55:00 12.9 C 8.68 g/m*3 12.9 C 0 km/h
1291 04-04-2014 02:00:00 12.8 C 8.74 g/m*3 12.8 C 0 km/h
1292 04-04-2014 02:05:00 12.8 C 8.74 g/m*3 12.8 C 0 km/h
1293 04-04-2014 02:10:00 12.8 C 8.74 g/m*3 12.8 C 0 km/h
1294 04-04-2014 02:15:00 12.8 C 8.74 g/m*3 12.8 C 0 km/h
1295 04-04-2014 02:20:00 12.8 C 8.62 g/m*3 12.8 C 1.6 km/h
1296 04-04-2014 02:25:00 12.8 C 8.74 g/m*3 12.8 C 0 km/h
1297 04-04-2014 02:30:00 12.8 C 8.74 g/m*3 12.8 C 0 km/h
1298 04-04-2014 02:35:00 12.8 C 8.74 g/m*3 12.8 C 0 km/h
1299 04-04-2014 02:40:00 12.8 C 8.74 g/m*3 12.8 C 0 km/h
1300 04-04-2014 02:45:00 12.7 C 8.68 g/m*3 12.7 C 0 km/h
Sensor: Nr:Datum:Temp:Abs-Feuchte:Windchill:Wind:
Aussen-T/F 1301 04-04-2014 02:50:00 12.7 C 8.79 g/m*3 12.7 C 0 km/h
1302 04-04-2014 02:55:00 12.6 C 8.74 g/m*3 12.6 C 0 km/h
1303 04-04-2014 03:00:00 12.6 C 8.74 g/m*3 12.6 C 0 km/h
1304 04-04-2014 03:05:00 12.5 C 8.69 g/m*3 12.5 C 0 km/h
1305 04-04-2014 03:10:00 12.4 C 8.74 g/m*3 12.4 C 0 km/h
1306 04-04-2014 03:15:00 12.4 C 8.74 g/m*3 12.4 C 0 km/h
1307 04-04-2014 03:20:00 12.3 C 8.8 g/m*3 12.3 C 0 km/h
1308 04-04-2014 03:25:00 12.3 C 8.8 g/m*3 12.3 C 0 km/h
1309 04-04-2014 03:30:00 12.3 C 8.8 g/m*3 12.3 C 0 km/h
1310 04-04-2014 03:35:00 12.2 C 8.85 g/m*3 12.2 C 0 km/h
1311 04-04-2014 03:40:00 12.2 C 8.74 g/m*3 12.2 C 1.6 km/h
1312 04-04-2014 03:45:00 12.2 C 8.85 g/m*3 12.2 C 0 km/h
1313 04-04-2014 03:50:00 12.2 C 8.85 g/m*3 12.2 C 0 km/h
1314 04-04-2014 03:55:00 12.2 C 8.85 g/m*3 12.2 C 0 km/h
1315 04-04-2014 04:00:00 12.2 C 8.74 g/m*3 12.2 C 0 km/h
1316 04-04-2014 04:05:00 12.2 C 8.85 g/m*3 12.2 C 0 km/h
1317 04-04-2014 04:10:00 12.2 C 8.85 g/m*3 12.2 C 0 km/h
1318 04-04-2014 04:15:00 12.2 C 8.85 g/m*3 12.2 C 0 km/h
1319 04-04-2014 04:20:00 12.2 C 8.85 g/m*3 12.2 C 0 km/h
1320 04-04-2014 04:25:00 12.2 C 8.85 g/m*3 12.2 C 0 km/h
1321 04-04-2014 04:30:00 12.2 C 8.85 g/m*3 12.2 C 1.6 km/h
1322 04-04-2014 04:35:00 12.1 C 8.9 g/m*3 12.1 C 0 km/h
1323 04-04-2014 04:40:00 12.1 C 8.9 g/m*3 12.1 C 0 km/h
1324 04-04-2014 04:45:00 11.9 C 8.79 g/m*3 11.9 C 0 km/h
1325 04-04-2014 04:50:00 11.9 C 8.79 g/m*3 11.9 C 0 km/h
Sensor: Nr:Datum:Temp:Abs-Feuchte:Windchill:Wind:
Aussen-T/F 1326 04-04-2014 04:55:00 11.8 C 8.74 g/m*3 11.8 C 1.6 km/h
1327 04-04-2014 05:00:00 11.8 C 8.74 g/m*3 11.8 C 0 km/h
1328 04-04-2014 05:05:00 11.8 C 8.84 g/m*3 11.8 C 0 km/h
1329 04-04-2014 05:10:00 11.7 C 8.79 g/m*3 11.7 C 0 km/h
1330 04-04-2014 05:15:00 11.7 C 8.79 g/m*3 11.7 C 3.2 km/h
1331 04-04-2014 05:20:00 11.6 C 8.73 g/m*3 11.6 C 0 km/h
1332 04-04-2014 05:25:00 11.6 C 8.73 g/m*3 11.6 C 0 km/h
1333 04-04-2014 05:30:00 11.5 C 8.68 g/m*3 11.5 C 0 km/h
1334 04-04-2014 05:35:00 11.4 C 8.62 g/m*3 11.4 C 0 km/h
1335 04-04-2014 05:40:00 11.3 C 8.57 g/m*3 11.3 C 1.6 km/h
1336 04-04-2014 05:45:00 11.3 C 8.57 g/m*3 11.3 C 1.6 km/h
1337 04-04-2014 05:50:00 11.3 C 8.67 g/m*3 11.3 C 1.6 km/h
1338 04-04-2014 05:55:00 11.3 C 8.67 g/m*3 11.3 C 0 km/h
1339 04-04-2014 06:00:00 11.3 C 8.67 g/m*3 11.3 C 0 km/h
1340 04-04-2014 06:05:00 11.3 C 8.67 g/m*3 11.3 C 0 km/h
1341 04-04-2014 06:10:00 11.3 C 8.77 g/m*3 11.3 C 0 km/h
1342 04-04-2014 06:15:00 11.3 C 8.67 g/m*3 11.3 C 0 km/h
1343 04-04-2014 06:20:00 11.3 C 8.67 g/m*3 11.3 C 0 km/h
1344 04-04-2014 06:25:00 11.3 C 8.67 g/m*3 11.3 C 3.2 km/h
1345 04-04-2014 06:30:00 11.3 C 8.67 g/m*3 11.3 C 0 km/h
1346 04-04-2014 06:35:00 11.3 C 8.77 g/m*3 11.3 C 0 km/h
1347 04-04-2014 06:40:00 11.3 C 8.77 g/m*3 11.3 C 0 km/h
1348 04-04-2014 06:45:00 11.2 C 8.72 g/m*3 11.2 C 0 km/h
1349 04-04-2014 06:50:00 11.3 C 8.77 g/m*3 11.3 C 1.6 km/h
1350 04-04-2014 06:55:00 11.4 C 8.83 g/m*3 11.4 C 0 km/h
Sensor: Nr:Datum:Temp:Abs-Feuchte:Windchill:Wind:
Aussen-T/F 1351 04-04-2014 07:00:00 11.4 C 8.72 g/m*3 11.4 C 0 km/h
1352 04-04-2014 07:05:00 11.4 C 8.72 g/m*3 11.4 C 0 km/h
1353 04-04-2014 07:10:00 11.4 C 8.72 g/m*3 11.4 C 3.2 km/h
1354 04-04-2014 07:15:00 11.4 C 8.72 g/m*3 11.4 C 0 km/h
1355 04-04-2014 07:20:00 11.3 C 8.67 g/m*3 11.3 C 0 km/h
1356 04-04-2014 07:25:00 11.2 C 8.72 g/m*3 11.2 C 0 km/h
1357 04-04-2014 07:30:00 11.2 C 8.72 g/m*3 11.2 C 0 km/h
1358 04-04-2014 07:35:00 11.1 C 8.66 g/m*3 11.1 C 1.6 km/h
1359 04-04-2014 07:40:00 11.1 C 8.76 g/m*3 11.1 C 3.2 km/h
1360 04-04-2014 07:45:00 11.1 C 8.76 g/m*3 11.1 C 0 km/h
1361 04-04-2014 07:50:00 11.1 C 8.76 g/m*3 11.1 C 0 km/h
1362 04-04-2014 07:55:00 11 C 8.71 g/m*3 11 C 0 km/h
1363 04-04-2014 08:00:00 11 C 8.71 g/m*3 11 C 0 km/h
1364 04-04-2014 08:05:00 10.9 C 8.65 g/m*3 10.9 C 0 km/h
1365 04-04-2014 08:10:00 10.9 C 8.75 g/m*3 10.9 C 0 km/h
1366 04-04-2014 08:15:00 10.9 C 8.75 g/m*3 10.9 C 0 km/h
1367 04-04-2014 08:20:00 10.9 C 8.75 g/m*3 10.9 C 0 km/h
1368 04-04-2014 08:25:00 11 C 8.81 g/m*3 11 C 0 km/h
1369 04-04-2014 08:30:00 11 C 8.81 g/m*3 11 C 0 km/h
1370 04-04-2014 08:35:00 11.1 C 8.86 g/m*3 11.1 C 0 km/h
1371 04-04-2014 08:40:00 11.1 C 8.76 g/m*3 11.1 C 0 km/h
1372 04-04-2014 08:45:00 11.2 C 8.92 g/m*3 11.2 C 0 km/h
1373 04-04-2014 08:50:00 11.3 C 8.87 g/m*3 11.3 C 0 km/h
1374 04-04-2014 08:55:00 11.3 C 8.87 g/m*3 11.3 C 0 km/h
1375 04-04-2014 09:00:00 11.4 C 8.93 g/m*3 11.4 C 0 km/h
Sensor: Nr:Datum:Temp:Abs-Feuchte:Windchill:Wind:
Aussen-T/F 1376 04-04-2014 09:05:00 11.4 C 8.93 g/m*3 11.4 C 0 km/h
1377 04-04-2014 09:10:00 11.6 C 9.04 g/m*3 11.6 C 0 km/h
1378 04-04-2014 09:15:00 11.7 C 9.1 g/m*3 11.7 C 1.6 km/h
1379 04-04-2014 09:20:00 11.7 C 8.99 g/m*3 11.7 C 1.6 km/h
1380 04-04-2014 09:25:00 11.8 C 9.05 g/m*3 11.8 C 0 km/h
1381 04-04-2014 09:30:00 11.9 C 9 g/m*3 11.9 C 0 km/h
1382 04-04-2014 09:35:00 12 C 9.06 g/m*3 12 C 0 km/h
1383 04-04-2014 09:40:00 12.1 C 9.22 g/m*3 12.1 C 0 km/h
1384 04-04-2014 09:45:00 12.2 C 9.17 g/m*3 12.2 C 0 km/h
1385 04-04-2014 09:50:00 12.3 C 9.12 g/m*3 12.3 C 0 km/h
1386 04-04-2014 09:55:00 12.5 C 9.24 g/m*3 12.5 C 0 km/h
1387 04-04-2014 10:00:00 12.6 C 9.29 g/m*3 12.6 C 0 km/h
1388 04-04-2014 10:05:00 12.8 C 9.3 g/m*3 12.8 C 0 km/h
1389 04-04-2014 10:10:00 12.8 C 9.18 g/m*3 12.8 C 1.6 km/h
1390 04-04-2014 10:15:00 12.9 C 9.24 g/m*3 12.9 C 0 km/h
1391 04-04-2014 10:20:00 13 C 9.3 g/m*3 13 C 1.6 km/h
1392 04-04-2014 10:25:00 13.1 C 9.24 g/m*3 13.1 C 0 km/h
1393 04-04-2014 10:30:00 13.2 C 9.42 g/m*3 13.2 C 0 km/h
1394 04-04-2014 10:35:00 13.3 C 9.36 g/m*3 13.3 C 0 km/h
1395 04-04-2014 10:40:00 13.5 C 9.47 g/m*3 13.5 C 1.6 km/h
1396 04-04-2014 10:45:00 13.7 C 9.47 g/m*3 13.7 C 0 km/h
1397 04-04-2014 10:50:00 13.8 C 9.53 g/m*3 13.8 C 1.6 km/h
1398 04-04-2014 10:55:00 13.9 C 9.59 g/m*3 13.9 C 1.6 km/h
1399 04-04-2014 11:00:00 14.1 C 9.71 g/m*3 14.1 C 0 km/h
1400 04-04-2014 11:05:00 14.2 C 9.77 g/m*3 14.2 C 0 km/h
Sensor: Nr:Datum:Temp:Abs-Feuchte:Windchill:Wind:
Aussen-T/F 1401 04-04-2014 11:10:00 14.4 C 9.77 g/m*3 14.4 C 1.6 km/h
1402 04-04-2014 11:15:00 14.6 C 9.64 g/m*3 14.6 C 1.6 km/h
1403 04-04-2014 11:20:00 14.7 C 9.82 g/m*3 14.7 C 3.2 km/h
1404 04-04-2014 11:25:00 14.9 C 9.94 g/m*3 14.9 C 1.6 km/h
1405 04-04-2014 11:30:00 15.1 C 9.8 g/m*3 15.1 C 3.2 km/h
1406 04-04-2014 11:35:00 15.3 C 9.92 g/m*3 15.3 C 3.2 km/h
1407 04-04-2014 11:40:00 15.4 C 9.72 g/m*3 15.4 C 3.2 km/h
1408 04-04-2014 11:45:00 15.6 C 9.97 g/m*3 15.6 C 3.2 km/h
1409 04-04-2014 11:50:00 15.7 C 10.17 g/m*3 15.7 C 3.2 km/h
1410 04-04-2014 11:55:00 15.9 C 10.16 g/m*3 15.9 C 4.8 km/h
1411 04-04-2014 12:00:00 16.1 C 10.42 g/m*3 16.1 C 1.6 km/h
1412 04-04-2014 12:05:00 16.2 C 10.34 g/m*3 16.2 C 1.6 km/h
1413 04-04-2014 12:10:00 16.4 C 10.05 g/m*3 16.4 C 0 km/h
1414 04-04-2014 12:15:00 16.6 C 9.89 g/m*3 16.6 C 3.2 km/h
1415 04-04-2014 12:20:00 16.7 C 9.95 g/m*3 16.7 C 3.2 km/h
1416 04-04-2014 12:25:00 16.9 C 10.21 g/m*3 16.9 C 1.6 km/h
1417 04-04-2014 12:30:00 17.1 C 9.9 g/m*3 17.1 C 1.6 km/h
1418 04-04-2014 12:35:00 17.3 C 10.31 g/m*3 17.3 C 3.2 km/h
1419 04-04-2014 12:40:00 17.5 C 10.29 g/m*3 17.5 C 1.6 km/h
1420 04-04-2014 12:45:00 17.6 C 10.05 g/m*3 17.6 C 4.8 km/h
1421 04-04-2014 12:50:00 17.7 C 10.11 g/m*3 17.7 C 1.6 km/h
1422 04-04-2014 12:55:00 17.8 C 10.17 g/m*3 17.8 C 3.2 km/h
1423 04-04-2014 13:00:00 18 C 10.44 g/m*3 18 C 1.6 km/h
1424 04-04-2014 13:05:00 18.2 C 10.1 g/m*3 18.2 C 1.6 km/h
1425 04-04-2014 13:10:00 18.3 C 10.63 g/m*3 18.3 C 1.6 km/h
Sensor: Nr:Datum:Temp:Abs-Feuchte:Windchill:Wind:
Aussen-T/F 1426 04-04-2014 13:15:00 18.4 C 10.22 g/m*3 18.4 C 3.2 km/h
1427 04-04-2014 13:20:00 18.6 C 10.03 g/m*3 18.6 C 3.2 km/h
1428 04-04-2014 13:25:00 18.8 C 10.47 g/m*3 18.8 C 1.6 km/h
1429 04-04-2014 13:30:00 19.1 C 10.82 g/m*3 19.1 C 1.6 km/h
1430 04-04-2014 13:35:00 19.3 C 10.12 g/m*3 19.3 C 0 km/h
1431 04-04-2014 13:40:00 19.6 C 10.13 g/m*3 19.6 C 4.8 km/h
1432 04-04-2014 13:45:00 19.7 C 9.85 g/m*3 19.7 C 4.8 km/h
1433 04-04-2014 13:50:00 19.8 C 10.25 g/m*3 19.8 C 6.4 km/h
1434 04-04-2014 13:55:00 19.9 C 10.31 g/m*3 19.9 C 8.1 km/h
1435 04-04-2014 14:00:00 19.9 C 9.97 g/m*3 19.9 C 6.4 km/h
1436 04-04-2014 14:05:00 20 C 9.68 g/m*3 20 C 6.4 km/h
1437 04-04-2014 14:10:00 20.1 C 9.91 g/m*3 20.1 C 6.4 km/h
1438 04-04-2014 14:15:00 20.2 C 9.79 g/m*3 20.2 C 4.8 km/h
1439 04-04-2014 14:20:00 20.2 C 9.79 g/m*3 20.2 C 8.1 km/h
1440 04-04-2014 14:25:00 20.2 C 9.79 g/m*3 20.2 C 3.2 km/h
1441 04-04-2014 14:30:00 20.2 C 9.97 g/m*3 20.2 C 6.4 km/h
1442 04-04-2014 14:35:00 20.3 C 10.02 g/m*3 20.3 C 8.1 km/h
1443 04-04-2014 14:40:00 20.3 C 10.02 g/m*3 20.3 C 6.4 km/h
1444 04-04-2014 14:45:00 20.4 C 10.08 g/m*3 20.4 C 4.8 km/h
1445 04-04-2014 14:50:00 20.4 C 9.91 g/m*3 20.4 C 9.7 km/h
1446 04-04-2014 14:55:00 20.4 C 9.91 g/m*3 20.4 C 6.4 km/h
1447 04-04-2014 15:00:00 20.4 C 9.91 g/m*3 20.4 C 4.8 km/h
1448 04-04-2014 15:05:00 20.5 C 9.96 g/m*3 20.5 C 11.3 km/h
1449 04-04-2014 15:10:00 20.5 C 10.32 g/m*3 20.5 C 11.3 km/h
1450 04-04-2014 15:15:00 20.5 C 10.32 g/m*3 20.5 C 6.4 km/h
Sensor: Nr:Datum:Temp:Abs-Feuchte:Windchill:Wind:
Aussen-T/F 1451 04-04-2014 15:20:00 20.5 C 9.79 g/m*3 20.5 C 6.4 km/h
1452 04-04-2014 15:25:00 20.5 C 9.79 g/m*3 20.5 C 11.3 km/h
1453 04-04-2014 15:30:00 20.6 C 9.84 g/m*3 20.6 C 6.4 km/h
1454 04-04-2014 15:35:00 20.7 C 9.9 g/m*3 20.7 C 8.1 km/h
1455 04-04-2014 15:40:00 20.7 C 9.9 g/m*3 20.7 C 11.3 km/h
1456 04-04-2014 15:45:00 20.7 C 10.26 g/m*3 20.7 C 9.7 km/h
1457 04-04-2014 15:50:00 20.7 C 10.08 g/m*3 20.7 C 8.1 km/h
1458 04-04-2014 15:55:00 20.7 C 10.26 g/m*3 20.7 C 11.3 km/h
1459 04-04-2014 16:00:00 20.7 C 10.26 g/m*3 20.7 C 8.1 km/h
1460 04-04-2014 16:05:00 20.7 C 10.08 g/m*3 20.7 C 14.5 km/h
1461 04-04-2014 16:10:00 20.6 C 10.02 g/m*3 20.6 C 6.4 km/h
1462 04-04-2014 16:15:00 20.5 C 10.14 g/m*3 20.5 C 11.3 km/h
1463 04-04-2014 16:20:00 20.5 C 10.14 g/m*3 20.5 C 6.4 km/h
1464 04-04-2014 16:25:00 20.3 C 10.02 g/m*3 20.3 C 11.3 km/h
1465 04-04-2014 16:30:00 20.2 C 9.97 g/m*3 20.2 C 8.1 km/h
1466 04-04-2014 16:35:00 20.2 C 9.97 g/m*3 20.2 C 6.4 km/h
1467 04-04-2014 16:40:00 20.3 C 10.38 g/m*3 20.3 C 6.4 km/h
1468 04-04-2014 16:45:00 20.3 C 10.2 g/m*3 20.3 C 3.2 km/h
1469 04-04-2014 16:50:00 20.2 C 10.32 g/m*3 20.2 C 11.3 km/h
1470 04-04-2014 16:55:00 20.2 C 10.49 g/m*3 20.2 C 9.7 km/h
1471 04-04-2014 17:00:00 20.1 C 10.43 g/m*3 20.1 C 9.7 km/h
1472 04-04-2014 17:05:00 20.1 C 10.43 g/m*3 20.1 C 9.7 km/h
1473 04-04-2014 17:10:00 20.2 C 10.67 g/m*3 20.2 C 9.7 km/h
1474 04-04-2014 17:15:00 20.3 C 10.55 g/m*3 20.3 C 8.1 km/h
1475 04-04-2014 17:20:00 20.3 C 10.55 g/m*3 20.3 C 6.4 km/h
Sensor: Nr:Datum:Temp:Abs-Feuchte:Windchill:Wind:
Aussen-T/F 1476 04-04-2014 17:25:00 20.3 C 10.55 g/m*3 20.3 C 8.1 km/h
1477 04-04-2014 17:30:00 20.3 C 10.55 g/m*3 20.3 C 3.2 km/h
1478 04-04-2014 18:25:00 19.4 C 16.68 g/m*3 19.4 C 9.7 km/h
1479 04-04-2014 18:30:00 19.4 C 16.68 g/m*3 19.4 C 9.7 km/h
1480 04-04-2014 18:35:00 19.3 C 9.95 g/m*3 19.3 C 3.2 km/h
1481 04-04-2014 18:40:00 19.2 C 10.06 g/m*3 19.2 C 3.2 km/h
1482 04-04-2014 18:45:00 19.2 C 10.06 g/m*3 19.2 C 9.7 km/h
1483 04-04-2014 18:50:00 19.2 C 10.06 g/m*3 19.2 C 11.3 km/h
1484 04-04-2014 18:55:00 19.2 C 10.06 g/m*3 19.2 C 6.4 km/h
1485 04-04-2014 19:00:00 18.8 C 9.82 g/m*3 18.8 C 8.1 km/h
1486 04-04-2014 19:05:00 18.8 C 9.82 g/m*3 18.8 C 8.1 km/h
1487 04-04-2014 19:10:00 18.4 C 9.75 g/m*3 18.4 C 16.1 km/h
1488 04-04-2014 19:15:00 18.3 C 9.69 g/m*3 18.3 C 11.3 km/h
1489 04-04-2014 19:20:00 18.1 C 9.58 g/m*3 18.1 C 12.9 km/h
1490 04-04-2014 19:25:00 17.9 C 9.47 g/m*3 17.9 C 12.9 km/h
1491 04-04-2014 19:30:00 17.8 C 9.56 g/m*3 17.8 C 8.1 km/h
1492 04-04-2014 19:35:00 17.7 C 9.51 g/m*3 17.7 C 12.9 km/h
1493 04-04-2014 19:40:00 17.6 C 9.6 g/m*3 17.6 C 8.1 km/h
1494 04-04-2014 19:45:00 17.5 C 9.69 g/m*3 17.5 C 6.4 km/h
1495 04-04-2014 19:50:00 17.4 C 9.63 g/m*3 17.4 C 9.7 km/h
1496 04-04-2014 19:55:00 17.3 C 9.72 g/m*3 17.3 C 6.4 km/h
1497 04-04-2014 20:00:00 17.2 C 9.67 g/m*3 17.2 C 4.8 km/h
1498 04-04-2014 20:05:00 17.2 C 9.81 g/m*3 17.2 C 9.7 km/h
1499 04-04-2014 20:10:00 17.1 C 9.75 g/m*3 17.1 C 9.7 km/h
1500 04-04-2014 20:15:00 17.1 C 9.75 g/m*3 17.1 C 11.3 km/h
Sensor: Nr:Datum:Temp:Abs-Feuchte:Windchill:Wind:
Aussen-T/F 1501 04-04-2014 20:20:00 17 C 9.84 g/m*3 17 C 4.8 km/h
1502 04-04-2014 20:25:00 16.8 C 9.72 g/m*3 16.8 C 8.1 km/h
1503 04-04-2014 20:30:00 16.8 C 9.87 g/m*3 16.8 C 4.8 km/h
1504 04-04-2014 20:35:00 16.6 C 9.89 g/m*3 16.6 C 6.4 km/h
1505 04-04-2014 20:40:00 16.3 C 9.85 g/m*3 16.3 C 3.2 km/h
1506 04-04-2014 20:45:00 16.2 C 9.93 g/m*3 16.2 C 6.4 km/h
1507 04-04-2014 20:50:00 16.1 C 9.87 g/m*3 16.1 C 6.4 km/h
1508 04-04-2014 20:55:00 16.1 C 10.01 g/m*3 16.1 C 4.8 km/h
1509 04-04-2014 21:00:00 15.9 C 10.02 g/m*3 15.9 C 4.8 km/h
1510 04-04-2014 21:05:00 15.7 C 10.03 g/m*3 15.7 C 6.4 km/h
1511 04-04-2014 21:10:00 15.5 C 10.05 g/m*3 15.5 C 6.4 km/h
1512 04-04-2014 21:15:00 15.5 C 10.05 g/m*3 15.5 C 6.4 km/h
1513 04-04-2014 21:20:00 15.6 C 10.11 g/m*3 15.6 C 3.2 km/h
1514 04-04-2014 21:25:00 15.4 C 9.99 g/m*3 15.4 C 9.7 km/h
1515 04-04-2014 21:30:00 15.3 C 10.06 g/m*3 15.3 C 3.2 km/h
1516 04-04-2014 21:35:00 15.1 C 10.06 g/m*3 15.1 C 4.8 km/h
1517 04-04-2014 21:40:00 14.9 C 9.94 g/m*3 14.9 C 6.4 km/h
1518 04-04-2014 21:45:00 14.8 C 10.01 g/m*3 14.8 C 6.4 km/h
1519 04-04-2014 21:50:00 14.8 C 10.01 g/m*3 14.8 C 3.2 km/h
1520 04-04-2014 21:55:00 14.9 C 10.07 g/m*3 14.9 C 4.8 km/h
1521 04-04-2014 22:00:00 14.9 C 10.07 g/m*3 14.9 C 3.2 km/h
1522 04-04-2014 22:05:00 15 C 10 g/m*3 15 C 6.4 km/h
1523 04-04-2014 22:10:00 15.1 C 10.06 g/m*3 15.1 C 8.1 km/h
1524 04-04-2014 22:15:00 15.1 C 10.06 g/m*3 15.1 C 4.8 km/h
1525 04-04-2014 22:20:00 15.2 C 10.12 g/m*3 15.2 C 3.2 km/h
Sensor: Nr:Datum:Temp:Abs-Feuchte:Windchill:Wind:
Aussen-T/F 1526 04-04-2014 22:25:00 15.1 C 10.06 g/m*3 15.1 C 4.8 km/h
1527 04-04-2014 22:30:00 15.1 C 10.06 g/m*3 15.1 C 1.6 km/h
1528 04-04-2014 22:35:00 15.1 C 10.19 g/m*3 15.1 C 0 km/h
1529 04-04-2014 22:40:00 14.9 C 10.2 g/m*3 14.9 C 1.6 km/h
1530 04-04-2014 22:45:00 14.6 C 10.14 g/m*3 14.6 C 6.4 km/h
1531 04-04-2014 22:50:00 14.4 C 10.01 g/m*3 14.4 C 1.6 km/h
1532 04-04-2014 22:55:00 14.3 C 10.07 g/m*3 14.3 C 0 km/h
1533 04-04-2014 23:00:00 14.1 C 9.95 g/m*3 14.1 C 1.6 km/h
1534 04-04-2014 23:05:00 14 C 10.01 g/m*3 14 C 1.6 km/h
1535 04-04-2014 23:10:00 13.9 C 9.95 g/m*3 13.9 C 1.6 km/h
1536 04-04-2014 23:15:00 13.9 C 9.95 g/m*3 13.9 C 3.2 km/h
1537 04-04-2014 23:20:00 13.9 C 9.95 g/m*3 13.9 C 3.2 km/h
1538 04-04-2014 23:25:00 14.1 C 10.07 g/m*3 14.1 C 3.2 km/h
1539 04-04-2014 23:30:00 14.1 C 10.07 g/m*3 14.1 C 1.6 km/h
1540 04-04-2014 23:35:00 14.1 C 10.07 g/m*3 14.1 C 1.6 km/h
1541 04-04-2014 23:40:00 14.1 C 10.07 g/m*3 14.1 C 0 km/h
1542 04-04-2014 23:45:00 14 C 10.01 g/m*3 14 C 0 km/h
1543 04-04-2014 23:50:00 13.9 C 10.07 g/m*3 13.9 C 1.6 km/h
1544 04-04-2014 23:55:00 13.9 C 10.07 g/m*3 13.9 C 4.8 km/h
1545 05-04-2014 00:00:00 14.1 C 10.19 g/m*3 14.1 C 8.1 km/h
1546 05-04-2014 00:05:00 14.1 C 10.19 g/m*3 14.1 C 6.4 km/h
1547 05-04-2014 00:10:00 14.1 C 10.19 g/m*3 14.1 C 6.4 km/h
1548 05-04-2014 00:15:00 14.1 C 10.19 g/m*3 14.1 C 11.3 km/h
1549 05-04-2014 00:20:00 14.1 C 10.19 g/m*3 14.1 C 16.1 km/h
1550 05-04-2014 00:25:00 14.1 C 10.32 g/m*3 14.1 C 14.5 km/h
Sensor: Nr:Datum:Temp:Abs-Feuchte:Windchill:Wind:
Aussen-T/F 1551 05-04-2014 00:30:00 14 C 10.25 g/m*3 14 C 9.7 km/h
1552 05-04-2014 00:35:00 13.9 C 10.19 g/m*3 13.9 C 11.3 km/h
1553 05-04-2014 00:40:00 13.8 C 10.25 g/m*3 13.8 C 4.8 km/h
1554 05-04-2014 00:45:00 13.8 C 10.25 g/m*3 13.8 C 4.8 km/h
1555 05-04-2014 00:50:00 13.7 C 10.18 g/m*3 13.7 C 4.8 km/h
1556 05-04-2014 00:55:00 13.7 C 10.18 g/m*3 13.7 C 4.8 km/h
1557 05-04-2014 01:00:00 13.6 C 10.24 g/m*3 13.6 C 6.4 km/h
1558 05-04-2014 01:05:00 13.6 C 10.24 g/m*3 13.6 C 4.8 km/h
1559 05-04-2014 01:10:00 13.6 C 10.24 g/m*3 13.6 C 6.4 km/h
1560 05-04-2014 01:15:00 13.5 C 10.18 g/m*3 13.5 C 3.2 km/h
1561 05-04-2014 01:20:00 13.4 C 10.11 g/m*3 13.4 C 6.4 km/h
1562 05-04-2014 01:25:00 13.4 C 10.11 g/m*3 13.4 C 6.4 km/h
1563 05-04-2014 01:30:00 13.4 C 10.11 g/m*3 13.4 C 11.3 km/h
1564 05-04-2014 01:35:00 13.4 C 10.11 g/m*3 13.4 C 3.2 km/h
1565 05-04-2014 01:40:00 13.4 C 10.11 g/m*3 13.4 C 6.4 km/h
1566 05-04-2014 01:45:00 13.3 C 10.05 g/m*3 13.3 C 6.4 km/h
1567 05-04-2014 01:50:00 13.3 C 10.05 g/m*3 13.3 C 12.9 km/h
1568 05-04-2014 01:55:00 13.3 C 10.05 g/m*3 13.3 C 11.3 km/h
1569 05-04-2014 02:00:00 13.3 C 10.05 g/m*3 13.3 C 4.8 km/h
1570 05-04-2014 02:05:00 13.3 C 10.05 g/m*3 13.3 C 8.1 km/h
1571 05-04-2014 02:10:00 13.2 C 9.99 g/m*3 13.2 C 6.4 km/h
1572 05-04-2014 02:15:00 13.2 C 9.99 g/m*3 13.2 C 11.3 km/h
1573 05-04-2014 02:20:00 13.2 C 9.99 g/m*3 13.2 C 4.8 km/h
1574 05-04-2014 02:25:00 13.2 C 9.99 g/m*3 13.2 C 3.2 km/h
1575 05-04-2014 02:30:00 13.2 C 9.99 g/m*3 13.2 C 8.1 km/h
Sensor: Nr:Datum:Temp:Abs-Feuchte:Windchill:Wind:
Aussen-T/F 1576 05-04-2014 02:35:00 13.2 C 9.99 g/m*3 13.2 C 9.7 km/h
1577 05-04-2014 02:40:00 13.2 C 9.99 g/m*3 13.2 C 6.4 km/h
1578 05-04-2014 02:45:00 13.2 C 9.99 g/m*3 13.2 C 3.2 km/h
1579 05-04-2014 02:50:00 13.1 C 9.93 g/m*3 13.1 C 9.7 km/h
1580 05-04-2014 02:55:00 13.1 C 9.93 g/m*3 13.1 C 1.6 km/h
1581 05-04-2014 03:00:00 13.1 C 9.93 g/m*3 13.1 C 4.8 km/h
1582 05-04-2014 03:05:00 13 C 9.87 g/m*3 13 C 8.1 km/h
1583 05-04-2014 03:10:00 13 C 9.87 g/m*3 13 C 3.2 km/h
1584 05-04-2014 03:15:00 13 C 9.98 g/m*3 13 C 4.8 km/h
1585 05-04-2014 03:20:00 12.9 C 9.92 g/m*3 12.9 C 6.4 km/h
1586 05-04-2014 03:25:00 12.9 C 9.92 g/m*3 12.9 C 4.8 km/h
1587 05-04-2014 03:30:00 12.9 C 9.92 g/m*3 12.9 C 4.8 km/h
1588 05-04-2014 03:35:00 12.9 C 9.92 g/m*3 12.9 C 6.4 km/h
1589 05-04-2014 03:40:00 12.9 C 9.92 g/m*3 12.9 C 6.4 km/h
1590 05-04-2014 03:45:00 12.8 C 9.86 g/m*3 12.8 C 6.4 km/h
1591 05-04-2014 03:50:00 12.8 C 9.74 g/m*3 12.8 C 3.2 km/h
1592 05-04-2014 03:55:00 12.8 C 9.74 g/m*3 12.8 C 4.8 km/h
1593 05-04-2014 04:00:00 12.8 C 9.74 g/m*3 12.8 C 8.1 km/h
1594 05-04-2014 04:05:00 12.8 C 9.74 g/m*3 12.8 C 8.1 km/h
1595 05-04-2014 04:10:00 12.8 C 9.74 g/m*3 12.8 C 11.3 km/h
1596 05-04-2014 04:15:00 12.8 C 9.74 g/m*3 12.8 C 11.3 km/h
1597 05-04-2014 04:20:00 12.8 C 9.74 g/m*3 12.8 C 9.7 km/h
1598 05-04-2014 04:25:00 12.7 C 9.68 g/m*3 12.7 C 4.8 km/h
1599 05-04-2014 04:30:00 12.7 C 9.68 g/m*3 12.7 C 6.4 km/h
1600 05-04-2014 04:35:00 12.7 C 9.68 g/m*3 12.7 C 4.8 km/h
Sensor: Nr:Datum:Temp:Abs-Feuchte:Windchill:Wind:
Aussen-T/F 1601 05-04-2014 04:40:00 12.7 C 9.68 g/m*3 12.7 C 12.9 km/h
1602 05-04-2014 04:45:00 12.7 C 9.68 g/m*3 12.7 C 6.4 km/h
1603 05-04-2014 04:50:00 12.7 C 9.68 g/m*3 12.7 C 6.4 km/h
1604 05-04-2014 04:55:00 12.7 C 9.68 g/m*3 12.7 C 6.4 km/h
1605 05-04-2014 05:00:00 12.7 C 9.68 g/m*3 12.7 C 8.1 km/h
1606 05-04-2014 05:05:00 12.7 C 9.68 g/m*3 12.7 C 6.4 km/h
1607 05-04-2014 05:10:00 12.7 C 9.68 g/m*3 12.7 C 6.4 km/h
1608 05-04-2014 05:15:00 12.6 C 9.62 g/m*3 12.6 C 9.7 km/h
1609 05-04-2014 05:20:00 12.6 C 9.62 g/m*3 12.6 C 8.1 km/h
1610 05-04-2014 05:25:00 12.6 C 9.62 g/m*3 12.6 C 12.9 km/h
1611 05-04-2014 05:30:00 12.6 C 9.62 g/m*3 12.6 C 9.7 km/h
1612 05-04-2014 05:35:00 12.5 C 9.68 g/m*3 12.5 C 12.9 km/h
1613 05-04-2014 05:40:00 12.4 C 9.62 g/m*3 12.4 C 8.1 km/h
1614 05-04-2014 05:45:00 12.4 C 9.62 g/m*3 12.4 C 4.8 km/h
1615 05-04-2014 05:50:00 12.3 C 9.66 g/m*3 12.3 C 6.4 km/h
1616 05-04-2014 05:55:00 12.3 C 9.66 g/m*3 12.3 C 6.4 km/h
1617 05-04-2014 06:00:00 12.2 C 9.71 g/m*3 12.2 C 4.8 km/h
1618 05-04-2014 06:05:00 12.2 C 9.71 g/m*3 12.2 C 4.8 km/h
1619 05-04-2014 06:10:00 12.2 C 9.82 g/m*3 12.2 C 4.8 km/h
1620 05-04-2014 06:15:00 12.1 C 9.65 g/m*3 12.1 C 0 km/h
1621 05-04-2014 06:20:00 12.1 C 9.65 g/m*3 12.1 C 6.4 km/h
1622 05-04-2014 06:25:00 12.1 C 9.65 g/m*3 12.1 C 6.4 km/h
1623 05-04-2014 06:30:00 12.1 C 9.65 g/m*3 12.1 C 4.8 km/h
1624 05-04-2014 06:35:00 12.1 C 9.65 g/m*3 12.1 C 6.4 km/h
1625 05-04-2014 06:40:00 12.1 C 9.65 g/m*3 12.1 C 3.2 km/h
Sensor: Nr:Datum:Temp:Abs-Feuchte:Windchill:Wind:
Aussen-T/F 1626 05-04-2014 06:45:00 12.1 C 9.65 g/m*3 12.1 C 1.6 km/h
1627 05-04-2014 06:50:00 12.1 C 9.65 g/m*3 12.1 C 0 km/h
1628 05-04-2014 06:55:00 12.1 C 9.65 g/m*3 12.1 C 3.2 km/h
1629 05-04-2014 07:00:00 12.1 C 9.65 g/m*3 12.1 C 4.8 km/h
1630 05-04-2014 07:05:00 12 C 9.59 g/m*3 12 C 8.1 km/h
1631 05-04-2014 07:10:00 12 C 9.59 g/m*3 12 C 6.4 km/h
1632 05-04-2014 07:15:00 12 C 9.59 g/m*3 12 C 4.8 km/h
1633 05-04-2014 07:20:00 12 C 9.59 g/m*3 12 C 9.7 km/h
1634 05-04-2014 07:25:00 12 C 9.59 g/m*3 12 C 4.8 km/h
1635 05-04-2014 07:30:00 12 C 9.59 g/m*3 12 C 4.8 km/h
1636 05-04-2014 07:35:00 12 C 9.59 g/m*3 12 C 4.8 km/h
1637 05-04-2014 07:40:00 12 C 9.59 g/m*3 12 C 0 km/h
1638 05-04-2014 07:45:00 12 C 9.59 g/m*3 12 C 0 km/h
1639 05-04-2014 07:50:00 12 C 9.59 g/m*3 12 C 3.2 km/h
1640 05-04-2014 07:55:00 12 C 9.59 g/m*3 12 C 8.1 km/h
1641 05-04-2014 08:00:00 12 C 9.59 g/m*3 12 C 6.4 km/h
1642 05-04-2014 08:05:00 12 C 9.59 g/m*3 12 C 9.7 km/h
1643 05-04-2014 08:10:00 12 C 9.59 g/m*3 12 C 11.3 km/h
1644 05-04-2014 08:15:00 11.9 C 9.53 g/m*3 11.9 C 6.4 km/h
1645 05-04-2014 08:20:00 12 C 9.59 g/m*3 12 C 3.2 km/h
1646 05-04-2014 08:25:00 12 C 9.59 g/m*3 12 C 4.8 km/h
1647 05-04-2014 08:30:00 12 C 9.59 g/m*3 12 C 4.8 km/h
1648 05-04-2014 08:35:00 12.1 C 9.65 g/m*3 12.1 C 4.8 km/h
1649 05-04-2014 08:40:00 12.1 C 9.65 g/m*3 12.1 C 4.8 km/h
1650 05-04-2014 08:45:00 12.1 C 9.65 g/m*3 12.1 C 4.8 km/h
Sensor: Nr:Datum:Temp:Abs-Feuchte:Windchill:Wind:
Aussen-T/F 1651 05-04-2014 08:50:00 12.1 C 9.65 g/m*3 12.1 C 3.2 km/h
1652 05-04-2014 08:55:00 12.2 C 9.71 g/m*3 12.2 C 0 km/h
1653 05-04-2014 09:00:00 12.2 C 9.71 g/m*3 12.2 C 1.6 km/h
1654 05-04-2014 09:05:00 12.2 C 9.71 g/m*3 12.2 C 4.8 km/h
1655 05-04-2014 09:10:00 12.2 C 9.6 g/m*3 12.2 C 6.4 km/h
1656 05-04-2014 09:15:00 12.2 C 9.71 g/m*3 12.2 C 3.2 km/h
1657 05-04-2014 09:20:00 12.2 C 9.6 g/m*3 12.2 C 1.6 km/h
1658 05-04-2014 09:25:00 12.2 C 9.6 g/m*3 12.2 C 6.4 km/h
1659 05-04-2014 09:30:00 12.2 C 9.6 g/m*3 12.2 C 6.4 km/h
1660 05-04-2014 09:35:00 12.2 C 9.71 g/m*3 12.2 C 4.8 km/h
1661 05-04-2014 09:40:00 12.2 C 9.6 g/m*3 12.2 C 11.3 km/h
1662 05-04-2014 09:45:00 12.2 C 9.6 g/m*3 12.2 C 9.7 km/h
1663 05-04-2014 09:50:00 12.2 C 9.71 g/m*3 12.2 C 8.1 km/h
1664 05-04-2014 09:55:00 12.2 C 9.71 g/m*3 12.2 C 9.7 km/h
1665 05-04-2014 10:00:00 12.2 C 9.6 g/m*3 12.2 C 11.3 km/h
1666 05-04-2014 10:05:00 12.1 C 9.54 g/m*3 12.1 C 8.1 km/h
1667 05-04-2014 10:10:00 12.1 C 9.65 g/m*3 12.1 C 6.4 km/h
1668 05-04-2014 10:15:00 12.1 C 9.65 g/m*3 12.1 C 12.9 km/h
1669 05-04-2014 10:20:00 12.1 C 9.65 g/m*3 12.1 C 9.7 km/h
1670 05-04-2014 10:25:00 12.1 C 9.65 g/m*3 12.1 C 9.7 km/h
1671 05-04-2014 10:30:00 12.1 C 9.65 g/m*3 12.1 C 6.4 km/h
1672 05-04-2014 10:35:00 12.1 C 9.65 g/m*3 12.1 C 8.1 km/h
1673 05-04-2014 10:40:00 12.1 C 9.54 g/m*3 12.1 C 9.7 km/h
1674 05-04-2014 10:45:00 12.2 C 9.6 g/m*3 12.2 C 6.4 km/h
1675 05-04-2014 10:50:00 12.2 C 9.6 g/m*3 12.2 C 8.1 km/h
Sensor: Nr:Datum:Temp:Abs-Feuchte:Windchill:Wind:
Aussen-T/F 1676 05-04-2014 10:55:00 12.2 C 9.6 g/m*3 12.2 C 8.1 km/h
1677 05-04-2014 11:00:00 12.2 C 9.6 g/m*3 12.2 C 8.1 km/h
1678 05-04-2014 11:05:00 12.2 C 9.6 g/m*3 12.2 C 9.7 km/h
1679 05-04-2014 11:10:00 12.3 C 9.56 g/m*3 12.3 C 4.8 km/h
1680 05-04-2014 11:15:00 12.3 C 9.56 g/m*3 12.3 C 4.8 km/h
1681 05-04-2014 11:20:00 12.3 C 9.56 g/m*3 12.3 C 8.1 km/h
1682 05-04-2014 11:25:00 12.3 C 9.56 g/m*3 12.3 C 4.8 km/h
1683 05-04-2014 11:30:00 12.3 C 9.56 g/m*3 12.3 C 6.4 km/h
1684 05-04-2014 11:35:00 12.4 C 9.62 g/m*3 12.4 C 4.8 km/h
1685 05-04-2014 11:40:00 12.4 C 9.62 g/m*3 12.4 C 4.8 km/h
1686 05-04-2014 11:45:00 12.4 C 9.62 g/m*3 12.4 C 4.8 km/h
1687 05-04-2014 11:50:00 12.6 C 9.62 g/m*3 12.6 C 3.2 km/h
1688 05-04-2014 11:55:00 12.7 C 9.8 g/m*3 12.7 C 4.8 km/h
1689 05-04-2014 12:00:00 12.7 C 9.68 g/m*3 12.7 C 8.1 km/h
1690 05-04-2014 12:05:00 12.8 C 9.74 g/m*3 12.8 C 3.2 km/h
1691 05-04-2014 12:10:00 12.8 C 9.74 g/m*3 12.8 C 4.8 km/h
1692 05-04-2014 12:15:00 12.8 C 9.74 g/m*3 12.8 C 3.2 km/h
1693 05-04-2014 12:20:00 13 C 9.87 g/m*3 13 C 3.2 km/h
1694 05-04-2014 12:25:00 13.1 C 9.93 g/m*3 13.1 C 4.8 km/h
1695 05-04-2014 12:30:00 13.2 C 9.99 g/m*3 13.2 C 4.8 km/h
1696 05-04-2014 12:35:00 13.1 C 9.81 g/m*3 13.1 C 1.6 km/h
1697 05-04-2014 12:40:00 13.3 C 9.94 g/m*3 13.3 C 4.8 km/h
1698 05-04-2014 12:45:00 13.3 C 10.05 g/m*3 13.3 C 8.1 km/h
1699 05-04-2014 12:50:00 13.4 C 10.11 g/m*3 13.4 C 9.7 km/h
1700 05-04-2014 12:55:00 13.4 C 10.11 g/m*3 13.4 C 8.1 km/h
Sensor: Nr:Datum:Temp:Abs-Feuchte:Windchill:Wind:
Aussen-T/F 1701 05-04-2014 13:00:00 13.9 C 10.43 g/m*3 13.9 C 6.4 km/h
1702 05-04-2014 13:05:00 13.9 C 10.43 g/m*3 13.9 C 4.8 km/h
1703 05-04-2014 13:10:00 13.9 C 10.43 g/m*3 13.9 C 6.4 km/h
1704 05-04-2014 15:45:00 15.5 C 10.18 g/m*3 15.5 C 6.4 km/h
1705 05-04-2014 15:50:00 15.5 C 10.18 g/m*3 15.5 C 6.4 km/h
1706 05-04-2014 15:55:00 15.3 C 9.92 g/m*3 15.3 C 4.8 km/h
1707 05-04-2014 16:00:00 15.3 C 9.92 g/m*3 15.3 C 4.8 km/h
1708 05-04-2014 16:05:00 15.3 C 9.92 g/m*3 15.3 C 6.4 km/h
1709 05-04-2014 16:10:00 15.2 C 9.99 g/m*3 15.2 C 9.7 km/h
1710 05-04-2014 16:15:00 15.2 C 9.86 g/m*3 15.2 C 8.1 km/h
1711 05-04-2014 16:20:00 15.2 C 9.86 g/m*3 15.2 C 9.7 km/h
1712 05-04-2014 16:25:00 15.2 C 9.86 g/m*3 15.2 C 9.7 km/h
1713 05-04-2014 16:30:00 15.1 C 9.8 g/m*3 15.1 C 6.4 km/h
1714 05-04-2014 16:35:00 15.1 C 9.8 g/m*3 15.1 C 3.2 km/h
1715 05-04-2014 16:40:00 15.1 C 9.8 g/m*3 15.1 C 8.1 km/h
1716 05-04-2014 16:45:00 15 C 9.75 g/m*3 15 C 8.1 km/h
1717 05-04-2014 16:50:00 14.9 C 9.81 g/m*3 14.9 C 6.4 km/h
1718 05-04-2014 16:55:00 14.9 C 9.81 g/m*3 14.9 C 6.4 km/h
1719 05-04-2014 17:00:00 14.9 C 9.81 g/m*3 14.9 C 6.4 km/h
1720 05-04-2014 17:05:00 14.9 C 9.81 g/m*3 14.9 C 9.7 km/h
1721 05-04-2014 17:10:00 14.9 C 9.81 g/m*3 14.9 C 8.1 km/h
1722 05-04-2014 17:15:00 14.9 C 9.69 g/m*3 14.9 C 6.4 km/h
1723 05-04-2014 17:20:00 14.9 C 9.69 g/m*3 14.9 C 4.8 km/h
1724 05-04-2014 17:25:00 14.9 C 9.69 g/m*3 14.9 C 4.8 km/h
1725 05-04-2014 17:30:00 14.9 C 9.69 g/m*3 14.9 C 6.4 km/h
Sensor: Nr:Datum:Temp:Abs-Feuchte:Windchill:Wind:
Aussen-T/F 1726 05-04-2014 17:35:00 14.9 C 9.69 g/m*3 14.9 C 6.4 km/h
1727 05-04-2014 17:55:00 14.8 C 12.67 g/m*3 14.8 C 4.8 km/h
1728 05-04-2014 18:00:00 14.7 C 9.82 g/m*3 14.7 C 6.4 km/h
1729 05-04-2014 18:05:00 14.7 C 9.82 g/m*3 14.7 C 6.4 km/h
1730 05-04-2014 19:00:00 14.7 C 12.59 g/m*3 14.7 C 3.2 km/h
1731 05-04-2014 19:05:00 14.7 C 9.82 g/m*3 14.7 C 1.6 km/h
1732 05-04-2014 19:10:00 14.6 C 9.89 g/m*3 14.6 C 0 km/h
1733 05-04-2014 19:15:00 14.6 C 9.76 g/m*3 14.6 C 0 km/h
1734 05-04-2014 19:20:00 14.4 C 9.77 g/m*3 14.4 C 0 km/h
1735 05-04-2014 19:25:00 14.4 C 9.89 g/m*3 14.4 C 0 km/h
1736 05-04-2014 19:30:00 14.3 C 9.95 g/m*3 14.3 C 0 km/h
1737 05-04-2014 19:35:00 14.2 C 9.89 g/m*3 14.2 C 0 km/h
1738 05-04-2014 19:40:00 14.1 C 9.95 g/m*3 14.1 C 0 km/h
1739 05-04-2014 19:45:00 13.9 C 9.83 g/m*3 13.9 C 0 km/h
1740 05-04-2014 19:50:00 13.8 C 9.89 g/m*3 13.8 C 3.2 km/h
1741 05-04-2014 19:55:00 13.8 C 9.89 g/m*3 13.8 C 3.2 km/h
1742 05-04-2014 20:00:00 13.7 C 9.83 g/m*3 13.7 C 1.6 km/h
1743 05-04-2014 20:05:00 13.6 C 9.77 g/m*3 13.6 C 3.2 km/h
1744 05-04-2014 20:10:00 13.6 C 9.77 g/m*3 13.6 C 3.2 km/h
1745 05-04-2014 20:15:00 13.5 C 9.71 g/m*3 13.5 C 3.2 km/h
1746 05-04-2014 20:20:00 13.4 C 9.76 g/m*3 13.4 C 3.2 km/h
1747 05-04-2014 20:25:00 13.4 C 9.76 g/m*3 13.4 C 3.2 km/h
1748 05-04-2014 20:30:00 13.3 C 9.7 g/m*3 13.3 C 3.2 km/h
1749 05-04-2014 20:35:00 13.3 C 9.7 g/m*3 13.3 C 3.2 km/h
1750 05-04-2014 20:40:00 13.2 C 9.64 g/m*3 13.2 C 3.2 km/h
Sensor: Nr:Datum:Temp:Abs-Feuchte:Windchill:Wind:
Aussen-T/F 1751 05-04-2014 20:45:00 13.2 C 9.76 g/m*3 13.2 C 3.2 km/h
1752 05-04-2014 20:50:00 13.2 C 9.76 g/m*3 13.2 C 3.2 km/h
1753 05-04-2014 20:55:00 13.2 C 9.76 g/m*3 13.2 C 3.2 km/h
1754 05-04-2014 21:00:00 13.2 C 9.76 g/m*3 13.2 C 1.6 km/h
1755 05-04-2014 21:05:00 13.1 C 9.7 g/m*3 13.1 C 3.2 km/h
1756 05-04-2014 21:10:00 13.1 C 9.7 g/m*3 13.1 C 1.6 km/h
1757 05-04-2014 21:15:00 13.1 C 9.7 g/m*3 13.1 C 3.2 km/h
1758 05-04-2014 21:20:00 13.1 C 9.7 g/m*3 13.1 C 3.2 km/h
1759 05-04-2014 21:25:00 13.1 C 9.7 g/m*3 13.1 C 3.2 km/h
1760 05-04-2014 21:30:00 13.1 C 9.81 g/m*3 13.1 C 1.6 km/h
1761 05-04-2014 21:35:00 13.1 C 9.81 g/m*3 13.1 C 0 km/h
1762 05-04-2014 21:40:00 13 C 9.75 g/m*3 13 C 3.2 km/h
1763 05-04-2014 21:45:00 13 C 9.75 g/m*3 13 C 1.6 km/h
1764 05-04-2014 21:50:00 13 C 9.75 g/m*3 13 C 1.6 km/h
1765 05-04-2014 21:55:00 12.9 C 9.69 g/m*3 12.9 C 3.2 km/h
1766 05-04-2014 22:00:00 12.9 C 9.69 g/m*3 12.9 C 3.2 km/h
1767 05-04-2014 22:05:00 12.9 C 9.81 g/m*3 12.9 C 0 km/h
1768 05-04-2014 22:10:00 12.9 C 9.81 g/m*3 12.9 C 0 km/h
1769 05-04-2014 22:15:00 12.9 C 9.81 g/m*3 12.9 C 0 km/h
1770 05-04-2014 22:20:00 12.8 C 9.74 g/m*3 12.8 C 0 km/h
1771 05-04-2014 22:25:00 12.8 C 9.63 g/m*3 12.8 C 0 km/h
1772 05-04-2014 22:30:00 12.7 C 9.68 g/m*3 12.7 C 0 km/h
1773 05-04-2014 22:35:00 12.7 C 9.68 g/m*3 12.7 C 0 km/h
1774 05-04-2014 22:40:00 12.7 C 9.68 g/m*3 12.7 C 0 km/h
1775 05-04-2014 22:45:00 12.6 C 9.62 g/m*3 12.6 C 3.2 km/h
Sensor: Nr:Datum:Temp:Abs-Feuchte:Windchill:Wind:
Aussen-T/F 1776 05-04-2014 22:50:00 12.4 C 9.4 g/m*3 12.4 C 1.6 km/h
1777 05-04-2014 22:55:00 12.2 C 9.39 g/m*3 12.2 C 1.6 km/h
1778 05-04-2014 23:00:00 12 C 9.27 g/m*3 12 C 3.2 km/h
1779 05-04-2014 23:05:00 11.8 C 9.16 g/m*3 11.8 C 4.8 km/h
1780 05-04-2014 23:10:00 11.7 C 9.2 g/m*3 11.7 C 4.8 km/h
1781 05-04-2014 23:15:00 11.5 C 8.99 g/m*3 11.5 C 4.8 km/h
1782 05-04-2014 23:20:00 11.3 C 8.98 g/m*3 11.3 C 3.2 km/h
1783 05-04-2014 23:25:00 11.2 C 8.92 g/m*3 11.2 C 3.2 km/h
1784 05-04-2014 23:30:00 11.2 C 9.02 g/m*3 11.2 C 4.8 km/h
1785 05-04-2014 23:35:00 11.1 C 8.96 g/m*3 11.1 C 3.2 km/h
1786 05-04-2014 23:40:00 11 C 9.01 g/m*3 11 C 0 km/h
1787 05-04-2014 23:45:00 10.9 C 8.85 g/m*3 10.9 C 0 km/h
1788 05-04-2014 23:50:00 10.8 C 8.8 g/m*3 10.8 C 1.6 km/h
1789 05-04-2014 23:55:00 10.7 C 8.74 g/m*3 10.7 C 1.6 km/h
1790 06-04-2014 00:00:00 10.6 C 8.78 g/m*3 10.6 C 0 km/h
1791 06-04-2014 00:05:00 10.4 C 8.77 g/m*3 10.4 C 3.2 km/h
1792 06-04-2014 00:10:00 10.4 C 8.77 g/m*3 10.4 C 0 km/h
1793 06-04-2014 00:15:00 10.3 C 8.71 g/m*3 10.3 C 0 km/h
1794 06-04-2014 00:20:00 10.2 C 8.66 g/m*3 10.2 C 3.2 km/h
1795 06-04-2014 00:25:00 10.1 C 8.61 g/m*3 10.1 C 0 km/h
1796 06-04-2014 00:30:00 10 C 8.55 g/m*3 10 C 0 km/h
1797 06-04-2014 00:35:00 9.9 C 8.5 g/m*3 9.9 C 0 km/h
1798 06-04-2014 00:40:00 9.8 C 8.54 g/m*3 9.8 C 1.6 km/h
1799 06-04-2014 00:45:00 9.8 C 8.63 g/m*3 9.8 C 3.2 km/h
1800 06-04-2014 00:50:00 9.8 C 8.54 g/m*3 9.8 C 0 km/h
Sensor: Nr:Datum:Temp:Abs-Feuchte:Windchill:Wind:
Aussen-T/F 1801 06-04-2014 00:55:00 9.7 C 8.48 g/m*3 9.7 C 0 km/h
1802 06-04-2014 01:00:00 9.6 C 8.43 g/m*3 9.6 C 0 km/h
1803 06-04-2014 01:05:00 9.5 C 8.37 g/m*3 9.5 C 0 km/h
1804 06-04-2014 01:10:00 9.4 C 8.41 g/m*3 9.4 C 1.6 km/h
1805 06-04-2014 01:15:00 9.4 C 8.41 g/m*3 9.4 C 0 km/h
1806 06-04-2014 01:20:00 9.3 C 8.36 g/m*3 9.3 C 0 km/h
1807 06-04-2014 01:25:00 9.3 C 8.36 g/m*3 9.3 C 0 km/h
1808 06-04-2014 01:30:00 9.2 C 8.3 g/m*3 9.2 C 0 km/h
1809 06-04-2014 01:35:00 9.2 C 8.3 g/m*3 9.2 C 0 km/h
1810 06-04-2014 01:40:00 9.1 C 8.25 g/m*3 9.1 C 0 km/h
1811 06-04-2014 01:45:00 8.9 C 8.15 g/m*3 8.9 C 0 km/h
1812 06-04-2014 01:50:00 8.8 C 8.09 g/m*3 8.8 C 0 km/h
1813 06-04-2014 01:55:00 8.7 C 8.13 g/m*3 8.7 C 0 km/h
1814 06-04-2014 02:00:00 8.7 C 8.13 g/m*3 8.7 C 0 km/h
1815 06-04-2014 02:05:00 8.7 C 8.13 g/m*3 8.7 C 0 km/h
1816 06-04-2014 02:10:00 8.7 C 8.13 g/m*3 8.7 C 0 km/h
1817 06-04-2014 02:15:00 8.6 C 8.08 g/m*3 8.6 C 0 km/h
1818 06-04-2014 02:20:00 8.5 C 8.03 g/m*3 8.5 C 0 km/h
1819 06-04-2014 02:25:00 8.4 C 7.97 g/m*3 8.4 C 0 km/h
1820 06-04-2014 02:30:00 8.3 C 7.92 g/m*3 8.3 C 0 km/h
1821 06-04-2014 02:35:00 8.3 C 8.01 g/m*3 8.3 C 0 km/h
1822 06-04-2014 02:40:00 8.3 C 8.01 g/m*3 8.3 C 0 km/h
1823 06-04-2014 02:45:00 8.3 C 8.01 g/m*3 8.3 C 1.6 km/h
1824 06-04-2014 02:50:00 8.3 C 8.01 g/m*3 8.3 C 0 km/h
1825 06-04-2014 02:55:00 8.3 C 8.01 g/m*3 8.3 C 0 km/h
Sensor: Nr:Datum:Temp:Abs-Feuchte:Windchill:Wind:
Aussen-T/F 1826 06-04-2014 03:00:00 8.2 C 7.96 g/m*3 8.2 C 0 km/h
1827 06-04-2014 03:05:00 8.2 C 7.96 g/m*3 8.2 C 0 km/h
1828 06-04-2014 03:10:00 8.1 C 7.9 g/m*3 8.1 C 0 km/h
1829 06-04-2014 03:15:00 8 C 7.85 g/m*3 8 C 0 km/h
1830 06-04-2014 03:20:00 7.9 C 7.8 g/m*3 7.9 C 3.2 km/h
1831 06-04-2014 03:25:00 7.8 C 7.75 g/m*3 7.8 C 0 km/h
1832 06-04-2014 03:30:00 7.9 C 7.8 g/m*3 7.9 C 0 km/h
1833 06-04-2014 03:35:00 7.9 C 7.8 g/m*3 7.9 C 0 km/h
1834 06-04-2014 03:40:00 7.8 C 7.75 g/m*3 7.8 C 0 km/h
1835 06-04-2014 03:45:00 7.7 C 7.7 g/m*3 7.7 C 0 km/h
1836 06-04-2014 03:50:00 7.7 C 7.7 g/m*3 7.7 C 0 km/h
1837 06-04-2014 03:55:00 7.6 C 7.65 g/m*3 7.6 C 0 km/h
1838 06-04-2014 04:00:00 7.5 C 7.6 g/m*3 7.5 C 0 km/h
1839 06-04-2014 04:05:00 7.4 C 7.55 g/m*3 7.4 C 0 km/h
1840 06-04-2014 04:10:00 7.3 C 7.51 g/m*3 7.3 C 0 km/h
1841 06-04-2014 04:15:00 7.3 C 7.51 g/m*3 7.3 C 0 km/h
1842 06-04-2014 04:20:00 7.2 C 7.46 g/m*3 7.2 C 0 km/h
1843 06-04-2014 04:25:00 7.2 C 7.46 g/m*3 7.2 C 0 km/h
1844 06-04-2014 04:30:00 7.1 C 7.49 g/m*3 7.1 C 0 km/h
1845 06-04-2014 04:35:00 7.1 C 7.41 g/m*3 7.1 C 0 km/h
1846 06-04-2014 04:40:00 7.1 C 7.49 g/m*3 7.1 C 0 km/h
1847 06-04-2014 04:45:00 7.1 C 7.49 g/m*3 7.1 C 0 km/h
1848 06-04-2014 04:50:00 7 C 7.44 g/m*3 7 C 0 km/h
1849 06-04-2014 04:55:00 7 C 7.44 g/m*3 7 C 0 km/h
1850 06-04-2014 05:00:00 6.9 C 7.39 g/m*3 6.9 C 0 km/h
Sensor: Nr:Datum:Temp:Abs-Feuchte:Windchill:Wind:
Aussen-T/F 1851 06-04-2014 05:05:00 7 C 7.44 g/m*3 7 C 0 km/h
1852 06-04-2014 05:10:00 7 C 7.44 g/m*3 7 C 0 km/h
1853 06-04-2014 05:15:00 6.9 C 7.39 g/m*3 6.9 C 0 km/h
1854 06-04-2014 05:20:00 6.8 C 7.34 g/m*3 6.8 C 0 km/h
1855 06-04-2014 05:25:00 6.9 C 7.39 g/m*3 6.9 C 0 km/h
1856 06-04-2014 05:30:00 6.9 C 7.39 g/m*3 6.9 C 0 km/h
1857 06-04-2014 05:35:00 6.9 C 7.39 g/m*3 6.9 C 0 km/h
1858 06-04-2014 05:40:00 7.1 C 7.57 g/m*3 7.1 C 0 km/h
1859 06-04-2014 05:45:00 7.2 C 7.54 g/m*3 7.2 C 0 km/h
1860 06-04-2014 05:50:00 7.2 C 7.54 g/m*3 7.2 C 0 km/h
1861 06-04-2014 05:55:00 7.3 C 7.66 g/m*3 7.3 C 0 km/h
1862 06-04-2014 06:00:00 7.3 C 7.66 g/m*3 7.3 C 0 km/h
1863 06-04-2014 06:05:00 7.3 C 7.58 g/m*3 7.3 C 1.6 km/h
1864 06-04-2014 06:10:00 7.3 C 7.58 g/m*3 7.3 C 3.2 km/h
1865 06-04-2014 06:15:00 7.3 C 7.58 g/m*3 7.3 C 0 km/h
1866 06-04-2014 06:20:00 7.3 C 7.66 g/m*3 7.3 C 1.6 km/h
1867 06-04-2014 06:25:00 7.2 C 7.54 g/m*3 7.2 C 0 km/h
1868 06-04-2014 06:30:00 7.2 C 7.61 g/m*3 7.2 C 3.2 km/h
1869 06-04-2014 06:35:00 7.1 C 7.57 g/m*3 7.1 C 4.8 km/h
1870 06-04-2014 06:40:00 7.1 C 7.57 g/m*3 7.1 C 0 km/h
1871 06-04-2014 06:45:00 7.1 C 7.57 g/m*3 7.1 C 0 km/h
1872 06-04-2014 06:50:00 7.1 C 7.57 g/m*3 7.1 C 0 km/h
1873 06-04-2014 06:55:00 7.1 C 7.57 g/m*3 7.1 C 0 km/h
1874 06-04-2014 07:00:00 7.1 C 7.57 g/m*3 7.1 C 1.6 km/h
1875 06-04-2014 07:05:00 7.1 C 7.57 g/m*3 7.1 C 0 km/h
Sensor: Nr:Datum:Temp:Abs-Feuchte:Windchill:Wind:
Aussen-T/F 1876 06-04-2014 07:10:00 7.1 C 7.57 g/m*3 7.1 C 1.6 km/h
1877 06-04-2014 07:15:00 7.1 C 7.57 g/m*3 7.1 C 1.6 km/h
1878 06-04-2014 07:20:00 7.2 C 7.61 g/m*3 7.2 C 0 km/h
1879 06-04-2014 07:25:00 7.2 C 7.61 g/m*3 7.2 C 0 km/h
1880 06-04-2014 07:30:00 7.3 C 7.66 g/m*3 7.3 C 3.2 km/h
1881 06-04-2014 07:35:00 7.3 C 7.66 g/m*3 7.3 C 0 km/h
1882 06-04-2014 07:40:00 7.3 C 7.66 g/m*3 7.3 C 0 km/h
1883 06-04-2014 07:45:00 7.3 C 7.66 g/m*3 7.3 C 0 km/h
1884 06-04-2014 07:50:00 7.3 C 7.66 g/m*3 7.3 C 0 km/h
1885 06-04-2014 07:55:00 7.3 C 7.66 g/m*3 7.3 C 0 km/h
1886 06-04-2014 08:00:00 7.4 C 7.71 g/m*3 7.4 C 0 km/h
1887 06-04-2014 08:05:00 7.4 C 7.71 g/m*3 7.4 C 0 km/h
1888 06-04-2014 08:10:00 7.4 C 7.71 g/m*3 7.4 C 0 km/h
1889 06-04-2014 08:15:00 7.5 C 7.76 g/m*3 7.5 C 0 km/h
1890 06-04-2014 08:20:00 7.6 C 7.81 g/m*3 7.6 C 0 km/h
1891 06-04-2014 08:25:00 7.8 C 7.92 g/m*3 7.8 C 0 km/h
1892 06-04-2014 08:30:00 7.9 C 7.97 g/m*3 7.9 C 0 km/h
1893 06-04-2014 08:35:00 8 C 8.02 g/m*3 8 C 0 km/h
1894 06-04-2014 08:40:00 7.9 C 7.97 g/m*3 7.9 C 0 km/h
1895 06-04-2014 08:45:00 7.9 C 7.97 g/m*3 7.9 C 0 km/h
1896 06-04-2014 08:50:00 7.9 C 7.97 g/m*3 7.9 C 0 km/h
1897 06-04-2014 08:55:00 7.9 C 7.97 g/m*3 7.9 C 0 km/h
1898 06-04-2014 09:00:00 7.9 C 7.97 g/m*3 7.9 C 0 km/h
1899 06-04-2014 09:05:00 7.9 C 7.97 g/m*3 7.9 C 1.6 km/h
1900 06-04-2014 09:10:00 7.9 C 7.97 g/m*3 7.9 C 1.6 km/h
Sensor: Nr:Datum:Temp:Abs-Feuchte:Windchill:Wind:
Aussen-T/F 1901 06-04-2014 09:15:00 8 C 8.02 g/m*3 8 C 0 km/h
1902 06-04-2014 09:20:00 8.1 C 8.07 g/m*3 8.1 C 0 km/h
1903 06-04-2014 09:25:00 8.1 C 8.07 g/m*3 8.1 C 0 km/h
1904 06-04-2014 09:30:00 8.2 C 8.12 g/m*3 8.2 C 0 km/h
1905 06-04-2014 09:35:00 8.2 C 8.12 g/m*3 8.2 C 0 km/h
1906 06-04-2014 09:40:00 8.3 C 8.18 g/m*3 8.3 C 0 km/h
1907 06-04-2014 09:45:00 8.4 C 8.23 g/m*3 8.4 C 1.6 km/h
1908 06-04-2014 09:50:00 8.6 C 8.34 g/m*3 8.6 C 0 km/h
1909 06-04-2014 09:55:00 8.7 C 8.39 g/m*3 8.7 C 3.2 km/h
1910 06-04-2014 10:00:00 8.8 C 8.44 g/m*3 8.8 C 1.6 km/h
1911 06-04-2014 10:05:00 9 C 8.55 g/m*3 9 C 0 km/h
1912 06-04-2014 10:10:00 9.2 C 8.66 g/m*3 9.2 C 0 km/h
1913 06-04-2014 10:15:00 9.4 C 8.77 g/m*3 9.4 C 1.6 km/h
1914 06-04-2014 10:20:00 9.6 C 8.89 g/m*3 9.6 C 3.2 km/h
1915 06-04-2014 10:25:00 9.9 C 9.06 g/m*3 9.9 C 4.8 km/h
1916 06-04-2014 10:30:00 10.2 C 9.14 g/m*3 10.2 C 3.2 km/h
1917 06-04-2014 10:35:00 10.6 C 9.17 g/m*3 10.6 C 3.2 km/h
1918 06-04-2014 10:40:00 11 C 9.21 g/m*3 11 C 3.2 km/h
1919 06-04-2014 10:45:00 11.3 C 9.28 g/m*3 11.3 C 3.2 km/h
1920 06-04-2014 10:50:00 11.7 C 9.2 g/m*3 11.7 C 6.4 km/h
1921 06-04-2014 10:55:00 12.1 C 9.12 g/m*3 12.1 C 4.8 km/h
1922 06-04-2014 11:00:00 12.6 C 9.18 g/m*3 12.6 C 6.4 km/h
1923 06-04-2014 11:05:00 12.9 C 9.13 g/m*3 12.9 C 4.8 km/h
1924 06-04-2014 11:10:00 13.3 C 9.13 g/m*3 13.3 C 8.1 km/h
1925 06-04-2014 11:15:00 13.7 C 9.24 g/m*3 13.7 C 11.3 km/h
Sensor: Nr:Datum:Temp:Abs-Feuchte:Windchill:Wind:
Aussen-T/F 1926 06-04-2014 11:20:00 14 C 9.05 g/m*3 14 C 11.3 km/h
1927 06-04-2014 11:25:00 14.2 C 9.04 g/m*3 14.2 C 9.7 km/h
1928 06-04-2014 11:30:00 14.3 C 9.09 g/m*3 14.3 C 9.7 km/h
1929 06-04-2014 11:35:00 14.3 C 9.09 g/m*3 14.3 C 11.3 km/h
1930 06-04-2014 11:55:00 15.6 C 8.91 g/m*3 15.6 C 16.1 km/h
1931 06-04-2014 12:00:00 15.9 C 8.94 g/m*3 15.9 C 14.5 km/h
1932 06-04-2014 12:05:00 16.1 C 8.77 g/m*3 16.1 C 14.5 km/h
1933 06-04-2014 12:10:00 16.2 C 8.83 g/m*3 16.2 C 14.5 km/h
1934 06-04-2014 12:15:00 16.2 C 8.83 g/m*3 16.2 C 8.1 km/h
1935 06-04-2014 12:20:00 16.2 C 8.69 g/m*3 16.2 C 12.9 km/h
1936 06-04-2014 12:25:00 16.3 C 8.74 g/m*3 16.3 C 14.5 km/h
1937 06-04-2014 12:30:00 16.4 C 8.65 g/m*3 16.4 C 11.3 km/h
1938 06-04-2014 12:35:00 16.7 C 8.53 g/m*3 16.7 C 14.5 km/h
1939 06-04-2014 12:40:00 16.8 C 8.58 g/m*3 16.8 C 12.9 km/h
1940 06-04-2014 12:45:00 16.9 C 8.77 g/m*3 16.9 C 19.3 km/h
1941 06-04-2014 12:50:00 17.1 C 8.73 g/m*3 17.1 C 19.3 km/h
1942 06-04-2014 12:55:00 17.3 C 8.84 g/m*3 17.3 C 11.3 km/h
1943 06-04-2014 13:00:00 17.6 C 8.85 g/m*3 17.6 C 12.9 km/h
1944 06-04-2014 13:05:00 17.7 C 9.2 g/m*3 17.7 C 12.9 km/h
1945 06-04-2014 13:10:00 17.7 C 9.2 g/m*3 17.7 C 14.5 km/h
1946 06-04-2014 13:30:00 18.7 C 8.97 g/m*3 18.7 C 12.9 km/h
1947 06-04-2014 13:35:00 18.7 C 8.65 g/m*3 18.7 C 9.7 km/h
1948 06-04-2014 13:40:00 18.9 C 9.07 g/m*3 18.9 C 12.9 km/h
1949 06-04-2014 13:45:00 19 C 9.13 g/m*3 19 C 12.9 km/h
1950 06-04-2014 13:50:00 19.2 C 9.23 g/m*3 19.2 C 8.1 km/h
Sensor: Nr:Datum:Temp:Abs-Feuchte:Windchill:Wind:
Aussen-T/F 1951 06-04-2014 13:55:00 19.3 C 9.45 g/m*3 19.3 C 4.8 km/h
1952 06-04-2014 14:00:00 19.7 C 9 g/m*3 19.7 C 11.3 km/h
1953 06-04-2014 14:05:00 19.6 C 8.78 g/m*3 19.6 C 8.1 km/h
1954 06-04-2014 14:10:00 19.4 C 9.01 g/m*3 19.4 C 14.5 km/h
1955 06-04-2014 14:15:00 19.3 C 8.96 g/m*3 19.3 C 12.9 km/h
1956 06-04-2014 14:20:00 19.1 C 9.02 g/m*3 19.1 C 9.7 km/h
1957 06-04-2014 14:25:00 19.3 C 8.96 g/m*3 19.3 C 20.9 km/h
1958 06-04-2014 14:30:00 19.5 C 9.06 g/m*3 19.5 C 12.9 km/h
1959 06-04-2014 14:35:00 19.5 C 9.06 g/m*3 19.5 C 11.3 km/h
1960 06-04-2014 14:40:00 19.5 C 9.06 g/m*3 19.5 C 11.3 km/h
1961 06-04-2014 14:45:00 19.5 C 9.06 g/m*3 19.5 C 17.7 km/h
1962 06-04-2014 15:25:00 19.3 C 9.12 g/m*3 19.3 C 11.3 km/h
1963 06-04-2014 15:30:00 19.3 C 9.12 g/m*3 19.3 C 11.3 km/h
1964 06-04-2014 15:35:00 19.2 C 8.9 g/m*3 19.2 C 11.3 km/h
1965 06-04-2014 15:40:00 19.1 C 9.02 g/m*3 19.1 C 11.3 km/h
1966 06-04-2014 15:45:00 18.9 C 9.07 g/m*3 18.9 C 11.3 km/h
1967 06-04-2014 15:50:00 18.9 C 9.07 g/m*3 18.9 C 9.7 km/h
1968 06-04-2014 15:55:00 18.9 C 9.07 g/m*3 18.9 C 12.9 km/h
1969 06-04-2014 16:00:00 18.9 C 9.07 g/m*3 18.9 C 14.5 km/h
1970 06-04-2014 17:20:00 18.3 C 9.07 g/m*3 18.3 C 12.9 km/h
1971 06-04-2014 17:25:00 18.3 C 9.07 g/m*3 18.3 C 9.7 km/h
1972 06-04-2014 17:30:00 18.3 C 9.07 g/m*3 18.3 C 6.4 km/h
1973 06-04-2014 17:35:00 18.3 C 9.07 g/m*3 18.3 C 8.1 km/h
1974 06-04-2014 17:40:00 18.3 C 9.07 g/m*3 18.3 C 14.5 km/h
1975 06-04-2014 19:30:00 16.6 C 9.46 g/m*3 16.6 C 8.1 km/h
Sensor: Nr:Datum:Temp:Abs-Feuchte:Windchill:Wind:
Aussen-T/F 1976 06-04-2014 19:35:00 16.6 C 9.46 g/m*3 16.6 C 1.6 km/h
1977 06-04-2014 19:40:00 16.6 C 9.46 g/m*3 16.6 C 3.2 km/h
1978 06-04-2014 19:45:00 16.4 C 9.63 g/m*3 16.4 C 3.2 km/h
1979 06-04-2014 19:50:00 16.4 C 9.63 g/m*3 16.4 C 1.6 km/h
1980 06-04-2014 19:55:00 16.1 C 9.18 g/m*3 16.1 C 3.2 km/h
1981 06-04-2014 20:00:00 16 C 9.54 g/m*3 16 C 4.8 km/h
1982 06-04-2014 20:05:00 15.7 C 9.37 g/m*3 15.7 C 3.2 km/h
1983 06-04-2014 20:10:00 15.3 C 9.27 g/m*3 15.3 C 3.2 km/h
1984 06-04-2014 20:15:00 15.1 C 9.29 g/m*3 15.1 C 3.2 km/h
1985 06-04-2014 20:20:00 14.9 C 9.18 g/m*3 14.9 C 3.2 km/h
1986 06-04-2014 20:25:00 14.8 C 9.25 g/m*3 14.8 C 3.2 km/h
1987 06-04-2014 20:30:00 14.7 C 9.32 g/m*3 14.7 C 4.8 km/h
1988 06-04-2014 20:35:00 14.6 C 9.26 g/m*3 14.6 C 3.2 km/h
1989 06-04-2014 20:40:00 14.6 C 9.26 g/m*3 14.6 C 3.2 km/h
1990 06-04-2014 20:45:00 14.5 C 9.2 g/m*3 14.5 C 3.2 km/h
1991 06-04-2014 20:50:00 14.4 C 9.15 g/m*3 14.4 C 1.6 km/h
1992 06-04-2014 20:55:00 14.2 C 9.28 g/m*3 14.2 C 4.8 km/h
1993 06-04-2014 21:00:00 14.1 C 9.1 g/m*3 14.1 C 3.2 km/h
1994 06-04-2014 21:05:00 14 C 9.17 g/m*3 14 C 3.2 km/h
1995 06-04-2014 21:10:00 13.8 C 9.17 g/m*3 13.8 C 4.8 km/h
1996 06-04-2014 21:15:00 13.7 C 9.12 g/m*3 13.7 C 3.2 km/h
1997 06-04-2014 21:20:00 13.6 C 9.18 g/m*3 13.6 C 3.2 km/h
1998 06-04-2014 21:25:00 13.7 C 9.24 g/m*3 13.7 C 3.2 km/h
1999 06-04-2014 21:30:00 13.7 C 9.24 g/m*3 13.7 C 3.2 km/h
2000 06-04-2014 21:35:00 13.8 C 9.29 g/m*3 13.8 C 1.6 km/h
Sensor: Nr:Datum:Temp:Abs-Feuchte:Windchill:Wind:
Aussen-T/F 2001 06-04-2014 21:40:00 13.8 C 9.41 g/m*3 13.8 C 0 km/h
2002 06-04-2014 21:45:00 13.9 C 9.35 g/m*3 13.9 C 0 km/h
2003 06-04-2014 21:50:00 13.9 C 9.35 g/m*3 13.9 C 0 km/h
2004 06-04-2014 21:55:00 13.9 C 9.35 g/m*3 13.9 C 1.6 km/h
2005 06-04-2014 22:00:00 13.9 C 9.35 g/m*3 13.9 C 1.6 km/h
2006 06-04-2014 22:05:00 13.8 C 9.41 g/m*3 13.8 C 1.6 km/h
2007 06-04-2014 22:10:00 13.7 C 9.24 g/m*3 13.7 C 1.6 km/h
2008 06-04-2014 22:15:00 13.7 C 9.35 g/m*3 13.7 C 1.6 km/h
2009 06-04-2014 22:20:00 13.7 C 9.35 g/m*3 13.7 C 3.2 km/h
2010 06-04-2014 22:25:00 13.7 C 9.35 g/m*3 13.7 C 1.6 km/h
2011 06-04-2014 22:30:00 13.8 C 9.29 g/m*3 13.8 C 3.2 km/h
2012 06-04-2014 22:35:00 13.8 C 9.41 g/m*3 13.8 C 3.2 km/h
2013 06-04-2014 22:40:00 14 C 9.41 g/m*3 14 C 3.2 km/h
2014 06-04-2014 22:45:00 14.2 C 9.4 g/m*3 14.2 C 3.2 km/h
2015 06-04-2014 22:50:00 14.2 C 9.4 g/m*3 14.2 C 4.8 km/h
2016 06-04-2014 22:55:00 14.3 C 9.46 g/m*3 14.3 C 3.2 km/h
2017 06-04-2014 23:00:00 14.3 C 9.34 g/m*3 14.3 C 4.8 km/h
2018 06-04-2014 23:05:00 14.2 C 9.28 g/m*3 14.2 C 1.6 km/h
2019 06-04-2014 23:10:00 14.1 C 9.34 g/m*3 14.1 C 1.6 km/h
2020 06-04-2014 23:15:00 13.9 C 9.23 g/m*3 13.9 C 3.2 km/h
2021 06-04-2014 23:20:00 13.9 C 9.35 g/m*3 13.9 C 3.2 km/h
2022 06-04-2014 23:25:00 13.8 C 9.29 g/m*3 13.8 C 3.2 km/h
2023 06-04-2014 23:30:00 13.7 C 9.35 g/m*3 13.7 C 1.6 km/h
2024 06-04-2014 23:35:00 13.7 C 9.24 g/m*3 13.7 C 1.6 km/h
2025 06-04-2014 23:40:00 13.8 C 9.17 g/m*3 13.8 C 3.2 km/h
Sensor: Nr:Datum:Temp:Abs-Feuchte:Windchill:Wind:
Aussen-T/F 2026 06-04-2014 23:45:00 14.1 C 9.34 g/m*3 14.1 C 1.6 km/h
2027 06-04-2014 23:50:00 14.2 C 9.52 g/m*3 14.2 C 1.6 km/h
2028 06-04-2014 23:55:00 14.2 C 9.4 g/m*3 14.2 C 1.6 km/h
2029 07-04-2014 00:00:00 14.2 C 9.28 g/m*3 14.2 C 0 km/h
2030 07-04-2014 00:05:00 14.2 C 9.52 g/m*3 14.2 C 1.6 km/h
2031 07-04-2014 00:10:00 14.2 C 9.52 g/m*3 14.2 C 0 km/h
2032 07-04-2014 00:15:00 14.1 C 9.47 g/m*3 14.1 C 3.2 km/h
2033 07-04-2014 00:20:00 14 C 9.29 g/m*3 14 C 6.4 km/h
2034 07-04-2014 00:25:00 13.9 C 9.23 g/m*3 13.9 C 6.4 km/h
2035 07-04-2014 00:30:00 13.9 C 9.23 g/m*3 13.9 C 3.2 km/h
2036 07-04-2014 00:35:00 13.9 C 9.23 g/m*3 13.9 C 1.6 km/h
2037 07-04-2014 00:40:00 13.8 C 9.29 g/m*3 13.8 C 0 km/h
2038 07-04-2014 00:45:00 13.6 C 9.18 g/m*3 13.6 C 0 km/h
2039 07-04-2014 00:50:00 13.4 C 9.3 g/m*3 13.4 C 0 km/h
2040 07-04-2014 00:55:00 13.3 C 9.24 g/m*3 13.3 C 0 km/h
2041 07-04-2014 01:00:00 13.3 C 9.36 g/m*3 13.3 C 0 km/h
2042 07-04-2014 01:05:00 13.3 C 9.36 g/m*3 13.3 C 0 km/h
2043 07-04-2014 01:10:00 13.2 C 9.3 g/m*3 13.2 C 0 km/h
2044 07-04-2014 01:15:00 13.2 C 9.42 g/m*3 13.2 C 0 km/h
2045 07-04-2014 01:20:00 13.2 C 9.42 g/m*3 13.2 C 0 km/h
2046 07-04-2014 01:25:00 13.2 C 9.3 g/m*3 13.2 C 0 km/h
2047 07-04-2014 01:30:00 13.2 C 9.3 g/m*3 13.2 C 0 km/h
2048 07-04-2014 01:35:00 13.2 C 9.42 g/m*3 13.2 C 1.6 km/h
2049 07-04-2014 01:40:00 13.2 C 9.42 g/m*3 13.2 C 0 km/h
2050 07-04-2014 01:45:00 13.2 C 9.42 g/m*3 13.2 C 0 km/h
Sensor: Nr:Datum:Temp:Abs-Feuchte:Windchill:Wind:
Aussen-T/F 2051 07-04-2014 01:50:00 13.2 C 9.42 g/m*3 13.2 C 1.6 km/h
2052 07-04-2014 01:55:00 13.2 C 9.3 g/m*3 13.2 C 0 km/h
2053 07-04-2014 02:00:00 13.2 C 9.42 g/m*3 13.2 C 0 km/h
2054 07-04-2014 02:05:00 13.1 C 9.47 g/m*3 13.1 C 3.2 km/h
2055 07-04-2014 02:10:00 13.1 C 9.47 g/m*3 13.1 C 3.2 km/h
2056 07-04-2014 02:15:00 13.1 C 9.47 g/m*3 13.1 C 0 km/h
2057 07-04-2014 02:20:00 13.1 C 9.47 g/m*3 13.1 C 0 km/h
2058 07-04-2014 02:25:00 13.1 C 9.36 g/m*3 13.1 C 0 km/h
2059 07-04-2014 02:30:00 13.1 C 9.47 g/m*3 13.1 C 0 km/h
2060 07-04-2014 02:35:00 13 C 9.41 g/m*3 13 C 0 km/h
2061 07-04-2014 02:40:00 12.9 C 9.47 g/m*3 12.9 C 0 km/h
2062 07-04-2014 02:45:00 12.8 C 9.41 g/m*3 12.8 C 0 km/h
2063 07-04-2014 02:50:00 12.7 C 9.46 g/m*3 12.7 C 0 km/h
2064 07-04-2014 02:55:00 12.7 C 9.35 g/m*3 12.7 C 0 km/h
2065 07-04-2014 03:00:00 12.7 C 9.35 g/m*3 12.7 C 0 km/h
2066 07-04-2014 03:05:00 12.7 C 9.46 g/m*3 12.7 C 0 km/h
2067 07-04-2014 03:10:00 12.7 C 9.46 g/m*3 12.7 C 0 km/h
2068 07-04-2014 03:15:00 12.7 C 9.35 g/m*3 12.7 C 0 km/h
2069 07-04-2014 03:20:00 12.7 C 9.35 g/m*3 12.7 C 0 km/h
2070 07-04-2014 03:25:00 12.7 C 9.46 g/m*3 12.7 C 0 km/h
2071 07-04-2014 03:30:00 12.7 C 9.46 g/m*3 12.7 C 0 km/h
2072 07-04-2014 03:35:00 12.7 C 9.46 g/m*3 12.7 C 0 km/h
2073 07-04-2014 03:40:00 12.7 C 9.46 g/m*3 12.7 C 0 km/h
2074 07-04-2014 03:45:00 12.6 C 9.4 g/m*3 12.6 C 0 km/h
2075 07-04-2014 03:50:00 12.6 C 9.4 g/m*3 12.6 C 0 km/h
Sensor: Nr:Datum:Temp:Abs-Feuchte:Windchill:Wind:
Aussen-T/F 2076 07-04-2014 03:55:00 12.6 C 9.4 g/m*3 12.6 C 0 km/h
2077 07-04-2014 04:00:00 12.6 C 9.4 g/m*3 12.6 C 0 km/h
2078 07-04-2014 04:05:00 12.6 C 9.4 g/m*3 12.6 C 0 km/h
2079 07-04-2014 04:10:00 12.6 C 9.4 g/m*3 12.6 C 1.6 km/h
2080 07-04-2014 04:15:00 12.6 C 9.51 g/m*3 12.6 C 0 km/h
2081 07-04-2014 04:20:00 12.6 C 9.51 g/m*3 12.6 C 0 km/h
2082 07-04-2014 04:25:00 12.5 C 9.46 g/m*3 12.5 C 0 km/h
2083 07-04-2014 04:30:00 12.5 C 9.46 g/m*3 12.5 C 0 km/h
2084 07-04-2014 04:35:00 12.4 C 9.4 g/m*3 12.4 C 0 km/h
2085 07-04-2014 04:40:00 12.4 C 9.4 g/m*3 12.4 C 0 km/h
2086 07-04-2014 04:45:00 12.4 C 9.4 g/m*3 12.4 C 0 km/h
2087 07-04-2014 04:50:00 12.4 C 9.4 g/m*3 12.4 C 0 km/h
2088 07-04-2014 04:55:00 12.4 C 9.4 g/m*3 12.4 C 0 km/h
2089 07-04-2014 05:00:00 12.4 C 9.4 g/m*3 12.4 C 1.6 km/h
2090 07-04-2014 05:05:00 12.4 C 9.4 g/m*3 12.4 C 0 km/h
2091 07-04-2014 05:10:00 12.4 C 9.4 g/m*3 12.4 C 1.6 km/h
2092 07-04-2014 05:15:00 12.4 C 9.4 g/m*3 12.4 C 0 km/h
2093 07-04-2014 05:20:00 12.4 C 9.4 g/m*3 12.4 C 0 km/h
2094 07-04-2014 05:25:00 12.4 C 9.4 g/m*3 12.4 C 0 km/h
2095 07-04-2014 05:30:00 12.4 C 9.4 g/m*3 12.4 C 0 km/h
2096 07-04-2014 05:35:00 12.4 C 9.51 g/m*3 12.4 C 0 km/h
2097 07-04-2014 05:40:00 12.4 C 9.51 g/m*3 12.4 C 3.2 km/h
2098 07-04-2014 05:45:00 12.4 C 9.51 g/m*3 12.4 C 1.6 km/h
2099 07-04-2014 05:50:00 12.4 C 9.51 g/m*3 12.4 C 1.6 km/h
2100 07-04-2014 05:55:00 12.4 C 9.51 g/m*3 12.4 C 0 km/h
Sensor: Nr:Datum:Temp:Abs-Feuchte:Windchill:Wind:
Aussen-T/F 2101 07-04-2014 06:00:00 12.4 C 9.51 g/m*3 12.4 C 0 km/h
2102 07-04-2014 06:05:00 12.4 C 9.51 g/m*3 12.4 C 0 km/h
2103 07-04-2014 06:10:00 12.4 C 9.51 g/m*3 12.4 C 0 km/h
2104 07-04-2014 06:15:00 12.4 C 9.62 g/m*3 12.4 C 0 km/h
2105 07-04-2014 06:20:00 12.4 C 9.62 g/m*3 12.4 C 1.6 km/h
2106 07-04-2014 06:25:00 12.4 C 9.62 g/m*3 12.4 C 0 km/h
2107 07-04-2014 06:30:00 12.4 C 9.62 g/m*3 12.4 C 0 km/h
2108 07-04-2014 06:35:00 12.4 C 9.51 g/m*3 12.4 C 0 km/h
2109 07-04-2014 06:40:00 12.4 C 9.51 g/m*3 12.4 C 0 km/h
2110 07-04-2014 06:45:00 12.4 C 9.62 g/m*3 12.4 C 0 km/h
2111 07-04-2014 06:50:00 12.3 C 9.56 g/m*3 12.3 C 0 km/h
2112 07-04-2014 06:55:00 12.3 C 9.56 g/m*3 12.3 C 0 km/h
2113 07-04-2014 07:00:00 12.3 C 9.56 g/m*3 12.3 C 0 km/h
2114 07-04-2014 07:05:00 12.3 C 9.56 g/m*3 12.3 C 0 km/h
2115 07-04-2014 07:10:00 12.3 C 9.56 g/m*3 12.3 C 0 km/h
2116 07-04-2014 07:45:00 12.2 C 9.6 g/m*3 12.2 C 0 km/h
2117 07-04-2014 07:50:00 12.2 C 9.6 g/m*3 12.2 C 0 km/h
2118 07-04-2014 07:55:00 12.3 C 9.66 g/m*3 12.3 C 3.2 km/h
2119 07-04-2014 08:00:00 12.4 C 9.83 g/m*3 12.4 C 0 km/h
2120 07-04-2014 08:05:00 12.4 C 9.72 g/m*3 12.4 C 0 km/h
2121 07-04-2014 08:10:00 12.6 C 9.85 g/m*3 12.6 C 0 km/h
2122 07-04-2014 08:15:00 12.7 C 9.8 g/m*3 12.7 C 0 km/h
2123 07-04-2014 08:20:00 12.8 C 9.86 g/m*3 12.8 C 1.6 km/h
2124 07-04-2014 08:25:00 12.9 C 9.81 g/m*3 12.9 C 0 km/h
2125 07-04-2014 08:30:00 13.1 C 9.93 g/m*3 13.1 C 0 km/h
Sensor: Nr:Datum:Temp:Abs-Feuchte:Windchill:Wind:
Aussen-T/F 2126 07-04-2014 08:35:00 13.2 C 9.87 g/m*3 13.2 C 4.8 km/h
2127 07-04-2014 08:40:00 13.3 C 9.94 g/m*3 13.3 C 1.6 km/h
2128 07-04-2014 08:45:00 13.3 C 9.94 g/m*3 13.3 C 3.2 km/h
2129 07-04-2014 08:50:00 13.3 C 9.82 g/m*3 13.3 C 6.4 km/h
2130 07-04-2014 08:55:00 13.4 C 9.88 g/m*3 13.4 C 1.6 km/h
2131 07-04-2014 09:00:00 13.4 C 10 g/m*3 13.4 C 1.6 km/h
2132 07-04-2014 09:05:00 13.4 C 9.88 g/m*3 13.4 C 3.2 km/h
2133 07-04-2014 09:10:00 13.5 C 9.94 g/m*3 13.5 C 4.8 km/h
2134 07-04-2014 09:15:00 13.6 C 10.12 g/m*3 13.6 C 1.6 km/h
2135 07-04-2014 09:20:00 13.8 C 10.25 g/m*3 13.8 C 0 km/h
2136 07-04-2014 09:25:00 13.9 C 10.31 g/m*3 13.9 C 0 km/h
2137 07-04-2014 09:30:00 14.1 C 10.44 g/m*3 14.1 C 0 km/h
2138 07-04-2014 09:35:00 14.3 C 10.57 g/m*3 14.3 C 3.2 km/h
2139 07-04-2014 09:40:00 14.7 C 10.58 g/m*3 14.7 C 4.8 km/h
2140 07-04-2014 09:45:00 14.9 C 10.58 g/m*3 14.9 C 4.8 km/h
2141 07-04-2014 09:50:00 15.1 C 10.58 g/m*3 15.1 C 8.1 km/h
2142 07-04-2014 09:55:00 15.2 C 10.64 g/m*3 15.2 C 8.1 km/h
2143 07-04-2014 10:00:00 15.3 C 10.58 g/m*3 15.3 C 6.4 km/h
2144 07-04-2014 10:05:00 15.5 C 10.71 g/m*3 15.5 C 4.8 km/h
2145 07-04-2014 10:10:00 15.7 C 10.84 g/m*3 15.7 C 9.7 km/h
2146 07-04-2014 10:15:00 15.8 C 10.77 g/m*3 15.8 C 8.1 km/h
2147 07-04-2014 10:20:00 15.9 C 10.83 g/m*3 15.9 C 8.1 km/h
2148 07-04-2014 10:25:00 16.1 C 10.97 g/m*3 16.1 C 6.4 km/h
2149 07-04-2014 10:30:00 16.2 C 11.03 g/m*3 16.2 C 8.1 km/h
2150 07-04-2014 10:35:00 16.3 C 11.1 g/m*3 16.3 C 11.3 km/h
Sensor: Nr:Datum:Temp:Abs-Feuchte:Windchill:Wind:
Aussen-T/F 2151 07-04-2014 10:40:00 16.5 C 11.23 g/m*3 16.5 C 11.3 km/h
2152 07-04-2014 10:45:00 16.8 C 11.15 g/m*3 16.8 C 11.3 km/h
2153 07-04-2014 10:50:00 17 C 11.29 g/m*3 17 C 14.5 km/h
2154 07-04-2014 10:55:00 17.2 C 11.28 g/m*3 17.2 C 12.9 km/h
2155 07-04-2014 11:00:00 17.3 C 11.34 g/m*3 17.3 C 12.9 km/h
2156 07-04-2014 11:05:00 17.4 C 11.41 g/m*3 17.4 C 11.3 km/h
2157 07-04-2014 11:10:00 17.7 C 11.47 g/m*3 17.7 C 9.7 km/h
2158 07-04-2014 11:15:00 17.8 C 11.38 g/m*3 17.8 C 9.7 km/h
2159 07-04-2014 11:20:00 17.8 C 11.38 g/m*3 17.8 C 11.3 km/h
2160 07-04-2014 11:25:00 17.9 C 11.45 g/m*3 17.9 C 8.1 km/h
2161 07-04-2014 11:30:00 17.9 C 11.3 g/m*3 17.9 C 9.7 km/h
2162 07-04-2014 11:35:00 17.9 C 11.3 g/m*3 17.9 C 8.1 km/h
2163 07-04-2014 11:40:00 17.8 C 11.38 g/m*3 17.8 C 6.4 km/h
2164 07-04-2014 11:45:00 17.8 C 11.38 g/m*3 17.8 C 4.8 km/h
2165 07-04-2014 11:50:00 18 C 11.52 g/m*3 18 C 9.7 km/h
2166 07-04-2014 11:55:00 18.3 C 11.57 g/m*3 18.3 C 8.1 km/h
2167 07-04-2014 12:00:00 18.4 C 11.48 g/m*3 18.4 C 11.3 km/h
2168 07-04-2014 12:05:00 18.6 C 11.62 g/m*3 18.6 C 8.1 km/h
2169 07-04-2014 12:10:00 18.8 C 11.6 g/m*3 18.8 C 11.3 km/h
2170 07-04-2014 12:15:00 19.1 C 11.64 g/m*3 19.1 C 11.3 km/h
2171 07-04-2014 12:20:00 19.3 C 11.61 g/m*3 19.3 C 11.3 km/h
2172 07-04-2014 12:25:00 19.7 C 11.72 g/m*3 19.7 C 9.7 km/h
2173 07-04-2014 12:30:00 19.9 C 11.51 g/m*3 19.9 C 8.1 km/h
2174 07-04-2014 12:35:00 20 C 11.41 g/m*3 20 C 4.8 km/h
2175 07-04-2014 12:40:00 20 C 11.23 g/m*3 20 C 6.4 km/h
Sensor: Nr:Datum:Temp:Abs-Feuchte:Windchill:Wind:
Aussen-T/F 2176 07-04-2014 12:45:00 20.2 C 11.02 g/m*3 20.2 C 8.1 km/h
2177 07-04-2014 12:50:00 20.1 C 11.13 g/m*3 20.1 C 9.7 km/h
2178 07-04-2014 12:55:00 20.1 C 11.3 g/m*3 20.1 C 6.4 km/h
2179 07-04-2014 13:00:00 20.3 C 11.61 g/m*3 20.3 C 6.4 km/h
2180 07-04-2014 13:05:00 20.5 C 11.03 g/m*3 20.5 C 8.1 km/h
2181 07-04-2014 13:10:00 20.4 C 10.97 g/m*3 20.4 C 9.7 km/h
2182 07-04-2014 13:15:00 20.3 C 11.08 g/m*3 20.3 C 8.1 km/h
2183 07-04-2014 13:20:00 20.3 C 11.26 g/m*3 20.3 C 6.4 km/h
2184 07-04-2014 13:25:00 20.3 C 10.9 g/m*3 20.3 C 8.1 km/h
2185 07-04-2014 13:30:00 20.3 C 11.26 g/m*3 20.3 C 3.2 km/h
2186 07-04-2014 13:35:00 20.4 C 10.97 g/m*3 20.4 C 8.1 km/h
2187 07-04-2014 13:40:00 20.6 C 11.28 g/m*3 20.6 C 1.6 km/h
2188 07-04-2014 13:45:00 20.9 C 11.11 g/m*3 20.9 C 9.7 km/h
2189 07-04-2014 13:50:00 21 C 11.17 g/m*3 21 C 6.4 km/h
2190 07-04-2014 13:55:00 20.9 C 10.75 g/m*3 20.9 C 9.7 km/h
2191 07-04-2014 14:00:00 20.9 C 11.11 g/m*3 20.9 C 4.8 km/h
2192 07-04-2014 14:05:00 21.1 C 11.42 g/m*3 21.1 C 9.7 km/h
2193 07-04-2014 14:10:00 21.3 C 11.74 g/m*3 21.3 C 4.8 km/h
2194 07-04-2014 14:15:00 21.3 C 11.18 g/m*3 21.3 C 8.1 km/h
2195 07-04-2014 14:20:00 21.3 C 11.74 g/m*3 21.3 C 11.3 km/h
2196 07-04-2014 14:25:00 21.2 C 11.12 g/m*3 21.2 C 8.1 km/h
2197 07-04-2014 14:30:00 21.1 C 11.24 g/m*3 21.1 C 8.1 km/h
2198 07-04-2014 14:35:00 21.2 C 11.3 g/m*3 21.2 C 4.8 km/h
2199 07-04-2014 14:40:00 21.3 C 11.37 g/m*3 21.3 C 6.4 km/h
2200 07-04-2014 14:45:00 21.4 C 11.44 g/m*3 21.4 C 6.4 km/h
Sensor: Nr:Datum:Temp:Abs-Feuchte:Windchill:Wind:
Aussen-T/F 2201 07-04-2014 14:50:00 21.2 C 11.3 g/m*3 21.2 C 11.3 km/h
2202 07-04-2014 14:55:00 21.2 C 10.56 g/m*3 21.2 C 11.3 km/h
2203 07-04-2014 15:00:00 21.1 C 10.87 g/m*3 21.1 C 4.8 km/h
2204 07-04-2014 15:05:00 21.1 C 10.87 g/m*3 21.1 C 6.4 km/h
2205 07-04-2014 15:10:00 21.2 C 10.93 g/m*3 21.2 C 3.2 km/h
2206 07-04-2014 15:15:00 21.3 C 11 g/m*3 21.3 C 4.8 km/h
2207 07-04-2014 15:20:00 21.6 C 11 g/m*3 21.6 C 12.9 km/h
2208 07-04-2014 15:25:00 21.6 C 10.62 g/m*3 21.6 C 9.7 km/h
2209 07-04-2014 15:30:00 21.6 C 10.81 g/m*3 21.6 C 8.1 km/h
2210 07-04-2014 15:35:00 21.4 C 10.5 g/m*3 21.4 C 8.1 km/h
2211 07-04-2014 15:40:00 21.6 C 10.81 g/m*3 21.6 C 8.1 km/h
2212 07-04-2014 15:45:00 21.9 C 10.61 g/m*3 21.9 C 11.3 km/h
2213 07-04-2014 15:50:00 22 C 10.29 g/m*3 22 C 4.8 km/h
2214 07-04-2014 15:55:00 22.1 C 10.15 g/m*3 22.1 C 8.1 km/h
2215 07-04-2014 16:00:00 22.1 C 10.15 g/m*3 22.1 C 6.4 km/h
2216 07-04-2014 16:05:00 22.2 C 9.82 g/m*3 22.2 C 9.7 km/h
2217 07-04-2014 16:10:00 22.2 C 9.82 g/m*3 22.2 C 8.1 km/h
2218 07-04-2014 18:00:00 23.5 C 21.15 g/m*3 23.5 C 9.7 km/h
2219 07-04-2014 18:05:00 23.5 C 21.15 g/m*3 23.5 C 8.1 km/h
2220 07-04-2014 18:10:00 23.3 C 20.91 g/m*3 23.3 C 6.4 km/h
2221 07-04-2014 18:15:00 23.3 C 20.91 g/m*3 23.3 C 3.2 km/h
2222 07-04-2014 18:20:00 23.3 C 10.04 g/m*3 23.3 C 8.1 km/h
2223 07-04-2014 18:25:00 23.3 C 10.04 g/m*3 23.3 C 4.8 km/h
2224 07-04-2014 19:40:00 18.2 C 10.26 g/m*3 18.2 C 3.2 km/h
2225 07-04-2014 19:45:00 18 C 9.98 g/m*3 18 C 4.8 km/h
Sensor: Nr:Datum:Temp:Abs-Feuchte:Windchill:Wind:
Aussen-T/F 2226 07-04-2014 19:50:00 17.8 C 10.17 g/m*3 17.8 C 4.8 km/h
2227 07-04-2014 19:55:00 17.6 C 9.75 g/m*3 17.6 C 4.8 km/h
2228 07-04-2014 20:00:00 17.4 C 9.63 g/m*3 17.4 C 3.2 km/h
2229 07-04-2014 20:05:00 17.3 C 9.43 g/m*3 17.3 C 3.2 km/h
2230 07-04-2014 20:10:00 17.1 C 9.46 g/m*3 17.1 C 4.8 km/h
2231 07-04-2014 20:15:00 16.9 C 9.35 g/m*3 16.9 C 3.2 km/h
2232 07-04-2014 20:20:00 16.8 C 9.29 g/m*3 16.8 C 6.4 km/h
2233 07-04-2014 20:25:00 16.7 C 9.24 g/m*3 16.7 C 4.8 km/h
2234 07-04-2014 20:30:00 16.7 C 9.38 g/m*3 16.7 C 4.8 km/h
2235 07-04-2014 20:35:00 16.6 C 9.18 g/m*3 16.6 C 4.8 km/h
2236 07-04-2014 20:40:00 16.6 C 9.32 g/m*3 16.6 C 4.8 km/h
2237 07-04-2014 20:45:00 16.6 C 9.32 g/m*3 16.6 C 4.8 km/h
2238 07-04-2014 21:05:00 16.4 C 13.96 g/m*3 16.4 C 4.8 km/h
2239 07-04-2014 21:10:00 16.3 C 9.16 g/m*3 16.3 C 3.2 km/h
2240 07-04-2014 21:15:00 16.3 C 9.3 g/m*3 16.3 C 4.8 km/h
2241 07-04-2014 21:20:00 16.3 C 9.3 g/m*3 16.3 C 3.2 km/h
2242 07-04-2014 21:25:00 16.2 C 9.24 g/m*3 16.2 C 4.8 km/h
2243 07-04-2014 21:30:00 16.2 C 9.1 g/m*3 16.2 C 6.4 km/h
2244 07-04-2014 21:35:00 16.2 C 9.24 g/m*3 16.2 C 3.2 km/h
2245 07-04-2014 21:40:00 16.1 C 9.18 g/m*3 16.1 C 4.8 km/h
2246 07-04-2014 21:45:00 16.1 C 9.05 g/m*3 16.1 C 1.6 km/h
2247 07-04-2014 21:50:00 16.1 C 9.18 g/m*3 16.1 C 3.2 km/h
2248 07-04-2014 21:55:00 16.1 C 9.18 g/m*3 16.1 C 4.8 km/h
2249 07-04-2014 22:00:00 16.1 C 9.05 g/m*3 16.1 C 3.2 km/h
2250 07-04-2014 22:05:00 16.1 C 9.05 g/m*3 16.1 C 4.8 km/h
Sensor: Nr:Datum:Temp:Abs-Feuchte:Windchill:Wind:
Aussen-T/F 2251 07-04-2014 22:10:00 16 C 9.13 g/m*3 16 C 3.2 km/h
2252 07-04-2014 22:15:00 16 C 8.99 g/m*3 16 C 1.6 km/h
2253 07-04-2014 22:20:00 16 C 8.86 g/m*3 16 C 3.2 km/h
2254 07-04-2014 22:25:00 15.9 C 9.07 g/m*3 15.9 C 4.8 km/h
2255 07-04-2014 22:30:00 16.1 C 9.18 g/m*3 16.1 C 4.8 km/h
2256 07-04-2014 22:35:00 16 C 9.13 g/m*3 16 C 4.8 km/h
2257 07-04-2014 22:40:00 16.1 C 9.32 g/m*3 16.1 C 3.2 km/h
2258 07-04-2014 22:45:00 16.1 C 9.18 g/m*3 16.1 C 1.6 km/h
2259 07-04-2014 22:50:00 16 C 9.26 g/m*3 16 C 3.2 km/h
2260 07-04-2014 22:55:00 16 C 9.26 g/m*3 16 C 0 km/h
2261 07-04-2014 23:00:00 16.1 C 9.18 g/m*3 16.1 C 3.2 km/h
2262 07-04-2014 23:05:00 16.1 C 9.18 g/m*3 16.1 C 1.6 km/h
2263 07-04-2014 23:10:00 16.1 C 9.18 g/m*3 16.1 C 3.2 km/h
2264 07-04-2014 23:15:00 16.3 C 9.02 g/m*3 16.3 C 4.8 km/h
2265 07-04-2014 23:20:00 16.3 C 9.3 g/m*3 16.3 C 8.1 km/h
2266 07-04-2014 23:25:00 16.3 C 9.3 g/m*3 16.3 C 3.2 km/h
2267 07-04-2014 23:30:00 16.2 C 9.38 g/m*3 16.2 C 3.2 km/h
2268 07-04-2014 23:35:00 16.2 C 9.38 g/m*3 16.2 C 1.6 km/h
2269 07-04-2014 23:40:00 16.1 C 9.32 g/m*3 16.1 C 3.2 km/h
2270 07-04-2014 23:45:00 16.1 C 9.18 g/m*3 16.1 C 1.6 km/h
2271 07-04-2014 23:50:00 15.9 C 9.34 g/m*3 15.9 C 3.2 km/h
2272 07-04-2014 23:55:00 15.8 C 9.15 g/m*3 15.8 C 4.8 km/h
2273 08-04-2014 00:00:00 15.7 C 9.23 g/m*3 15.7 C 3.2 km/h
2274 08-04-2014 00:05:00 15.7 C 9.23 g/m*3 15.7 C 3.2 km/h
2275 08-04-2014 00:10:00 15.7 C 9.37 g/m*3 15.7 C 4.8 km/h
Sensor: Nr:Datum:Temp:Abs-Feuchte:Windchill:Wind:
Aussen-T/F 2276 08-04-2014 00:15:00 15.6 C 9.31 g/m*3 15.6 C 4.8 km/h
2277 08-04-2014 00:20:00 15.6 C 9.31 g/m*3 15.6 C 4.8 km/h
2278 08-04-2014 00:25:00 15.4 C 9.33 g/m*3 15.4 C 4.8 km/h
2279 08-04-2014 00:30:00 15.3 C 9.4 g/m*3 15.3 C 1.6 km/h
2280 08-04-2014 00:35:00 15.3 C 9.27 g/m*3 15.3 C 3.2 km/h
2281 08-04-2014 00:40:00 15.3 C 9.4 g/m*3 15.3 C 3.2 km/h
2282 08-04-2014 00:45:00 15.3 C 9.4 g/m*3 15.3 C 4.8 km/h
2283 08-04-2014 00:50:00 15.4 C 9.59 g/m*3 15.4 C 3.2 km/h
2284 08-04-2014 00:55:00 15.5 C 9.65 g/m*3 15.5 C 3.2 km/h
2285 08-04-2014 01:00:00 15.6 C 9.71 g/m*3 15.6 C 1.6 km/h
2286 08-04-2014 01:05:00 15.6 C 9.71 g/m*3 15.6 C 3.2 km/h
2287 08-04-2014 01:10:00 15.6 C 9.97 g/m*3 15.6 C 1.6 km/h
2288 08-04-2014 01:15:00 15.6 C 9.84 g/m*3 15.6 C 3.2 km/h
2289 08-04-2014 01:20:00 15.6 C 9.84 g/m*3 15.6 C 1.6 km/h
2290 08-04-2014 01:25:00 15.6 C 9.97 g/m*3 15.6 C 0 km/h
2291 08-04-2014 01:30:00 15.6 C 9.97 g/m*3 15.6 C 4.8 km/h
2292 08-04-2014 01:35:00 15.6 C 9.84 g/m*3 15.6 C 3.2 km/h
2293 08-04-2014 01:40:00 15.6 C 9.97 g/m*3 15.6 C 0 km/h
2294 08-04-2014 01:45:00 15.6 C 9.97 g/m*3 15.6 C 1.6 km/h
2295 08-04-2014 01:50:00 15.5 C 9.78 g/m*3 15.5 C 0 km/h
2296 08-04-2014 01:55:00 15.6 C 9.84 g/m*3 15.6 C 1.6 km/h
2297 08-04-2014 02:00:00 15.7 C 10.03 g/m*3 15.7 C 3.2 km/h
2298 08-04-2014 02:05:00 15.6 C 9.84 g/m*3 15.6 C 1.6 km/h
2299 08-04-2014 02:10:00 15.5 C 9.91 g/m*3 15.5 C 1.6 km/h
2300 08-04-2014 02:15:00 15.4 C 9.99 g/m*3 15.4 C 1.6 km/h
Sensor: Nr:Datum:Temp:Abs-Feuchte:Windchill:Wind:
Aussen-T/F 2301 08-04-2014 02:20:00 15.4 C 9.72 g/m*3 15.4 C 8.1 km/h
2302 08-04-2014 02:25:00 15.7 C 9.63 g/m*3 15.7 C 8.1 km/h
2303 08-04-2014 02:30:00 16 C 10.08 g/m*3 16 C 4.8 km/h
2304 08-04-2014 02:35:00 16.6 C 9.75 g/m*3 16.6 C 12.9 km/h
2305 08-04-2014 02:40:00 16.8 C 9.72 g/m*3 16.8 C 3.2 km/h
2306 08-04-2014 02:45:00 16.7 C 9.66 g/m*3 16.7 C 3.2 km/h
2307 08-04-2014 02:50:00 16.6 C 9.75 g/m*3 16.6 C 3.2 km/h
2308 08-04-2014 02:55:00 16.3 C 9.99 g/m*3 16.3 C 4.8 km/h
2309 08-04-2014 03:00:00 16.2 C 9.52 g/m*3 16.2 C 8.1 km/h
2310 08-04-2014 03:05:00 16.2 C 9.52 g/m*3 16.2 C 4.8 km/h
2311 08-04-2014 03:10:00 16.1 C 9.87 g/m*3 16.1 C 3.2 km/h
2312 08-04-2014 03:15:00 15.7 C 9.9 g/m*3 15.7 C 3.2 km/h
2313 08-04-2014 03:20:00 15.5 C 9.91 g/m*3 15.5 C 0 km/h
2314 08-04-2014 03:25:00 15.1 C 9.68 g/m*3 15.1 C 4.8 km/h
2315 08-04-2014 03:30:00 14.8 C 9.75 g/m*3 14.8 C 4.8 km/h
2316 08-04-2014 03:35:00 14.7 C 9.69 g/m*3 14.7 C 4.8 km/h
2317 08-04-2014 03:40:00 14.6 C 9.76 g/m*3 14.6 C 3.2 km/h
2318 08-04-2014 03:45:00 14.6 C 9.76 g/m*3 14.6 C 0 km/h
2319 08-04-2014 03:50:00 14.6 C 9.76 g/m*3 14.6 C 0 km/h
2320 08-04-2014 03:55:00 14.4 C 9.77 g/m*3 14.4 C 0 km/h
2321 08-04-2014 04:00:00 14.3 C 9.71 g/m*3 14.3 C 1.6 km/h
2322 08-04-2014 04:05:00 14.2 C 9.77 g/m*3 14.2 C 1.6 km/h
2323 08-04-2014 04:10:00 14.1 C 9.59 g/m*3 14.1 C 0 km/h
2324 08-04-2014 04:15:00 14.2 C 9.89 g/m*3 14.2 C 0 km/h
2325 08-04-2014 04:20:00 14.2 C 9.77 g/m*3 14.2 C 1.6 km/h
Sensor: Nr:Datum:Temp:Abs-Feuchte:Windchill:Wind:
Aussen-T/F 2326 08-04-2014 04:25:00 14.2 C 9.77 g/m*3 14.2 C 0 km/h
2327 08-04-2014 04:30:00 14.2 C 9.77 g/m*3 14.2 C 0 km/h
2328 08-04-2014 04:35:00 14.4 C 9.64 g/m*3 14.4 C 6.4 km/h
2329 08-04-2014 04:40:00 14.7 C 9.57 g/m*3 14.7 C 6.4 km/h
2330 08-04-2014 04:45:00 15.4 C 9.59 g/m*3 15.4 C 12.9 km/h
2331 08-04-2014 04:50:00 15.9 C 9.34 g/m*3 15.9 C 14.5 km/h
2332 08-04-2014 04:55:00 16.2 C 9.38 g/m*3 16.2 C 11.3 km/h
2333 08-04-2014 05:00:00 16.2 C 9.38 g/m*3 16.2 C 16.1 km/h
2334 08-04-2014 05:05:00 16.1 C 9.32 g/m*3 16.1 C 3.2 km/h
2335 08-04-2014 05:10:00 15.9 C 9.48 g/m*3 15.9 C 6.4 km/h
2336 08-04-2014 05:15:00 15.8 C 9.29 g/m*3 15.8 C 6.4 km/h
2337 08-04-2014 05:20:00 15.5 C 9.39 g/m*3 15.5 C 3.2 km/h
2338 08-04-2014 05:25:00 15.1 C 9.16 g/m*3 15.1 C 11.3 km/h
2339 08-04-2014 05:30:00 15.1 C 9.03 g/m*3 15.1 C 9.7 km/h
2340 08-04-2014 05:35:00 15.3 C 9.14 g/m*3 15.3 C 12.9 km/h
2341 08-04-2014 05:40:00 15.2 C 9.09 g/m*3 15.2 C 8.1 km/h
2342 08-04-2014 05:45:00 15.2 C 9.09 g/m*3 15.2 C 16.1 km/h
2343 08-04-2014 05:50:00 15.3 C 9.01 g/m*3 15.3 C 11.3 km/h
2344 08-04-2014 05:55:00 15.3 C 9.66 g/m*3 15.3 C 16.1 km/h
2345 08-04-2014 06:00:00 14.6 C 9.76 g/m*3 14.6 C 11.3 km/h
2346 08-04-2014 06:05:00 13.9 C 9.83 g/m*3 13.9 C 6.4 km/h
2347 08-04-2014 06:10:00 13.6 C 9.77 g/m*3 13.6 C 9.7 km/h
2348 08-04-2014 06:15:00 13.3 C 9.7 g/m*3 13.3 C 8.1 km/h
2349 08-04-2014 06:20:00 13.2 C 9.76 g/m*3 13.2 C 9.7 km/h
2350 08-04-2014 06:25:00 13 C 9.64 g/m*3 13 C 6.4 km/h
Sensor: Nr:Datum:Temp:Abs-Feuchte:Windchill:Wind:
Aussen-T/F 2351 08-04-2014 06:30:00 12.9 C 9.58 g/m*3 12.9 C 14.5 km/h
2352 08-04-2014 06:35:00 12.8 C 9.52 g/m*3 12.8 C 12.9 km/h
2353 08-04-2014 06:40:00 12.8 C 9.52 g/m*3 12.8 C 9.7 km/h
2354 08-04-2014 06:45:00 12.7 C 9.35 g/m*3 12.7 C 6.4 km/h
2355 08-04-2014 06:50:00 12.7 C 9.13 g/m*3 12.7 C 8.1 km/h
2356 08-04-2014 06:55:00 12.6 C 8.85 g/m*3 12.6 C 14.5 km/h
2357 08-04-2014 07:00:00 12.4 C 8.52 g/m*3 12.4 C 17.7 km/h
2358 08-04-2014 07:05:00 12.2 C 8.42 g/m*3 12.2 C 19.3 km/h
2359 08-04-2014 07:10:00 12.2 C 8.2 g/m*3 12.2 C 14.5 km/h
2360 08-04-2014 07:15:00 11.8 C 7.89 g/m*3 11.8 C 22.5 km/h
2361 08-04-2014 07:20:00 11.7 C 7.84 g/m*3 11.7 C 24.1 km/h
2362 08-04-2014 07:25:00 11.6 C 7.69 g/m*3 11.6 C 25.7 km/h
2363 08-04-2014 07:30:00 11.4 C 7.6 g/m*3 11.4 C 25.7 km/h
2364 08-04-2014 07:35:00 11.3 C 7.55 g/m*3 11.3 C 14.5 km/h
2365 08-04-2014 07:40:00 11.2 C 7.5 g/m*3 11.2 C 19.3 km/h
2366 08-04-2014 07:45:00 11 C 7.31 g/m*3 9.63 C 11.3 km/h
2367 08-04-2014 07:50:00 10.8 C 7.22 g/m*3 8.96 C 14.5 km/h
2368 08-04-2014 07:55:00 10.7 C 7.07 g/m*3 8.18 C 20.9 km/h
2369 08-04-2014 08:00:00 10.7 C 6.88 g/m*3 9.04 C 12.9 km/h
2370 08-04-2014 08:05:00 10.7 C 6.88 g/m*3 8.18 C 20.9 km/h
2371 08-04-2014 08:10:00 10.8 C 6.92 g/m*3 8.45 C 19.3 km/h
2372 08-04-2014 08:15:00 10.9 C 6.86 g/m*3 8.9 C 16.1 km/h
2373 08-04-2014 08:20:00 10.9 C 6.96 g/m*3 9.08 C 14.5 km/h
2374 08-04-2014 08:25:00 10.9 C 6.96 g/m*3 9.51 C 11.3 km/h
2375 08-04-2014 08:30:00 11.1 C 6.95 g/m*3 11.1 C 17.7 km/h
Sensor: Nr:Datum:Temp:Abs-Feuchte:Windchill:Wind:
Aussen-T/F 2376 08-04-2014 08:35:00 11.1 C 6.65 g/m*3 11.1 C 11.3 km/h
2377 08-04-2014 08:40:00 11.2 C 6.49 g/m*3 11.2 C 19.3 km/h
2378 08-04-2014 08:45:00 11.2 C 6.59 g/m*3 11.2 C 19.3 km/h
2379 08-04-2014 08:50:00 11.2 C 6.69 g/m*3 11.2 C 11.3 km/h
2380 08-04-2014 08:55:00 11.2 C 6.59 g/m*3 11.2 C 20.9 km/h
2381 08-04-2014 09:00:00 11.2 C 6.49 g/m*3 11.2 C 19.3 km/h
2382 08-04-2014 09:05:00 11.2 C 6.49 g/m*3 11.2 C 16.1 km/h
2383 08-04-2014 09:10:00 11.1 C 6.55 g/m*3 11.1 C 16.1 km/h
2384 08-04-2014 09:15:00 11.1 C 6.75 g/m*3 11.1 C 11.3 km/h
2385 08-04-2014 09:20:00 11 C 6.91 g/m*3 9.4 C 12.9 km/h
2386 08-04-2014 09:25:00 10.8 C 6.72 g/m*3 9.38 C 11.3 km/h
2387 08-04-2014 09:30:00 10.8 C 6.52 g/m*3 8.04 C 24.1 km/h
2388 08-04-2014 09:35:00 10.9 C 6.27 g/m*3 8.58 C 19.3 km/h
2389 08-04-2014 09:40:00 11.1 C 6.14 g/m*3 11.1 C 19.3 km/h
2390 08-04-2014 09:45:00 11.2 C 6.18 g/m*3 11.2 C 16.1 km/h
2391 08-04-2014 09:50:00 11.2 C 6.39 g/m*3 11.2 C 14.5 km/h
2392 08-04-2014 09:55:00 11.3 C 6.32 g/m*3 11.3 C 14.5 km/h
2393 08-04-2014 10:00:00 11.3 C 6.53 g/m*3 11.3 C 16.1 km/h
2394 08-04-2014 10:05:00 11.4 C 6.57 g/m*3 11.4 C 14.5 km/h
2395 08-04-2014 10:10:00 11.6 C 6.55 g/m*3 11.6 C 14.5 km/h
2396 08-04-2014 10:15:00 11.7 C 6.48 g/m*3 11.7 C 16.1 km/h
2397 08-04-2014 10:20:00 11.7 C 6.38 g/m*3 11.7 C 14.5 km/h
2398 08-04-2014 10:25:00 11.7 C 6.38 g/m*3 11.7 C 14.5 km/h
2399 08-04-2014 10:30:00 11.8 C 6.53 g/m*3 11.8 C 12.9 km/h
2400 08-04-2014 10:35:00 11.9 C 6.67 g/m*3 11.9 C 16.1 km/h
Sensor: Nr:Datum:Temp:Abs-Feuchte:Windchill:Wind:
Aussen-T/F 2401 08-04-2014 10:40:00 11.8 C 6.42 g/m*3 11.8 C 16.1 km/h
2402 08-04-2014 10:45:00 11.8 C 6.63 g/m*3 11.8 C 16.1 km/h
2403 08-04-2014 10:50:00 11.9 C 6.67 g/m*3 11.9 C 16.1 km/h
2404 08-04-2014 10:55:00 12.1 C 6.76 g/m*3 12.1 C 22.5 km/h
2405 08-04-2014 11:00:00 12.2 C 6.69 g/m*3 12.2 C 20.9 km/h
2406 08-04-2014 11:05:00 12.3 C 6.95 g/m*3 12.3 C 16.1 km/h
2407 08-04-2014 11:10:00 12.2 C 6.47 g/m*3 12.2 C 16.1 km/h
2408 08-04-2014 11:15:00 12.2 C 6.69 g/m*3 12.2 C 14.5 km/h
2409 08-04-2014 11:20:00 12.2 C 6.47 g/m*3 12.2 C 20.9 km/h
2410 08-04-2014 11:25:00 12.3 C 6.62 g/m*3 12.3 C 11.3 km/h
2411 08-04-2014 11:30:00 12.3 C 6.62 g/m*3 12.3 C 17.7 km/h
2412 08-04-2014 11:35:00 12.3 C 6.52 g/m*3 12.3 C 11.3 km/h
2413 08-04-2014 11:40:00 12.3 C 6.52 g/m*3 12.3 C 12.9 km/h
2414 08-04-2014 11:45:00 12.3 C 6.52 g/m*3 12.3 C 8.1 km/h
2415 08-04-2014 11:50:00 12.3 C 6.41 g/m*3 12.3 C 16.1 km/h
2416 08-04-2014 11:55:00 12.5 C 6.6 g/m*3 12.5 C 17.7 km/h
2417 08-04-2014 12:00:00 12.7 C 6.68 g/m*3 12.7 C 17.7 km/h
2418 08-04-2014 12:05:00 13 C 6.69 g/m*3 13 C 16.1 km/h
2419 08-04-2014 12:10:00 13.1 C 6.5 g/m*3 13.1 C 17.7 km/h
2420 08-04-2014 12:15:00 12.7 C 6.23 g/m*3 12.7 C 22.5 km/h
2421 08-04-2014 12:20:00 12.4 C 6.56 g/m*3 12.4 C 16.1 km/h
2422 08-04-2014 12:25:00 12.5 C 6.71 g/m*3 12.5 C 16.1 km/h
2423 08-04-2014 12:30:00 13 C 6.69 g/m*3 13 C 14.5 km/h
2424 08-04-2014 12:35:00 13.2 C 6.66 g/m*3 13.2 C 12.9 km/h
2425 08-04-2014 12:40:00 13.3 C 6.7 g/m*3 13.3 C 27.4 km/h
Sensor: Nr:Datum:Temp:Abs-Feuchte:Windchill:Wind:
Aussen-T/F 2426 08-04-2014 12:45:00 12.4 C 6.34 g/m*3 12.4 C 27.4 km/h
2427 08-04-2014 12:50:00 11.7 C 6.28 g/m*3 11.7 C 24.1 km/h
2428 08-04-2014 12:55:00 11.7 C 6.38 g/m*3 11.7 C 20.9 km/h
2429 08-04-2014 13:00:00 12.1 C 6.54 g/m*3 12.1 C 17.7 km/h
2430 08-04-2014 13:05:00 12.4 C 6.66 g/m*3 12.4 C 19.3 km/h
2431 08-04-2014 13:10:00 12.4 C 6.12 g/m*3 12.4 C 20.9 km/h
2432 08-04-2014 13:15:00 12.4 C 6.23 g/m*3 12.4 C 16.1 km/h
2433 08-04-2014 13:20:00 12.6 C 6.2 g/m*3 12.6 C 20.9 km/h
2434 08-04-2014 13:25:00 12.6 C 5.97 g/m*3 12.6 C 17.7 km/h
2435 08-04-2014 13:30:00 12.7 C 6.35 g/m*3 12.7 C 12.9 km/h
2436 08-04-2014 13:35:00 12.7 C 6.01 g/m*3 12.7 C 22.5 km/h
2437 08-04-2014 13:40:00 12.7 C 6.23 g/m*3 12.7 C 12.9 km/h
2438 08-04-2014 13:45:00 13 C 6.24 g/m*3 13 C 17.7 km/h
2439 08-04-2014 13:50:00 13.1 C 6.39 g/m*3 13.1 C 17.7 km/h
2440 08-04-2014 13:55:00 13 C 6.24 g/m*3 13 C 12.9 km/h
2441 08-04-2014 14:00:00 12.9 C 6.09 g/m*3 12.9 C 17.7 km/h
2442 08-04-2014 14:05:00 12.5 C 5.94 g/m*3 12.5 C 27.4 km/h
2443 08-04-2014 14:10:00 11.8 C 5.89 g/m*3 11.8 C 19.3 km/h
2444 08-04-2014 14:15:00 11.4 C 5.95 g/m*3 11.4 C 25.7 km/h
2445 08-04-2014 14:20:00 11.4 C 5.95 g/m*3 11.4 C 24.1 km/h
2446 08-04-2014 14:25:00 11.7 C 6.07 g/m*3 11.7 C 24.1 km/h
2447 08-04-2014 14:30:00 12 C 6.07 g/m*3 12 C 16.1 km/h
2448 08-04-2014 14:35:00 12.3 C 6.08 g/m*3 12.3 C 19.3 km/h
2449 08-04-2014 14:40:00 12.7 C 6.12 g/m*3 12.7 C 17.7 km/h
2450 08-04-2014 14:45:00 12.6 C 6.2 g/m*3 12.6 C 16.1 km/h
Sensor: Nr:Datum:Temp:Abs-Feuchte:Windchill:Wind:
Aussen-T/F 2451 08-04-2014 14:50:00 12.4 C 6.23 g/m*3 12.4 C 20.9 km/h
2452 08-04-2014 14:55:00 12.2 C 6.26 g/m*3 12.2 C 16.1 km/h
2453 08-04-2014 15:00:00 12.3 C 6.3 g/m*3 12.3 C 20.9 km/h
2454 08-04-2014 15:05:00 12.4 C 6.34 g/m*3 12.4 C 17.7 km/h
2455 08-04-2014 15:10:00 12.6 C 6.2 g/m*3 12.6 C 20.9 km/h
2456 08-04-2014 15:15:00 12.8 C 6.27 g/m*3 12.8 C 14.5 km/h
2457 08-04-2014 15:20:00 13.3 C 5.89 g/m*3 13.3 C 24.1 km/h
2458 08-04-2014 15:25:00 13.2 C 5.51 g/m*3 13.2 C 22.5 km/h
2459 08-04-2014 15:30:00 13 C 5.33 g/m*3 13 C 24.1 km/h
2460 08-04-2014 15:35:00 12.8 C 5.15 g/m*3 12.8 C 20.9 km/h
2461 08-04-2014 15:40:00 12.5 C 5.17 g/m*3 12.5 C 20.9 km/h
2462 08-04-2014 15:45:00 12.3 C 5.21 g/m*3 12.3 C 17.7 km/h
2463 08-04-2014 15:50:00 12.2 C 5.29 g/m*3 12.2 C 16.1 km/h
2464 08-04-2014 15:55:00 12.2 C 5.5 g/m*3 12.2 C 17.7 km/h
2465 08-04-2014 16:00:00 12.3 C 5.65 g/m*3 12.3 C 20.9 km/h
2466 08-04-2014 16:05:00 12.7 C 5.79 g/m*3 12.7 C 17.7 km/h
2467 08-04-2014 16:10:00 13.1 C 5.71 g/m*3 13.1 C 19.3 km/h
2468 08-04-2014 16:15:00 12.9 C 5.64 g/m*3 12.9 C 17.7 km/h
2469 08-04-2014 16:20:00 12.7 C 5.45 g/m*3 12.7 C 14.5 km/h
2470 08-04-2014 16:25:00 12.6 C 5.42 g/m*3 12.6 C 20.9 km/h
2471 08-04-2014 16:30:00 12.6 C 5.53 g/m*3 12.6 C 16.1 km/h
2472 08-04-2014 16:35:00 12.5 C 5.17 g/m*3 12.5 C 20.9 km/h
2473 08-04-2014 16:40:00 12.4 C 5.24 g/m*3 12.4 C 17.7 km/h
2474 08-04-2014 16:45:00 12.4 C 5.14 g/m*3 12.4 C 30.6 km/h
2475 08-04-2014 16:50:00 12.4 C 5.24 g/m*3 12.4 C 20.9 km/h
Sensor: Nr:Datum:Temp:Abs-Feuchte:Windchill:Wind:
Aussen-T/F 2476 08-04-2014 16:55:00 12.6 C 5.2 g/m*3 12.6 C 20.9 km/h
2477 08-04-2014 17:00:00 12.6 C 5.42 g/m*3 12.6 C 19.3 km/h
2478 08-04-2014 17:05:00 12.4 C 5.35 g/m*3 12.4 C 16.1 km/h
2479 08-04-2014 17:10:00 12.2 C 5.29 g/m*3 12.2 C 24.1 km/h
2480 08-04-2014 17:15:00 11.7 C 5.86 g/m*3 11.7 C 22.5 km/h
2481 08-04-2014 17:20:00 10.8 C 5.93 g/m*3 7.92 C 25.7 km/h
2482 08-04-2014 17:25:00 10.1 C 6.15 g/m*3 7.28 C 22.5 km/h
2483 08-04-2014 17:30:00 9.7 C 6.27 g/m*3 7.23 C 17.7 km/h
2484 08-04-2014 17:35:00 9.5 C 6.28 g/m*3 8.09 C 9.7 km/h
2485 08-04-2014 17:40:00 9.5 C 6.55 g/m*3 7.82 C 11.3 km/h
2486 08-04-2014 17:45:00 9.8 C 6.49 g/m*3 8.18 C 11.3 km/h
2487 08-04-2014 17:50:00 9.8 C 6.49 g/m*3 8.75 C 8.1 km/h
2488 08-04-2014 17:55:00 10.1 C 6.43 g/m*3 8.31 C 12.9 km/h
2489 08-04-2014 18:00:00 10.1 C 6.43 g/m*3 8.54 C 11.3 km/h
2490 08-04-2014 18:05:00 10.3 C 6.61 g/m*3 8.78 C 11.3 km/h
2491 08-04-2014 18:10:00 10.3 C 6.61 g/m*3 8.55 C 12.9 km/h
2492 08-04-2014 18:15:00 10.4 C 6.26 g/m*3 9.16 C 9.7 km/h
2493 08-04-2014 18:20:00 10.5 C 6.11 g/m*3 8.59 C 14.5 km/h
2494 08-04-2014 18:25:00 10.8 C 6.13 g/m*3 9.93 C 8.1 km/h
2495 08-04-2014 18:30:00 11 C 6.21 g/m*3 9.88 C 9.7 km/h
2496 08-04-2014 18:35:00 11 C 6.11 g/m*3 9.4 C 12.9 km/h
2497 08-04-2014 18:40:00 10.9 C 5.97 g/m*3 9.51 C 11.3 km/h
2498 08-04-2014 18:45:00 10.9 C 5.97 g/m*3 9.51 C 11.3 km/h
2499 08-04-2014 18:50:00 10.8 C 6.03 g/m*3 9.16 C 12.9 km/h
2500 08-04-2014 18:55:00 10.9 C 5.97 g/m*3 9.76 C 9.7 km/h
Sensor: Nr:Datum:Temp:Abs-Feuchte:Windchill:Wind:
Aussen-T/F 2501 08-04-2014 19:00:00 10.8 C 6.03 g/m*3 9.38 C 11.3 km/h
2502 08-04-2014 19:05:00 10.8 C 6.03 g/m*3 8.96 C 14.5 km/h
2503 08-04-2014 19:10:00 10.7 C 5.99 g/m*3 8.84 C 14.5 km/h
2504 08-04-2014 19:15:00 10.7 C 5.99 g/m*3 8.48 C 17.7 km/h
2505 08-04-2014 19:20:00 10.7 C 6.09 g/m*3 8.84 C 14.5 km/h
2506 08-04-2014 19:25:00 10.4 C 6.17 g/m*3 7.16 C 29 km/h
2507 08-04-2014 19:30:00 10.1 C 6.24 g/m*3 8.31 C 12.9 km/h
2508 08-04-2014 19:35:00 9.9 C 6.26 g/m*3 8.06 C 12.9 km/h
2509 08-04-2014 19:40:00 9.8 C 6.31 g/m*3 7.36 C 17.7 km/h
2510 08-04-2014 19:45:00 9.8 C 6.22 g/m*3 7.19 C 19.3 km/h
2511 08-04-2014 19:50:00 9.8 C 6.22 g/m*3 7.73 C 14.5 km/h
2512 08-04-2014 19:55:00 9.7 C 6.27 g/m*3 7.41 C 16.1 km/h
2513 08-04-2014 20:00:00 9.5 C 6.28 g/m*3 7.36 C 14.5 km/h
2514 08-04-2014 20:05:00 9.4 C 6.24 g/m*3 7.04 C 16.1 km/h
2515 08-04-2014 20:10:00 9.3 C 6.29 g/m*3 7.85 C 9.7 km/h
2516 08-04-2014 20:15:00 9.2 C 6.25 g/m*3 7.46 C 11.3 km/h
2517 08-04-2014 20:20:00 9.2 C 6.25 g/m*3 7.73 C 9.7 km/h
2518 08-04-2014 20:25:00 9.2 C 6.25 g/m*3 8.05 C 8.1 km/h
2519 08-04-2014 20:30:00 9.2 C 6.25 g/m*3 9.2 C 4.8 km/h
2520 08-04-2014 20:35:00 9.2 C 6.34 g/m*3 7.46 C 11.3 km/h
2521 08-04-2014 20:40:00 9.2 C 6.34 g/m*3 8.05 C 8.1 km/h
2522 08-04-2014 21:00:00 8.9 C 6.39 g/m*3 7.37 C 9.7 km/h
2523 08-04-2014 21:05:00 8.9 C 6.39 g/m*3 8.9 C 4.8 km/h
2524 08-04-2014 21:10:00 8.8 C 6.44 g/m*3 8.8 C 3.2 km/h
2525 08-04-2014 21:15:00 8.8 C 6.53 g/m*3 8.8 C 3.2 km/h
Sensor: Nr:Datum:Temp:Abs-Feuchte:Windchill:Wind:
Aussen-T/F 2526 08-04-2014 21:20:00 8.7 C 6.49 g/m*3 8.7 C 3.2 km/h
2527 08-04-2014 21:25:00 8.7 C 6.4 g/m*3 7.46 C 8.1 km/h
2528 08-04-2014 21:30:00 8.8 C 6.44 g/m*3 7.98 C 6.4 km/h
2529 08-04-2014 21:35:00 8.8 C 6.61 g/m*3 8.8 C 3.2 km/h
2530 08-04-2014 21:40:00 8.7 C 6.4 g/m*3 8.7 C 4.8 km/h
2531 08-04-2014 21:45:00 8.7 C 6.49 g/m*3 7.46 C 8.1 km/h
2532 08-04-2014 21:50:00 8.7 C 6.49 g/m*3 8.7 C 3.2 km/h
2533 08-04-2014 21:55:00 8.5 C 6.4 g/m*3 8.5 C 4.8 km/h
2534 08-04-2014 22:00:00 8.4 C 6.36 g/m*3 8.4 C 3.2 km/h
2535 08-04-2014 22:05:00 8.4 C 6.45 g/m*3 8.4 C 3.2 km/h
2536 08-04-2014 22:10:00 8.3 C 6.41 g/m*3 8.3 C 3.2 km/h
2537 08-04-2014 22:15:00 8.2 C 6.45 g/m*3 8.2 C 3.2 km/h
2538 08-04-2014 22:20:00 8.2 C 6.45 g/m*3 8.2 C 3.2 km/h
2539 08-04-2014 22:25:00 8.1 C 6.41 g/m*3 8.1 C 1.6 km/h
2540 08-04-2014 22:30:00 8.1 C 6.41 g/m*3 8.1 C 3.2 km/h
2541 08-04-2014 22:35:00 7.8 C 6.28 g/m*3 7.8 C 3.2 km/h
2542 08-04-2014 22:40:00 7.8 C 6.45 g/m*3 7.8 C 3.2 km/h
2543 08-04-2014 22:45:00 7.6 C 6.36 g/m*3 7.6 C 4.8 km/h
2544 08-04-2014 22:50:00 7.6 C 6.36 g/m*3 7.6 C 4.8 km/h
2545 08-04-2014 22:55:00 7.6 C 6.36 g/m*3 7.6 C 4.8 km/h
2546 08-04-2014 23:00:00 7.7 C 6.41 g/m*3 7.7 C 4.8 km/h
2547 08-04-2014 23:05:00 7.7 C 6.41 g/m*3 6.71 C 6.4 km/h
2548 08-04-2014 23:10:00 7.7 C 6.41 g/m*3 7.7 C 4.8 km/h
2549 08-04-2014 23:15:00 7.9 C 6.24 g/m*3 7.9 C 3.2 km/h
2550 08-04-2014 23:20:00 7.9 C 6.24 g/m*3 7.9 C 4.8 km/h
Sensor: Nr:Datum:Temp:Abs-Feuchte:Windchill:Wind:
Aussen-T/F 2551 08-04-2014 23:25:00 7.8 C 6.2 g/m*3 6.83 C 6.4 km/h
2552 08-04-2014 23:30:00 7.8 C 6.2 g/m*3 7.8 C 4.8 km/h
2553 08-04-2014 23:35:00 7.8 C 6.2 g/m*3 7.8 C 3.2 km/h
2554 08-04-2014 23:40:00 7.8 C 6.2 g/m*3 6.83 C 6.4 km/h
2555 08-04-2014 23:45:00 7.8 C 6.2 g/m*3 6.4 C 8.1 km/h
2556 08-04-2014 23:50:00 7.8 C 6.2 g/m*3 6.83 C 6.4 km/h
2557 09-04-2014 00:45:00 6.1 C 6.58 g/m*3 6.1 C 3.2 km/h
2558 09-04-2014 00:50:00 6.1 C 6.65 g/m*3 6.1 C 4.8 km/h
2559 09-04-2014 00:55:00 6 C 6.68 g/m*3 6 C 0 km/h
2560 09-04-2014 01:00:00 6 C 6.68 g/m*3 6 C 3.2 km/h
2561 09-04-2014 01:05:00 6 C 6.68 g/m*3 3.06 C 14.5 km/h
2562 09-04-2014 01:10:00 6 C 6.68 g/m*3 4.28 C 8.1 km/h
2563 09-04-2014 01:15:00 6.1 C 6.72 g/m*3 6.1 C 1.6 km/h
2564 09-04-2014 01:20:00 6 C 6.68 g/m*3 6 C 4.8 km/h
2565 09-04-2014 01:25:00 5.8 C 6.59 g/m*3 5.8 C 4.8 km/h
2566 09-04-2014 01:30:00 5.6 C 6.5 g/m*3 5.6 C 4.8 km/h
2567 09-04-2014 01:35:00 5.4 C 6.49 g/m*3 5.4 C 4.8 km/h
2568 09-04-2014 01:40:00 5.3 C 6.45 g/m*3 5.3 C 4.8 km/h
2569 09-04-2014 01:45:00 5.2 C 6.4 g/m*3 5.2 C 4.8 km/h
2570 09-04-2014 01:50:00 5.2 C 6.47 g/m*3 5.2 C 4.8 km/h
2571 09-04-2014 01:55:00 5.3 C 6.52 g/m*3 5.3 C 1.6 km/h
2572 09-04-2014 02:00:00 5.4 C 6.56 g/m*3 5.4 C 1.6 km/h
2573 09-04-2014 02:05:00 5.5 C 6.67 g/m*3 4.17 C 6.4 km/h
2574 09-04-2014 02:10:00 5.6 C 6.72 g/m*3 5.6 C 1.6 km/h
2575 09-04-2014 02:15:00 5.6 C 6.72 g/m*3 4.29 C 6.4 km/h
Sensor: Nr:Datum:Temp:Abs-Feuchte:Windchill:Wind:
Aussen-T/F 2576 09-04-2014 02:20:00 5.6 C 6.65 g/m*3 5.6 C 3.2 km/h
2577 09-04-2014 02:25:00 5.6 C 6.65 g/m*3 5.6 C 3.2 km/h
2578 09-04-2014 02:30:00 5.5 C 6.53 g/m*3 5.5 C 4.8 km/h
2579 09-04-2014 02:35:00 5.4 C 6.49 g/m*3 5.4 C 3.2 km/h
2580 09-04-2014 02:40:00 5.3 C 6.45 g/m*3 5.3 C 3.2 km/h
2581 09-04-2014 02:45:00 5.3 C 6.45 g/m*3 5.3 C 4.8 km/h
2582 09-04-2014 02:50:00 5.2 C 6.4 g/m*3 5.2 C 3.2 km/h
2583 09-04-2014 02:55:00 5.1 C 6.36 g/m*3 5.1 C 1.6 km/h
2584 09-04-2014 03:00:00 4.9 C 6.35 g/m*3 4.9 C 1.6 km/h
2585 09-04-2014 03:05:00 4.9 C 6.35 g/m*3 4.9 C 3.2 km/h
2586 09-04-2014 03:10:00 4.9 C 6.35 g/m*3 4.9 C 1.6 km/h
2587 09-04-2014 03:15:00 5 C 6.39 g/m*3 5 C 3.2 km/h
2588 09-04-2014 03:20:00 5 C 6.39 g/m*3 5 C 3.2 km/h
2589 09-04-2014 03:25:00 5 C 6.32 g/m*3 5 C 0 km/h
2590 09-04-2014 03:30:00 4.9 C 6.28 g/m*3 4.9 C 1.6 km/h
2591 09-04-2014 03:35:00 4.8 C 6.3 g/m*3 4.8 C 1.6 km/h
2592 09-04-2014 03:40:00 4.8 C 6.3 g/m*3 4.8 C 4.8 km/h
2593 09-04-2014 03:45:00 4.9 C 6.35 g/m*3 4.9 C 1.6 km/h
2594 09-04-2014 03:50:00 4.9 C 6.35 g/m*3 4.9 C 0 km/h
2595 09-04-2014 03:55:00 4.8 C 6.3 g/m*3 4.8 C 1.6 km/h
2596 09-04-2014 04:00:00 4.8 C 6.3 g/m*3 4.8 C 3.2 km/h
2597 09-04-2014 04:05:00 4.8 C 6.3 g/m*3 4.8 C 3.2 km/h
2598 09-04-2014 04:10:00 4.8 C 6.3 g/m*3 4.8 C 1.6 km/h
2599 09-04-2014 04:15:00 4.8 C 6.3 g/m*3 4.8 C 1.6 km/h
2600 09-04-2014 04:20:00 4.7 C 6.26 g/m*3 4.7 C 0 km/h
Sensor: Nr:Datum:Temp:Abs-Feuchte:Windchill:Wind:
Aussen-T/F 2601 09-04-2014 04:25:00 4.7 C 6.26 g/m*3 4.7 C 1.6 km/h
2602 09-04-2014 04:30:00 4.7 C 6.26 g/m*3 4.7 C 1.6 km/h
2603 09-04-2014 04:35:00 4.8 C 6.3 g/m*3 4.8 C 3.2 km/h
2604 09-04-2014 04:40:00 4.9 C 6.35 g/m*3 4.9 C 4.8 km/h
2605 09-04-2014 04:45:00 5.1 C 6.43 g/m*3 3.71 C 6.4 km/h
2606 09-04-2014 04:50:00 5.2 C 6.4 g/m*3 5.2 C 4.8 km/h
2607 09-04-2014 04:55:00 5.3 C 6.38 g/m*3 5.3 C 3.2 km/h
2608 09-04-2014 05:00:00 5.3 C 6.38 g/m*3 5.3 C 3.2 km/h
2609 09-04-2014 05:05:00 5.3 C 6.31 g/m*3 5.3 C 1.6 km/h
2610 09-04-2014 05:10:00 5.3 C 6.31 g/m*3 5.3 C 4.8 km/h
2611 09-04-2014 05:15:00 5.2 C 6.33 g/m*3 5.2 C 0 km/h
2612 09-04-2014 05:20:00 5.2 C 6.33 g/m*3 5.2 C 1.6 km/h
2613 09-04-2014 05:25:00 5.2 C 6.33 g/m*3 5.2 C 1.6 km/h
2614 09-04-2014 05:30:00 5.1 C 6.29 g/m*3 5.1 C 1.6 km/h
2615 09-04-2014 05:35:00 4.9 C 6.21 g/m*3 4.9 C 1.6 km/h
2616 09-04-2014 05:40:00 4.9 C 6.28 g/m*3 4.9 C 0 km/h
2617 09-04-2014 05:45:00 4.8 C 6.24 g/m*3 4.8 C 1.6 km/h
2618 09-04-2014 05:50:00 4.8 C 6.24 g/m*3 4.8 C 1.6 km/h
2619 09-04-2014 05:55:00 4.7 C 6.19 g/m*3 4.7 C 1.6 km/h
2620 09-04-2014 06:00:00 4.6 C 6.15 g/m*3 4.6 C 0 km/h
2621 09-04-2014 06:05:00 4.6 C 6.15 g/m*3 4.6 C 0 km/h
2622 09-04-2014 06:10:00 4.5 C 6.18 g/m*3 4.5 C 0 km/h
2623 09-04-2014 06:15:00 4.4 C 6.14 g/m*3 4.4 C 1.6 km/h
2624 09-04-2014 06:20:00 4.3 C 6.1 g/m*3 4.3 C 1.6 km/h
2625 09-04-2014 06:25:00 4.3 C 6.1 g/m*3 4.3 C 0 km/h
Sensor: Nr:Datum:Temp:Abs-Feuchte:Windchill:Wind:
Aussen-T/F 2626 09-04-2014 06:30:00 4.3 C 6.1 g/m*3 4.3 C 0 km/h
2627 09-04-2014 06:35:00 4.3 C 6.1 g/m*3 4.3 C 3.2 km/h
2628 09-04-2014 06:40:00 4.3 C 6.1 g/m*3 4.3 C 3.2 km/h
2629 09-04-2014 06:45:00 4.3 C 6.1 g/m*3 4.3 C 1.6 km/h
2630 09-04-2014 06:50:00 4.3 C 6.1 g/m*3 4.3 C 1.6 km/h
2631 09-04-2014 06:55:00 4.3 C 6.1 g/m*3 4.3 C 1.6 km/h
2632 09-04-2014 07:00:00 4.2 C 6.06 g/m*3 4.2 C 3.2 km/h
2633 09-04-2014 07:05:00 4.2 C 6.06 g/m*3 4.2 C 1.6 km/h
2634 09-04-2014 07:10:00 4.2 C 6.06 g/m*3 2.17 C 8.1 km/h
2635 09-04-2014 07:15:00 4.2 C 6.06 g/m*3 4.2 C 1.6 km/h
2636 09-04-2014 07:55:00 4.1 C 6.02 g/m*3 4.1 C 0 km/h
2637 09-04-2014 08:00:00 4.1 C 6.02 g/m*3 4.1 C 1.6 km/h
2638 09-04-2014 08:05:00 4.1 C 6.08 g/m*3 4.1 C 1.6 km/h
2639 09-04-2014 08:10:00 4.2 C 6.12 g/m*3 4.2 C 0 km/h
2640 09-04-2014 08:15:00 4.2 C 6.12 g/m*3 4.2 C 0 km/h
2641 09-04-2014 08:20:00 4.3 C 6.16 g/m*3 4.3 C 3.2 km/h
2642 09-04-2014 08:25:00 4.5 C 6.24 g/m*3 4.5 C 1.6 km/h
2643 09-04-2014 08:30:00 4.7 C 6.33 g/m*3 4.7 C 1.6 km/h
2644 09-04-2014 08:35:00 4.8 C 6.37 g/m*3 4.8 C 4.8 km/h
2645 09-04-2014 08:40:00 5 C 6.46 g/m*3 5 C 0 km/h
2646 09-04-2014 08:45:00 5.1 C 6.5 g/m*3 5.1 C 1.6 km/h
2647 09-04-2014 08:50:00 5.3 C 6.58 g/m*3 5.3 C 3.2 km/h
2648 09-04-2014 08:55:00 5.4 C 6.63 g/m*3 4.06 C 6.4 km/h
2649 09-04-2014 09:00:00 5.7 C 6.69 g/m*3 5.7 C 3.2 km/h
2650 09-04-2014 09:05:00 5.9 C 6.71 g/m*3 4.63 C 6.4 km/h
Sensor: Nr:Datum:Temp:Abs-Feuchte:Windchill:Wind:
Aussen-T/F 2651 09-04-2014 09:10:00 6.1 C 6.79 g/m*3 4.4 C 8.1 km/h
2652 09-04-2014 09:15:00 6.4 C 6.78 g/m*3 4.08 C 11.3 km/h
2653 09-04-2014 09:20:00 6.6 C 6.79 g/m*3 4.63 C 9.7 km/h
2654 09-04-2014 09:25:00 6.7 C 6.76 g/m*3 4.75 C 9.7 km/h
2655 09-04-2014 09:30:00 6.9 C 6.85 g/m*3 4.99 C 9.7 km/h
2656 09-04-2014 09:35:00 7.2 C 6.91 g/m*3 5.04 C 11.3 km/h
2657 09-04-2014 09:40:00 7.3 C 6.87 g/m*3 5.81 C 8.1 km/h
2658 09-04-2014 09:45:00 7.5 C 7.04 g/m*3 5.7 C 9.7 km/h
2659 09-04-2014 09:50:00 7.7 C 7.05 g/m*3 6.28 C 8.1 km/h
2660 09-04-2014 09:55:00 7.8 C 7.1 g/m*3 6.4 C 8.1 km/h
2661 09-04-2014 10:00:00 7.9 C 7.06 g/m*3 6.52 C 8.1 km/h
2662 09-04-2014 10:05:00 8.1 C 7.16 g/m*3 6.75 C 8.1 km/h
2663 09-04-2014 10:10:00 8.1 C 7.07 g/m*3 8.1 C 4.8 km/h
2664 09-04-2014 10:15:00 8.1 C 7.16 g/m*3 6.13 C 11.3 km/h
2665 09-04-2014 10:20:00 8.2 C 7.2 g/m*3 7.29 C 6.4 km/h
2666 09-04-2014 10:25:00 8.4 C 7.3 g/m*3 8.4 C 4.8 km/h
2667 09-04-2014 10:30:00 8.6 C 7.3 g/m*3 7.75 C 6.4 km/h
2668 09-04-2014 10:35:00 8.7 C 7.35 g/m*3 7.46 C 8.1 km/h
2669 09-04-2014 10:40:00 8.8 C 7.22 g/m*3 7.98 C 6.4 km/h
2670 09-04-2014 10:45:00 9.1 C 7.28 g/m*3 7.93 C 8.1 km/h
2671 09-04-2014 10:50:00 9.2 C 7.32 g/m*3 7.73 C 9.7 km/h
2672 09-04-2014 10:55:00 9.3 C 7.37 g/m*3 7.85 C 9.7 km/h
2673 09-04-2014 11:00:00 9.7 C 7.47 g/m*3 8.06 C 11.3 km/h
2674 09-04-2014 11:05:00 9.8 C 7.33 g/m*3 9.14 C 6.4 km/h
2675 09-04-2014 11:10:00 9.8 C 7.33 g/m*3 8.75 C 8.1 km/h
Sensor: Nr:Datum:Temp:Abs-Feuchte:Windchill:Wind:
Aussen-T/F 2676 09-04-2014 11:15:00 9.8 C 7.33 g/m*3 8.75 C 8.1 km/h
2677 09-04-2014 11:20:00 10 C 7.42 g/m*3 8.68 C 9.7 km/h
2678 09-04-2014 11:25:00 10.2 C 7.23 g/m*3 8.66 C 11.3 km/h
2679 09-04-2014 11:30:00 10.3 C 7.18 g/m*3 7.98 C 17.7 km/h
2680 09-04-2014 11:35:00 10.4 C 7.32 g/m*3 8.67 C 12.9 km/h
2681 09-04-2014 11:40:00 10.6 C 7.32 g/m*3 9.14 C 11.3 km/h
2682 09-04-2014 11:45:00 10.8 C 7.31 g/m*3 9.93 C 8.1 km/h
2683 09-04-2014 11:50:00 11 C 7.41 g/m*3 9.4 C 12.9 km/h
2684 09-04-2014 11:55:00 11.1 C 7.35 g/m*3 11.1 C 6.4 km/h
2685 09-04-2014 12:00:00 11 C 7.31 g/m*3 9.88 C 9.7 km/h
2686 09-04-2014 12:05:00 11.1 C 7.25 g/m*3 11.1 C 9.7 km/h
2687 09-04-2014 12:10:00 11.2 C 7.3 g/m*3 11.2 C 9.7 km/h
2688 09-04-2014 12:15:00 11.2 C 7.3 g/m*3 11.2 C 12.9 km/h
2689 09-04-2014 12:20:00 11.2 C 7.4 g/m*3 11.2 C 11.3 km/h
2690 09-04-2014 12:25:00 11.3 C 7.34 g/m*3 11.3 C 8.1 km/h
2691 09-04-2014 12:30:00 11.3 C 7.24 g/m*3 11.3 C 12.9 km/h
2692 09-04-2014 12:35:00 11.4 C 7.19 g/m*3 11.4 C 12.9 km/h
2693 09-04-2014 12:40:00 11.6 C 7.17 g/m*3 11.6 C 11.3 km/h
2694 09-04-2014 12:45:00 11.7 C 7.11 g/m*3 11.7 C 8.1 km/h
2695 09-04-2014 12:50:00 11.7 C 7.01 g/m*3 11.7 C 4.8 km/h
2696 09-04-2014 12:55:00 11.8 C 7.16 g/m*3 11.8 C 4.8 km/h
2697 09-04-2014 13:00:00 12 C 6.93 g/m*3 12 C 9.7 km/h
2698 09-04-2014 13:05:00 12 C 6.71 g/m*3 12 C 6.4 km/h
2699 09-04-2014 13:10:00 12 C 6.93 g/m*3 12 C 4.8 km/h
2700 09-04-2014 13:15:00 12.4 C 6.88 g/m*3 12.4 C 8.1 km/h
Sensor: Nr:Datum:Temp:Abs-Feuchte:Windchill:Wind:
Aussen-T/F 2701 09-04-2014 13:20:00 13 C 6.46 g/m*3 13 C 8.1 km/h
2702 09-04-2014 13:25:00 13.4 C 6.74 g/m*3 13.4 C 9.7 km/h
2703 09-04-2014 13:30:00 13.6 C 6.71 g/m*3 13.6 C 4.8 km/h
2704 09-04-2014 13:35:00 13.6 C 6.59 g/m*3 13.6 C 12.9 km/h
2705 09-04-2014 13:40:00 13.4 C 6.16 g/m*3 13.4 C 9.7 km/h
2706 09-04-2014 13:45:00 13.4 C 6.39 g/m*3 13.4 C 6.4 km/h
2707 09-04-2014 13:50:00 13.5 C 6.78 g/m*3 13.5 C 12.9 km/h
2708 09-04-2014 13:55:00 13.3 C 6.59 g/m*3 13.3 C 9.7 km/h
2709 09-04-2014 14:00:00 13.4 C 7.09 g/m*3 13.4 C 9.7 km/h
2710 09-04-2014 14:05:00 13.7 C 6.87 g/m*3 13.7 C 8.1 km/h
2711 09-04-2014 14:10:00 13.8 C 6.55 g/m*3 13.8 C 4.8 km/h
2712 09-04-2014 14:15:00 13.8 C 6.43 g/m*3 13.8 C 6.4 km/h
2713 09-04-2014 14:20:00 13.6 C 6.71 g/m*3 13.6 C 4.8 km/h
2714 09-04-2014 14:25:00 13.6 C 6.47 g/m*3 13.6 C 9.7 km/h
2715 09-04-2014 14:30:00 13.6 C 6.36 g/m*3 13.6 C 11.3 km/h
2716 09-04-2014 14:35:00 13.6 C 6.24 g/m*3 13.6 C 8.1 km/h
2717 09-04-2014 14:40:00 13.6 C 6.47 g/m*3 13.6 C 4.8 km/h
2718 09-04-2014 14:45:00 13.6 C 6.24 g/m*3 13.6 C 9.7 km/h
2719 09-04-2014 14:50:00 13.6 C 6.36 g/m*3 13.6 C 8.1 km/h
2720 09-04-2014 14:55:00 13.8 C 6.08 g/m*3 13.8 C 11.3 km/h
2721 09-04-2014 15:00:00 14.2 C 6.84 g/m*3 14.2 C 8.1 km/h
2722 09-04-2014 15:05:00 14.4 C 5.93 g/m*3 14.4 C 8.1 km/h
2723 09-04-2014 15:10:00 14.5 C 5.85 g/m*3 14.5 C 11.3 km/h
2724 09-04-2014 15:15:00 14.4 C 6.3 g/m*3 14.4 C 9.7 km/h
2725 09-04-2014 15:20:00 14.4 C 6.18 g/m*3 14.4 C 12.9 km/h
Sensor: Nr:Datum:Temp:Abs-Feuchte:Windchill:Wind:
Aussen-T/F 2726 09-04-2014 15:25:00 14.3 C 6.02 g/m*3 14.3 C 6.4 km/h
2727 09-04-2014 15:30:00 14.3 C 5.9 g/m*3 14.3 C 6.4 km/h
2728 09-04-2014 15:35:00 14.6 C 6.26 g/m*3 14.6 C 9.7 km/h
2729 09-04-2014 15:40:00 14.8 C 6.21 g/m*3 14.8 C 9.7 km/h
2730 09-04-2014 15:45:00 14.6 C 5.88 g/m*3 14.6 C 9.7 km/h
2731 09-04-2014 15:50:00 14.4 C 5.69 g/m*3 14.4 C 9.7 km/h
2732 09-04-2014 15:55:00 14.3 C 5.65 g/m*3 14.3 C 9.7 km/h
2733 09-04-2014 16:00:00 14.3 C 5.77 g/m*3 14.3 C 9.7 km/h
2734 09-04-2014 16:05:00 14.3 C 5.9 g/m*3 14.3 C 8.1 km/h
2735 09-04-2014 16:10:00 14.3 C 5.77 g/m*3 14.3 C 8.1 km/h
2736 09-04-2014 16:15:00 14.4 C 5.93 g/m*3 14.4 C 6.4 km/h
2737 09-04-2014 16:20:00 14.4 C 5.93 g/m*3 14.4 C 8.1 km/h
2738 09-04-2014 16:25:00 14.3 C 6.02 g/m*3 14.3 C 12.9 km/h
2739 09-04-2014 16:30:00 14.2 C 5.98 g/m*3 14.2 C 14.5 km/h
2740 09-04-2014 16:35:00 14.2 C 6.23 g/m*3 14.2 C 9.7 km/h
2741 09-04-2014 16:40:00 14.2 C 6.35 g/m*3 14.2 C 9.7 km/h
2742 09-04-2014 16:45:00 14.3 C 6.27 g/m*3 14.3 C 8.1 km/h
2743 09-04-2014 16:50:00 14.4 C 6.3 g/m*3 14.4 C 14.5 km/h
2744 09-04-2014 16:55:00 14.6 C 6.51 g/m*3 14.6 C 9.7 km/h
2745 09-04-2014 17:00:00 14.5 C 6.22 g/m*3 14.5 C 8.1 km/h
2746 09-04-2014 17:05:00 14.4 C 6.55 g/m*3 14.4 C 8.1 km/h
2747 09-04-2014 17:10:00 14.5 C 6.59 g/m*3 14.5 C 6.4 km/h
2748 09-04-2014 17:15:00 14.7 C 6.8 g/m*3 14.7 C 9.7 km/h
2749 09-04-2014 17:20:00 14.8 C 6.46 g/m*3 14.8 C 12.9 km/h
2750 09-04-2014 17:25:00 14.7 C 6.42 g/m*3 14.7 C 8.1 km/h
Sensor: Nr:Datum:Temp:Abs-Feuchte:Windchill:Wind:
Aussen-T/F 2751 09-04-2014 17:30:00 14.7 C 6.17 g/m*3 14.7 C 9.7 km/h
2752 09-04-2014 17:35:00 14.6 C 6.26 g/m*3 14.6 C 11.3 km/h
2753 09-04-2014 17:40:00 14.6 C 6.51 g/m*3 14.6 C 9.7 km/h
2754 09-04-2014 17:45:00 15.1 C 6.32 g/m*3 15.1 C 8.1 km/h
2755 09-04-2014 17:50:00 15.4 C 6.31 g/m*3 15.4 C 9.7 km/h
2756 09-04-2014 17:55:00 15.7 C 6.69 g/m*3 15.7 C 6.4 km/h
2757 09-04-2014 18:00:00 15.5 C 6.48 g/m*3 15.5 C 9.7 km/h
2758 09-04-2014 18:05:00 15.2 C 6.49 g/m*3 15.2 C 6.4 km/h
2759 09-04-2014 18:10:00 15.1 C 6.45 g/m*3 15.1 C 9.7 km/h
2760 09-04-2014 18:15:00 15 C 6.67 g/m*3 15 C 11.3 km/h
2761 09-04-2014 18:20:00 15 C 6.28 g/m*3 15 C 11.3 km/h
2762 09-04-2014 18:25:00 14.8 C 6.46 g/m*3 14.8 C 8.1 km/h
2763 09-04-2014 18:30:00 14.5 C 6.34 g/m*3 14.5 C 8.1 km/h
2764 09-04-2014 18:35:00 14.3 C 6.27 g/m*3 14.3 C 4.8 km/h
2765 09-04-2014 18:40:00 14.1 C 6.55 g/m*3 14.1 C 6.4 km/h
2766 09-04-2014 18:45:00 13.9 C 6.47 g/m*3 13.9 C 11.3 km/h
2767 09-04-2014 18:50:00 13.8 C 6.31 g/m*3 13.8 C 4.8 km/h
2768 09-04-2014 18:55:00 13.8 C 6.67 g/m*3 13.8 C 9.7 km/h
2769 09-04-2014 19:00:00 13.7 C 6.63 g/m*3 13.7 C 6.4 km/h
2770 09-04-2014 19:05:00 13.6 C 6.47 g/m*3 13.6 C 3.2 km/h
2771 09-04-2014 19:10:00 13.6 C 6.47 g/m*3 13.6 C 6.4 km/h
2772 09-04-2014 19:15:00 13.6 C 6.59 g/m*3 13.6 C 4.8 km/h
2773 09-04-2014 19:20:00 13.5 C 6.55 g/m*3 13.5 C 4.8 km/h
2774 09-04-2014 19:25:00 13.5 C 6.55 g/m*3 13.5 C 3.2 km/h
2775 09-04-2014 19:30:00 13.5 C 6.55 g/m*3 13.5 C 1.6 km/h
Sensor: Nr:Datum:Temp:Abs-Feuchte:Windchill:Wind:
Aussen-T/F 2776 09-04-2014 19:35:00 13.2 C 7.12 g/m*3 13.2 C 0 km/h
2777 09-04-2014 19:40:00 12.8 C 7.17 g/m*3 12.8 C 3.2 km/h
2778 09-04-2014 19:45:00 12.6 C 6.97 g/m*3 12.6 C 3.2 km/h
2779 09-04-2014 19:50:00 12.3 C 7.17 g/m*3 12.3 C 0 km/h
2780 09-04-2014 19:55:00 12 C 7.14 g/m*3 12 C 1.6 km/h
2781 09-04-2014 20:00:00 11.6 C 7.17 g/m*3 11.6 C 3.2 km/h
2782 09-04-2014 20:05:00 11.2 C 7.2 g/m*3 11.2 C 3.2 km/h
2783 09-04-2014 20:10:00 10.9 C 7.26 g/m*3 10.9 C 3.2 km/h
2784 09-04-2014 20:15:00 10.6 C 6.83 g/m*3 10.6 C 3.2 km/h
2785 09-04-2014 20:20:00 10.5 C 7.08 g/m*3 10.5 C 3.2 km/h
2786 09-04-2014 20:25:00 10.3 C 6.99 g/m*3 10.3 C 3.2 km/h
2787 09-04-2014 20:30:00 10.2 C 7.04 g/m*3 10.2 C 3.2 km/h
2788 09-04-2014 20:35:00 10 C 6.95 g/m*3 10 C 4.8 km/h
2789 09-04-2014 20:40:00 9.9 C 6.91 g/m*3 9.9 C 4.8 km/h
2790 09-04-2014 20:45:00 9.8 C 6.96 g/m*3 9.8 C 4.8 km/h
2791 09-04-2014 20:50:00 9.7 C 6.91 g/m*3 9.7 C 4.8 km/h
2792 09-04-2014 20:55:00 9.6 C 6.87 g/m*3 9.6 C 4.8 km/h
2793 09-04-2014 21:00:00 9.5 C 7.1 g/m*3 9.5 C 4.8 km/h
2794 09-04-2014 21:05:00 9.4 C 6.87 g/m*3 9.4 C 4.8 km/h
2795 09-04-2014 21:10:00 9.4 C 6.96 g/m*3 9.4 C 3.2 km/h
2796 09-04-2014 21:15:00 9.3 C 7.01 g/m*3 9.3 C 4.8 km/h
2797 09-04-2014 21:20:00 9.2 C 6.97 g/m*3 9.2 C 3.2 km/h
2798 09-04-2014 21:25:00 9 C 6.96 g/m*3 9 C 4.8 km/h
2799 09-04-2014 21:30:00 9 C 6.79 g/m*3 9 C 1.6 km/h
2800 09-04-2014 21:35:00 9.1 C 7.01 g/m*3 9.1 C 3.2 km/h
Sensor: Nr:Datum:Temp:Abs-Feuchte:Windchill:Wind:
Aussen-T/F 2801 09-04-2014 21:40:00 9.1 C 7.01 g/m*3 9.1 C 0 km/h
2802 09-04-2014 21:45:00 9 C 6.96 g/m*3 9 C 0 km/h
2803 09-04-2014 21:50:00 8.9 C 6.92 g/m*3 8.9 C 3.2 km/h
2804 09-04-2014 21:55:00 8.9 C 6.83 g/m*3 8.9 C 3.2 km/h
2805 09-04-2014 22:00:00 9 C 6.96 g/m*3 9 C 1.6 km/h
2806 09-04-2014 22:05:00 9 C 6.96 g/m*3 9 C 0 km/h
2807 09-04-2014 22:10:00 9 C 6.96 g/m*3 9 C 1.6 km/h
2808 09-04-2014 22:15:00 9 C 6.96 g/m*3 9 C 1.6 km/h
2809 09-04-2014 22:20:00 9 C 6.88 g/m*3 9 C 3.2 km/h
2810 09-04-2014 22:25:00 9 C 6.96 g/m*3 9 C 3.2 km/h
2811 09-04-2014 22:30:00 9.1 C 7.01 g/m*3 9.1 C 3.2 km/h
2812 09-04-2014 22:35:00 9.1 C 6.83 g/m*3 9.1 C 1.6 km/h
2813 09-04-2014 22:40:00 9.1 C 6.92 g/m*3 9.1 C 0 km/h
2814 09-04-2014 22:45:00 9 C 6.96 g/m*3 9 C 3.2 km/h
2815 09-04-2014 22:50:00 8.9 C 6.83 g/m*3 8.9 C 4.8 km/h
2816 09-04-2014 22:55:00 8.8 C 6.79 g/m*3 8.8 C 3.2 km/h
2817 09-04-2014 23:00:00 8.7 C 6.75 g/m*3 8.7 C 1.6 km/h
2818 09-04-2014 23:05:00 8.6 C 6.79 g/m*3 8.6 C 1.6 km/h
2819 09-04-2014 23:10:00 8.5 C 6.74 g/m*3 8.5 C 0 km/h
2820 09-04-2014 23:15:00 8.4 C 6.7 g/m*3 8.4 C 3.2 km/h
2821 09-04-2014 23:20:00 8.4 C 6.7 g/m*3 8.4 C 3.2 km/h
2822 09-04-2014 23:25:00 8.4 C 6.7 g/m*3 8.4 C 4.8 km/h
2823 09-04-2014 23:30:00 8.5 C 6.83 g/m*3 8.5 C 0 km/h
2824 09-04-2014 23:35:00 8.6 C 6.79 g/m*3 8.6 C 1.6 km/h
2825 09-04-2014 23:40:00 8.6 C 6.79 g/m*3 8.6 C 1.6 km/h
Sensor: Nr:Datum:Temp:Abs-Feuchte:Windchill:Wind:
Aussen-T/F 2826 09-04-2014 23:45:00 8.7 C 6.83 g/m*3 8.7 C 0 km/h
2827 09-04-2014 23:50:00 8.7 C 6.83 g/m*3 8.7 C 1.6 km/h
2828 09-04-2014 23:55:00 8.7 C 6.75 g/m*3 8.7 C 4.8 km/h
2829 10-04-2014 00:00:00 8.8 C 6.79 g/m*3 8.8 C 0 km/h
2830 10-04-2014 00:05:00 8.8 C 6.79 g/m*3 8.8 C 4.8 km/h
2831 10-04-2014 00:10:00 8.9 C 6.75 g/m*3 7.69 C 8.1 km/h
2832 10-04-2014 00:15:00 9 C 6.79 g/m*3 9 C 4.8 km/h
2833 10-04-2014 00:20:00 9.1 C 6.74 g/m*3 9.1 C 4.8 km/h
2834 10-04-2014 00:25:00 9.1 C 6.74 g/m*3 8.33 C 6.4 km/h
2835 10-04-2014 00:30:00 9.2 C 6.7 g/m*3 9.2 C 4.8 km/h
2836 10-04-2014 00:35:00 9.2 C 6.79 g/m*3 9.2 C 4.8 km/h
2837 10-04-2014 00:40:00 9.2 C 6.7 g/m*3 8.45 C 6.4 km/h
2838 10-04-2014 00:45:00 9.2 C 6.7 g/m*3 9.2 C 4.8 km/h
2839 10-04-2014 00:50:00 9.2 C 6.7 g/m*3 8.45 C 6.4 km/h
2840 10-04-2014 00:55:00 9 C 6.7 g/m*3 7.49 C 9.7 km/h
2841 10-04-2014 01:00:00 8.8 C 6.61 g/m*3 8.8 C 3.2 km/h
2842 10-04-2014 01:05:00 8.7 C 6.66 g/m*3 8.7 C 3.2 km/h
2843 10-04-2014 01:10:00 8.6 C 6.7 g/m*3 7.01 C 9.7 km/h
2844 10-04-2014 01:15:00 8.4 C 6.62 g/m*3 7.11 C 8.1 km/h
2845 10-04-2014 01:20:00 8.3 C 6.66 g/m*3 8.3 C 3.2 km/h
2846 10-04-2014 01:25:00 8.2 C 6.62 g/m*3 6.87 C 8.1 km/h
2847 10-04-2014 01:30:00 8.2 C 6.7 g/m*3 8.2 C 4.8 km/h
2848 10-04-2014 01:35:00 8.1 C 6.66 g/m*3 7.17 C 6.4 km/h
2849 10-04-2014 01:40:00 8.1 C 6.74 g/m*3 8.1 C 1.6 km/h
2850 10-04-2014 01:45:00 7.9 C 6.74 g/m*3 7.9 C 0 km/h
Sensor: Nr:Datum:Temp:Abs-Feuchte:Windchill:Wind:
Aussen-T/F 2851 10-04-2014 01:50:00 7.8 C 6.69 g/m*3 7.8 C 4.8 km/h
2852 10-04-2014 01:55:00 7.7 C 6.73 g/m*3 7.7 C 1.6 km/h
2853 10-04-2014 02:00:00 7.6 C 6.69 g/m*3 7.6 C 3.2 km/h
2854 10-04-2014 02:05:00 7.6 C 6.77 g/m*3 7.6 C 0 km/h
2855 10-04-2014 02:10:00 7.6 C 6.77 g/m*3 7.6 C 1.6 km/h
2856 10-04-2014 02:15:00 7.6 C 6.77 g/m*3 7.6 C 1.6 km/h
2857 10-04-2014 02:20:00 7.7 C 6.73 g/m*3 7.7 C 3.2 km/h
2858 10-04-2014 02:25:00 7.9 C 6.74 g/m*3 7.9 C 1.6 km/h
2859 10-04-2014 02:30:00 8 C 6.7 g/m*3 6.64 C 8.1 km/h
2860 10-04-2014 02:35:00 8.2 C 6.78 g/m*3 8.2 C 1.6 km/h
2861 10-04-2014 02:40:00 8.2 C 6.78 g/m*3 8.2 C 1.6 km/h
2862 10-04-2014 02:45:00 8.2 C 6.78 g/m*3 8.2 C 1.6 km/h
2863 10-04-2014 02:50:00 8.3 C 6.74 g/m*3 8.3 C 4.8 km/h
2864 10-04-2014 02:55:00 8.3 C 6.74 g/m*3 7.41 C 6.4 km/h
2865 10-04-2014 03:00:00 8.4 C 6.87 g/m*3 8.4 C 0 km/h
2866 10-04-2014 03:05:00 8.4 C 6.79 g/m*3 8.4 C 4.8 km/h
2867 10-04-2014 03:10:00 8.4 C 6.79 g/m*3 8.4 C 0 km/h
2868 10-04-2014 03:15:00 8.4 C 6.87 g/m*3 8.4 C 0 km/h
2869 10-04-2014 03:20:00 8.3 C 6.83 g/m*3 8.3 C 1.6 km/h
2870 10-04-2014 03:25:00 8.3 C 6.91 g/m*3 8.3 C 1.6 km/h
2871 10-04-2014 03:30:00 8.3 C 6.91 g/m*3 8.3 C 0 km/h
2872 10-04-2014 03:35:00 8.3 C 6.91 g/m*3 8.3 C 0 km/h
2873 10-04-2014 03:40:00 8.2 C 6.87 g/m*3 8.2 C 1.6 km/h
2874 10-04-2014 03:45:00 8.2 C 6.87 g/m*3 8.2 C 3.2 km/h
2875 10-04-2014 03:50:00 8.2 C 6.95 g/m*3 8.2 C 1.6 km/h
Sensor: Nr:Datum:Temp:Abs-Feuchte:Windchill:Wind:
Aussen-T/F 2876 10-04-2014 03:55:00 8.1 C 6.91 g/m*3 8.1 C 0 km/h
2877 10-04-2014 04:00:00 8.1 C 6.82 g/m*3 8.1 C 3.2 km/h
2878 10-04-2014 04:05:00 8.1 C 6.91 g/m*3 8.1 C 0 km/h
2879 10-04-2014 04:10:00 8 C 6.86 g/m*3 8 C 1.6 km/h
2880 10-04-2014 04:15:00 8 C 6.86 g/m*3 8 C 0 km/h
2881 10-04-2014 04:20:00 7.9 C 6.82 g/m*3 7.9 C 0 km/h
2882 10-04-2014 04:25:00 7.9 C 6.82 g/m*3 7.9 C 0 km/h
2883 10-04-2014 04:30:00 7.9 C 6.82 g/m*3 7.9 C 0 km/h
2884 10-04-2014 04:35:00 7.9 C 6.82 g/m*3 7.9 C 0 km/h
2885 10-04-2014 04:40:00 7.9 C 6.9 g/m*3 7.9 C 0 km/h
2886 10-04-2014 04:45:00 7.8 C 6.77 g/m*3 7.8 C 0 km/h
2887 10-04-2014 04:50:00 7.8 C 6.86 g/m*3 7.8 C 0 km/h
2888 10-04-2014 04:55:00 7.8 C 6.86 g/m*3 7.8 C 1.6 km/h
2889 10-04-2014 05:00:00 7.7 C 6.89 g/m*3 7.7 C 1.6 km/h
2890 10-04-2014 05:05:00 7.6 C 6.77 g/m*3 7.6 C 3.2 km/h
2891 10-04-2014 05:10:00 7.6 C 6.85 g/m*3 7.6 C 1.6 km/h
2892 10-04-2014 05:15:00 7.4 C 6.76 g/m*3 7.4 C 0 km/h
2893 10-04-2014 05:20:00 7.3 C 6.79 g/m*3 7.3 C 1.6 km/h
2894 10-04-2014 05:25:00 7.1 C 6.71 g/m*3 7.1 C 0 km/h
2895 10-04-2014 05:30:00 6.9 C 6.7 g/m*3 6.9 C 0 km/h
2896 10-04-2014 05:35:00 6.9 C 6.7 g/m*3 6.9 C 0 km/h
2897 10-04-2014 05:40:00 6.8 C 6.65 g/m*3 6.8 C 0 km/h
2898 10-04-2014 05:45:00 6.8 C 6.65 g/m*3 6.8 C 3.2 km/h
2899 10-04-2014 05:50:00 6.8 C 6.65 g/m*3 6.8 C 3.2 km/h
2900 10-04-2014 05:55:00 6.7 C 6.61 g/m*3 6.7 C 0 km/h
Sensor: Nr:Datum:Temp:Abs-Feuchte:Windchill:Wind:
Aussen-T/F 2901 10-04-2014 06:00:00 6.7 C 6.61 g/m*3 6.7 C 1.6 km/h
2902 10-04-2014 06:05:00 6.7 C 6.61 g/m*3 6.7 C 1.6 km/h
2903 10-04-2014 06:10:00 6.7 C 6.61 g/m*3 6.7 C 0 km/h
2904 10-04-2014 06:15:00 6.6 C 6.64 g/m*3 6.6 C 0 km/h
2905 10-04-2014 06:20:00 6.5 C 6.6 g/m*3 6.5 C 0 km/h
2906 10-04-2014 06:25:00 6.4 C 6.56 g/m*3 6.4 C 0 km/h
2907 10-04-2014 06:30:00 6.3 C 6.51 g/m*3 6.3 C 0 km/h
2908 10-04-2014 06:35:00 6.3 C 6.59 g/m*3 6.3 C 0 km/h
2909 10-04-2014 06:40:00 6.4 C 6.71 g/m*3 6.4 C 0 km/h
2910 10-04-2014 06:45:00 6.4 C 6.71 g/m*3 6.4 C 0 km/h
2911 10-04-2014 06:50:00 6.4 C 6.63 g/m*3 6.4 C 0 km/h
2912 10-04-2014 06:55:00 6.4 C 6.71 g/m*3 6.4 C 0 km/h
2913 10-04-2014 07:00:00 6.4 C 6.63 g/m*3 6.4 C 0 km/h
2914 10-04-2014 07:05:00 6.3 C 6.59 g/m*3 6.3 C 1.6 km/h
2915 10-04-2014 07:10:00 6.3 C 6.66 g/m*3 6.3 C 0 km/h
2916 10-04-2014 07:15:00 6.3 C 6.66 g/m*3 6.3 C 0 km/h
2917 10-04-2014 07:20:00 6.3 C 6.66 g/m*3 6.3 C 0 km/h
2918 10-04-2014 07:25:00 6.4 C 6.71 g/m*3 6.4 C 0 km/h
2919 10-04-2014 07:30:00 6.4 C 6.71 g/m*3 6.4 C 1.6 km/h
2920 10-04-2014 07:35:00 6.5 C 6.75 g/m*3 6.5 C 1.6 km/h
2921 10-04-2014 07:40:00 6.6 C 6.79 g/m*3 6.6 C 1.6 km/h
2922 10-04-2014 07:45:00 6.7 C 6.84 g/m*3 6.7 C 0 km/h
2923 10-04-2014 07:50:00 6.9 C 6.93 g/m*3 6.9 C 0 km/h
2924 10-04-2014 07:55:00 7 C 6.82 g/m*3 7 C 4.8 km/h
2925 10-04-2014 08:00:00 7.1 C 6.86 g/m*3 7.1 C 3.2 km/h
Sensor: Nr:Datum:Temp:Abs-Feuchte:Windchill:Wind:
Aussen-T/F 2926 10-04-2014 08:05:00 7.1 C 6.86 g/m*3 7.1 C 3.2 km/h
2927 10-04-2014 08:10:00 7.2 C 6.91 g/m*3 6.13 C 6.4 km/h
2928 10-04-2014 08:15:00 7.3 C 6.95 g/m*3 5.81 C 8.1 km/h
2929 10-04-2014 08:20:00 7.4 C 7 g/m*3 5.93 C 8.1 km/h
2930 10-04-2014 08:25:00 7.4 C 6.92 g/m*3 5.58 C 9.7 km/h
2931 10-04-2014 08:30:00 7.5 C 6.96 g/m*3 5.7 C 9.7 km/h
2932 10-04-2014 08:35:00 7.6 C 6.93 g/m*3 6.16 C 8.1 km/h
2933 10-04-2014 08:40:00 7.6 C 6.93 g/m*3 6.6 C 6.4 km/h
2934 10-04-2014 09:00:00 8.3 C 8.43 g/m*3 6.66 C 9.7 km/h
2935 10-04-2014 09:05:00 8.4 C 7.13 g/m*3 8.4 C 4.8 km/h
2936 10-04-2014 09:10:00 8.5 C 7.17 g/m*3 7.22 C 8.1 km/h
2937 10-04-2014 09:15:00 8.5 C 7.17 g/m*3 7.64 C 6.4 km/h
2938 10-04-2014 09:50:00 9 C 8.82 g/m*3 8.21 C 6.4 km/h
2939 10-04-2014 09:55:00 9.2 C 7.32 g/m*3 8.05 C 8.1 km/h
2940 10-04-2014 10:00:00 9.3 C 7.28 g/m*3 8.16 C 8.1 km/h
2941 10-04-2014 10:05:00 9.5 C 7.28 g/m*3 8.4 C 8.1 km/h
2942 10-04-2014 10:10:00 9.7 C 7.38 g/m*3 9.02 C 6.4 km/h
2943 10-04-2014 10:15:00 9.7 C 7.38 g/m*3 9.7 C 4.8 km/h
2944 10-04-2014 10:20:00 9.7 C 7.38 g/m*3 9.7 C 0 km/h
2945 10-04-2014 10:25:00 10 C 7.33 g/m*3 10 C 1.6 km/h
2946 10-04-2014 10:30:00 10.2 C 7.42 g/m*3 10.2 C 1.6 km/h
2947 10-04-2014 10:35:00 10.3 C 7.47 g/m*3 10.3 C 3.2 km/h
2948 10-04-2014 10:40:00 10.3 C 7.47 g/m*3 10.3 C 3.2 km/h
2949 10-04-2014 13:15:00 16.2 C 8.14 g/m*3 16.2 C 8.1 km/h
2950 10-04-2014 13:20:00 16.2 C 8.14 g/m*3 16.2 C 3.2 km/h
Sensor: Nr:Datum:Temp:Abs-Feuchte:Windchill:Wind:
Aussen-T/F 2951 10-04-2014 13:25:00 16.3 C 8.74 g/m*3 16.3 C 6.4 km/h
2952 10-04-2014 13:30:00 16.3 C 8.46 g/m*3 16.3 C 6.4 km/h
2953 10-04-2014 13:35:00 16.4 C 8.51 g/m*3 16.4 C 9.7 km/h
2954 10-04-2014 13:40:00 16.4 C 8.51 g/m*3 16.4 C 4.8 km/h
2955 10-04-2014 14:55:00 17.6 C 8.7 g/m*3 17.6 C 9.7 km/h
2956 10-04-2014 15:00:00 17.6 C 8.7 g/m*3 17.6 C 6.4 km/h
2957 10-04-2014 15:05:00 17.6 C 8.4 g/m*3 17.6 C 8.1 km/h
2958 10-04-2014 15:10:00 17.7 C 8.9 g/m*3 17.7 C 8.1 km/h
2959 10-04-2014 15:15:00 17.7 C 8.3 g/m*3 17.7 C 9.7 km/h
2960 10-04-2014 15:20:00 17.7 C 8.3 g/m*3 17.7 C 4.8 km/h
2961 10-04-2014 16:35:00 18.2 C 15.54 g/m*3 18.2 C 8.1 km/h
2962 10-04-2014 16:40:00 18.7 C 8.81 g/m*3 18.7 C 11.3 km/h
2963 10-04-2014 16:45:00 18.7 C 8.49 g/m*3 18.7 C 9.7 km/h
2964 10-04-2014 16:50:00 18.6 C 8.59 g/m*3 18.6 C 9.7 km/h
2965 10-04-2014 16:55:00 18.4 C 8.18 g/m*3 18.4 C 6.4 km/h
2966 10-04-2014 17:00:00 18.3 C 8.6 g/m*3 18.3 C 8.1 km/h
2967 10-04-2014 17:05:00 18.5 C 8.54 g/m*3 18.5 C 9.7 km/h
2968 10-04-2014 17:10:00 18.5 C 8.54 g/m*3 18.5 C 9.7 km/h
2969 10-04-2014 17:15:00 18.4 C 8.49 g/m*3 18.4 C 6.4 km/h
2970 10-04-2014 17:20:00 18.4 C 8.65 g/m*3 18.4 C 8.1 km/h
2971 10-04-2014 17:25:00 18 C 8.29 g/m*3 18 C 8.1 km/h
2972 10-04-2014 17:30:00 18 C 8.29 g/m*3 18 C 6.4 km/h
2973 10-04-2014 17:35:00 17.6 C 8.55 g/m*3 17.6 C 8.1 km/h
2974 10-04-2014 17:40:00 17.5 C 8.5 g/m*3 17.5 C 8.1 km/h
2975 10-04-2014 17:45:00 17.5 C 8.5 g/m*3 17.5 C 8.1 km/h
Sensor: Nr:Datum:Temp:Abs-Feuchte:Windchill:Wind:
Aussen-T/F 2976 10-04-2014 17:50:00 17.2 C 8.49 g/m*3 17.2 C 8.1 km/h
2977 10-04-2014 17:55:00 17.1 C 8.3 g/m*3 17.1 C 8.1 km/h
2978 10-04-2014 18:00:00 17.1 C 8.44 g/m*3 17.1 C 9.7 km/h
2979 10-04-2014 18:05:00 16.8 C 8.29 g/m*3 16.8 C 6.4 km/h
2980 10-04-2014 18:10:00 16.8 C 8.29 g/m*3 16.8 C 12.9 km/h
2981 10-04-2014 18:15:00 16.6 C 8.19 g/m*3 16.6 C 6.4 km/h
2982 10-04-2014 18:20:00 16.6 C 8.33 g/m*3 16.6 C 8.1 km/h
2983 10-04-2014 18:25:00 16.4 C 8.23 g/m*3 16.4 C 6.4 km/h
2984 10-04-2014 18:30:00 16.4 C 8.23 g/m*3 16.4 C 4.8 km/h
2985 10-04-2014 18:35:00 16.3 C 8.19 g/m*3 16.3 C 9.7 km/h
2986 10-04-2014 18:40:00 16.3 C 8.32 g/m*3 16.3 C 11.3 km/h
2987 10-04-2014 18:45:00 16.3 C 8.46 g/m*3 16.3 C 3.2 km/h
2988 10-04-2014 18:50:00 16.2 C 8.41 g/m*3 16.2 C 12.9 km/h
2989 10-04-2014 18:55:00 16.2 C 8.27 g/m*3 16.2 C 6.4 km/h
2990 10-04-2014 19:00:00 16.2 C 8.27 g/m*3 16.2 C 4.8 km/h
2991 11-04-2014 08:05:00 6.6 C 7.17 g/m*3 6.6 C 0 km/h
2992 11-04-2014 08:10:00 6.6 C 7.17 g/m*3 6.6 C 0 km/h
2993 11-04-2014 08:15:00 6.6 C 7.17 g/m*3 6.6 C 0 km/h
2994 11-04-2014 08:50:00 7.2 C 7.46 g/m*3 7.2 C 3.2 km/h
2995 11-04-2014 08:55:00 7.3 C 7.51 g/m*3 7.3 C 3.2 km/h
2996 11-04-2014 09:00:00 7.4 C 7.55 g/m*3 7.4 C 0 km/h
2997 11-04-2014 09:05:00 7.5 C 7.6 g/m*3 7.5 C 0 km/h
2998 11-04-2014 09:10:00 7.7 C 7.7 g/m*3 7.7 C 0 km/h
2999 11-04-2014 09:15:00 7.7 C 7.7 g/m*3 7.7 C 0 km/h
3000 11-04-2014 09:20:00 7.9 C 7.8 g/m*3 7.9 C 0 km/h
Sensor: Nr:Datum:Temp:Abs-Feuchte:Windchill:Wind:
Aussen-T/F 3001 11-04-2014 09:25:00 8.1 C 7.9 g/m*3 8.1 C 0 km/h
3002 11-04-2014 09:30:00 8.3 C 8.01 g/m*3 8.3 C 0 km/h
3003 11-04-2014 09:35:00 8.6 C 8.16 g/m*3 8.6 C 0 km/h
3004 11-04-2014 09:40:00 8.8 C 8.27 g/m*3 8.8 C 1.6 km/h
3005 11-04-2014 09:45:00 8.8 C 8.27 g/m*3 8.8 C 0 km/h
3006 11-04-2014 09:50:00 8.8 C 8.27 g/m*3 8.8 C 0 km/h
3007 11-04-2014 09:55:00 9.9 C 8.87 g/m*3 9.9 C 0 km/h
3008 11-04-2014 10:00:00 10 C 8.93 g/m*3 10 C 0 km/h
3009 11-04-2014 10:05:00 10.6 C 8.59 g/m*3 10.6 C 0 km/h
3010 11-04-2014 10:10:00 10.9 C 8.65 g/m*3 10.9 C 0 km/h
3011 11-04-2014 10:15:00 11.1 C 8.66 g/m*3 11.1 C 0 km/h
3012 11-04-2014 10:20:00 11.6 C 8.94 g/m*3 11.6 C 0 km/h
3013 11-04-2014 10:25:00 11.9 C 8.79 g/m*3 11.9 C 0 km/h
3014 11-04-2014 10:30:00 12.2 C 8.96 g/m*3 12.2 C 0 km/h
3015 11-04-2014 10:35:00 12.3 C 8.9 g/m*3 12.3 C 0 km/h
3016 11-04-2014 10:40:00 12.3 C 8.9 g/m*3 12.3 C 0 km/h
3017 11-04-2014 11:50:00 15.6 C 9.04 g/m*3 15.6 C 9.7 km/h
3018 11-04-2014 11:55:00 15.9 C 9.07 g/m*3 15.9 C 9.7 km/h
3019 11-04-2014 12:00:00 16.1 C 9.18 g/m*3 16.1 C 6.4 km/h
3020 11-04-2014 12:05:00 16.2 C 9.1 g/m*3 16.2 C 3.2 km/h
3021 11-04-2014 12:10:00 16.2 C 9.1 g/m*3 16.2 C 6.4 km/h
3022 11-04-2014 12:15:00 16.7 C 9.1 g/m*3 16.7 C 6.4 km/h
3023 11-04-2014 12:20:00 16.8 C 9.29 g/m*3 16.8 C 3.2 km/h
3024 11-04-2014 12:25:00 17 C 9.41 g/m*3 17 C 4.8 km/h
3025 11-04-2014 12:30:00 17.2 C 9.37 g/m*3 17.2 C 6.4 km/h
Sensor: Nr:Datum:Temp:Abs-Feuchte:Windchill:Wind:
Aussen-T/F 3026 11-04-2014 12:35:00 17.3 C 8.99 g/m*3 17.3 C 3.2 km/h
3027 11-04-2014 12:40:00 17.3 C 8.84 g/m*3 17.3 C 3.2 km/h
3028 11-04-2014 12:45:00 17.3 C 8.84 g/m*3 17.3 C 3.2 km/h
3029 11-04-2014 12:50:00 17.3 C 8.84 g/m*3 17.3 C 0 km/h
3030 11-04-2014 12:55:00 17.5 C 8.95 g/m*3 17.5 C 1.6 km/h
3031 11-04-2014 13:00:00 17.9 C 9.31 g/m*3 17.9 C 4.8 km/h
3032 11-04-2014 13:05:00 18.1 C 9.58 g/m*3 18.1 C 3.2 km/h
3033 11-04-2014 13:10:00 18.1 C 9.58 g/m*3 18.1 C 4.8 km/h
3034 11-04-2014 13:30:00 19.4 C 9.51 g/m*3 19.4 C 6.4 km/h
3035 11-04-2014 13:35:00 19.4 C 9.51 g/m*3 19.4 C 4.8 km/h
3036 11-04-2014 13:40:00 19.6 C 8.78 g/m*3 19.6 C 6.4 km/h
3037 11-04-2014 13:45:00 19.4 C 8.84 g/m*3 19.4 C 4.8 km/h
3038 11-04-2014 13:50:00 19.1 C 8.85 g/m*3 19.1 C 6.4 km/h
3039 11-04-2014 13:55:00 18.7 C 8.81 g/m*3 18.7 C 9.7 km/h
3040 11-04-2014 14:00:00 18.7 C 8.97 g/m*3 18.7 C 4.8 km/h
3041 11-04-2014 14:05:00 18.7 C 8.97 g/m*3 18.7 C 11.3 km/h
3042 11-04-2014 14:10:00 18.7 C 8.97 g/m*3 18.7 C 6.4 km/h
3043 11-04-2014 14:15:00 18.3 C 9.07 g/m*3 18.3 C 4.8 km/h
3044 11-04-2014 14:20:00 18.4 C 9.12 g/m*3 18.4 C 8.1 km/h
3045 11-04-2014 14:25:00 18.4 C 9.12 g/m*3 18.4 C 9.7 km/h
3046 11-04-2014 16:10:00 19.9 C 8.59 g/m*3 19.9 C 9.7 km/h
3047 11-04-2014 16:15:00 19.9 C 8.59 g/m*3 19.9 C 6.4 km/h
3048 11-04-2014 16:20:00 19.8 C 8.71 g/m*3 19.8 C 8.1 km/h
3049 11-04-2014 16:25:00 19.5 C 8.56 g/m*3 19.5 C 11.3 km/h
3050 11-04-2014 16:30:00 19.4 C 8.51 g/m*3 19.4 C 4.8 km/h
Sensor: Nr:Datum:Temp:Abs-Feuchte:Windchill:Wind:
Aussen-T/F 3051 11-04-2014 16:35:00 19.4 C 8.51 g/m*3 19.4 C 6.4 km/h
3052 11-04-2014 16:55:00 18.9 C 16.2 g/m*3 18.9 C 4.8 km/h
3053 11-04-2014 17:00:00 18.8 C 16.11 g/m*3 18.8 C 9.7 km/h
3054 11-04-2014 17:05:00 18.7 C 8.65 g/m*3 18.7 C 6.4 km/h
3055 11-04-2014 17:10:00 18.5 C 9.18 g/m*3 18.5 C 8.1 km/h
3056 11-04-2014 17:15:00 18.4 C 9.12 g/m*3 18.4 C 9.7 km/h
3057 11-04-2014 17:20:00 18.2 C 9.17 g/m*3 18.2 C 11.3 km/h
3058 11-04-2014 17:25:00 18.1 C 9.12 g/m*3 18.1 C 11.3 km/h
3059 11-04-2014 17:30:00 17.8 C 8.95 g/m*3 17.8 C 9.7 km/h
3060 11-04-2014 17:35:00 17.7 C 9.2 g/m*3 17.7 C 11.3 km/h
3061 11-04-2014 17:40:00 17.7 C 9.2 g/m*3 17.7 C 9.7 km/h
3062 11-04-2014 17:45:00 17.6 C 9.15 g/m*3 17.6 C 9.7 km/h
3063 11-04-2014 17:50:00 17.4 C 9.04 g/m*3 17.4 C 9.7 km/h
3064 11-04-2014 17:55:00 17.3 C 8.99 g/m*3 17.3 C 11.3 km/h
3065 11-04-2014 18:00:00 17.2 C 9.08 g/m*3 17.2 C 12.9 km/h
3066 11-04-2014 18:05:00 17.1 C 9.03 g/m*3 17.1 C 12.9 km/h
3067 11-04-2014 18:10:00 17.1 C 9.17 g/m*3 17.1 C 11.3 km/h
3068 11-04-2014 18:15:00 17.1 C 9.17 g/m*3 17.1 C 12.9 km/h
3069 11-04-2014 18:20:00 17.2 C 9.23 g/m*3 17.2 C 9.7 km/h
3070 11-04-2014 18:25:00 17.1 C 9.03 g/m*3 17.1 C 11.3 km/h
3071 11-04-2014 18:30:00 16.9 C 9.06 g/m*3 16.9 C 9.7 km/h
3072 11-04-2014 18:35:00 16.7 C 9.1 g/m*3 16.7 C 12.9 km/h
3073 11-04-2014 18:40:00 16.5 C 9.13 g/m*3 16.5 C 8.1 km/h
3074 11-04-2014 18:45:00 16.3 C 9.16 g/m*3 16.3 C 11.3 km/h
3075 11-04-2014 18:50:00 16.2 C 9.24 g/m*3 16.2 C 17.7 km/h
Sensor: Nr:Datum:Temp:Abs-Feuchte:Windchill:Wind:
Aussen-T/F 3076 11-04-2014 18:55:00 15.9 C 9.21 g/m*3 15.9 C 9.7 km/h
3077 11-04-2014 19:00:00 15.7 C 9.1 g/m*3 15.7 C 11.3 km/h
3078 11-04-2014 19:05:00 15.6 C 9.18 g/m*3 15.6 C 9.7 km/h
3079 11-04-2014 19:10:00 15.6 C 9.18 g/m*3 15.6 C 8.1 km/h
3080 11-04-2014 19:15:00 15.6 C 9.18 g/m*3 15.6 C 11.3 km/h
3081 11-04-2014 19:20:00 15.5 C 9.12 g/m*3 15.5 C 8.1 km/h
3082 11-04-2014 19:25:00 15.4 C 9.33 g/m*3 15.4 C 8.1 km/h
3083 11-04-2014 19:30:00 15.4 C 9.33 g/m*3 15.4 C 4.8 km/h
3084 11-04-2014 19:35:00 15.2 C 9.22 g/m*3 15.2 C 9.7 km/h
3085 11-04-2014 19:40:00 15.1 C 9.16 g/m*3 15.1 C 8.1 km/h
3086 11-04-2014 19:45:00 14.9 C 9.05 g/m*3 14.9 C 8.1 km/h
3087 11-04-2014 19:50:00 14.8 C 8.99 g/m*3 14.8 C 6.4 km/h
3088 11-04-2014 19:55:00 14.7 C 9.07 g/m*3 14.7 C 8.1 km/h
3089 11-04-2014 20:00:00 14.6 C 9.01 g/m*3 14.6 C 6.4 km/h
3090 11-04-2014 20:05:00 14.6 C 9.01 g/m*3 14.6 C 9.7 km/h
3091 11-04-2014 20:10:00 14.5 C 8.95 g/m*3 14.5 C 8.1 km/h
3092 11-04-2014 20:15:00 14.4 C 8.9 g/m*3 14.4 C 4.8 km/h
3093 11-04-2014 20:20:00 14.4 C 8.9 g/m*3 14.4 C 6.4 km/h
3094 11-04-2014 20:25:00 14.3 C 8.85 g/m*3 14.3 C 6.4 km/h
3095 11-04-2014 20:30:00 14.3 C 8.97 g/m*3 14.3 C 6.4 km/h
3096 11-04-2014 20:35:00 14.2 C 8.91 g/m*3 14.2 C 1.6 km/h
3097 11-04-2014 20:40:00 14.2 C 8.91 g/m*3 14.2 C 3.2 km/h
3098 11-04-2014 20:45:00 14.2 C 8.91 g/m*3 14.2 C 8.1 km/h
3099 11-04-2014 20:50:00 14.1 C 8.98 g/m*3 14.1 C 6.4 km/h
3100 11-04-2014 20:55:00 14 C 8.93 g/m*3 14 C 6.4 km/h
Sensor: Nr:Datum:Temp:Abs-Feuchte:Windchill:Wind:
Aussen-T/F 3101 11-04-2014 21:00:00 13.9 C 8.99 g/m*3 13.9 C 3.2 km/h
3102 11-04-2014 21:05:00 13.9 C 8.99 g/m*3 13.9 C 8.1 km/h
3103 11-04-2014 21:10:00 13.8 C 8.94 g/m*3 13.8 C 6.4 km/h
3104 11-04-2014 21:15:00 13.8 C 9.06 g/m*3 13.8 C 6.4 km/h
3105 11-04-2014 21:20:00 13.7 C 9 g/m*3 13.7 C 6.4 km/h
3106 11-04-2014 21:25:00 13.7 C 9 g/m*3 13.7 C 6.4 km/h
3107 11-04-2014 21:30:00 13.6 C 9.06 g/m*3 13.6 C 6.4 km/h
3108 11-04-2014 21:35:00 13.6 C 9.06 g/m*3 13.6 C 4.8 km/h
3109 11-04-2014 21:40:00 13.4 C 8.95 g/m*3 13.4 C 3.2 km/h
3110 11-04-2014 21:45:00 13.3 C 9.01 g/m*3 13.3 C 9.7 km/h
3111 11-04-2014 21:50:00 13.3 C 9.01 g/m*3 13.3 C 8.1 km/h
3112 11-04-2014 21:55:00 13.2 C 8.96 g/m*3 13.2 C 8.1 km/h
3113 11-04-2014 22:00:00 13.1 C 8.9 g/m*3 13.1 C 4.8 km/h
3114 11-04-2014 22:05:00 13.1 C 8.9 g/m*3 13.1 C 8.1 km/h
3115 11-04-2014 22:10:00 13 C 8.85 g/m*3 13 C 8.1 km/h
3116 11-04-2014 22:15:00 12.9 C 8.79 g/m*3 12.9 C 4.8 km/h
3117 11-04-2014 22:20:00 12.9 C 8.9 g/m*3 12.9 C 3.2 km/h
3118 11-04-2014 22:25:00 12.8 C 8.85 g/m*3 12.8 C 1.6 km/h
3119 11-04-2014 22:30:00 12.8 C 8.85 g/m*3 12.8 C 9.7 km/h
3120 11-04-2014 22:35:00 12.8 C 8.74 g/m*3 12.8 C 9.7 km/h
3121 11-04-2014 22:40:00 12.8 C 8.74 g/m*3 12.8 C 9.7 km/h
3122 11-04-2014 22:45:00 12.7 C 8.68 g/m*3 12.7 C 6.4 km/h
3123 11-04-2014 22:50:00 12.7 C 8.68 g/m*3 12.7 C 6.4 km/h
3124 11-04-2014 22:55:00 12.7 C 8.79 g/m*3 12.7 C 6.4 km/h
3125 11-04-2014 23:00:00 12.6 C 8.74 g/m*3 12.6 C 3.2 km/h
Sensor: Nr:Datum:Temp:Abs-Feuchte:Windchill:Wind:
Aussen-T/F 3126 11-04-2014 23:05:00 12.6 C 8.74 g/m*3 12.6 C 3.2 km/h
3127 11-04-2014 23:10:00 12.5 C 8.69 g/m*3 12.5 C 8.1 km/h
3128 11-04-2014 23:15:00 12.4 C 8.63 g/m*3 12.4 C 6.4 km/h
3129 11-04-2014 23:20:00 12.4 C 8.63 g/m*3 12.4 C 4.8 km/h
3130 11-04-2014 23:25:00 12.4 C 8.63 g/m*3 12.4 C 4.8 km/h
3131 11-04-2014 23:30:00 12.3 C 8.69 g/m*3 12.3 C 1.6 km/h
3132 11-04-2014 23:35:00 12.3 C 8.58 g/m*3 12.3 C 8.1 km/h
3133 11-04-2014 23:40:00 12.2 C 8.63 g/m*3 12.2 C 3.2 km/h
3134 11-04-2014 23:45:00 12.1 C 8.58 g/m*3 12.1 C 0 km/h
3135 11-04-2014 23:50:00 12.1 C 8.58 g/m*3 12.1 C 8.1 km/h
3136 11-04-2014 23:55:00 12 C 8.63 g/m*3 12 C 6.4 km/h
3137 12-04-2014 00:00:00 11.9 C 8.58 g/m*3 11.9 C 3.2 km/h
3138 12-04-2014 00:05:00 11.9 C 8.58 g/m*3 11.9 C 3.2 km/h
3139 12-04-2014 00:10:00 11.9 C 8.58 g/m*3 11.9 C 6.4 km/h
3140 12-04-2014 00:15:00 11.8 C 8.53 g/m*3 11.8 C 4.8 km/h
3141 12-04-2014 00:20:00 11.8 C 8.53 g/m*3 11.8 C 4.8 km/h
3142 12-04-2014 00:25:00 11.7 C 8.47 g/m*3 11.7 C 6.4 km/h
3143 12-04-2014 00:30:00 11.6 C 8.42 g/m*3 11.6 C 0 km/h
3144 12-04-2014 00:35:00 11.4 C 8.42 g/m*3 11.4 C 0 km/h
3145 12-04-2014 00:40:00 11.1 C 8.36 g/m*3 11.1 C 1.6 km/h
3146 12-04-2014 00:45:00 10.9 C 8.36 g/m*3 10.9 C 3.2 km/h
3147 12-04-2014 00:50:00 10.8 C 8.3 g/m*3 10.8 C 3.2 km/h
3148 12-04-2014 00:55:00 10.8 C 8.3 g/m*3 10.8 C 1.6 km/h
3149 12-04-2014 01:00:00 10.6 C 8.3 g/m*3 10.6 C 0 km/h
3150 12-04-2014 01:05:00 10.4 C 8.19 g/m*3 10.4 C 1.6 km/h
Sensor: Nr:Datum:Temp:Abs-Feuchte:Windchill:Wind:
Aussen-T/F 3151 12-04-2014 01:10:00 10.3 C 8.24 g/m*3 10.3 C 1.6 km/h
3152 12-04-2014 01:15:00 10.2 C 8.28 g/m*3 10.2 C 3.2 km/h
3153 12-04-2014 01:20:00 10.1 C 8.23 g/m*3 10.1 C 0 km/h
3154 12-04-2014 01:25:00 10.1 C 8.32 g/m*3 10.1 C 3.2 km/h
3155 12-04-2014 01:30:00 10.1 C 8.32 g/m*3 10.1 C 1.6 km/h
3156 12-04-2014 01:35:00 10.2 C 8.37 g/m*3 10.2 C 3.2 km/h
3157 12-04-2014 01:40:00 10.1 C 8.23 g/m*3 10.1 C 1.6 km/h
3158 12-04-2014 01:45:00 10.1 C 8.23 g/m*3 10.1 C 0 km/h
3159 12-04-2014 01:50:00 10 C 8.17 g/m*3 10 C 0 km/h
3160 12-04-2014 01:55:00 9.9 C 8.22 g/m*3 9.25 C 6.4 km/h
3161 12-04-2014 02:00:00 9.8 C 8.16 g/m*3 9.8 C 3.2 km/h
3162 12-04-2014 02:05:00 9.8 C 8.16 g/m*3 9.8 C 0 km/h
3163 12-04-2014 02:10:00 9.8 C 8.16 g/m*3 9.8 C 1.6 km/h
3164 12-04-2014 02:15:00 9.8 C 8.16 g/m*3 9.8 C 0 km/h
3165 12-04-2014 02:20:00 9.8 C 8.16 g/m*3 9.8 C 0 km/h
3166 12-04-2014 02:25:00 9.8 C 8.16 g/m*3 9.8 C 0 km/h
3167 12-04-2014 02:30:00 9.9 C 8.12 g/m*3 9.9 C 0 km/h
3168 12-04-2014 02:35:00 9.9 C 8.22 g/m*3 9.9 C 0 km/h
3169 12-04-2014 02:40:00 9.9 C 8.12 g/m*3 9.9 C 1.6 km/h
3170 12-04-2014 02:45:00 9.9 C 8.12 g/m*3 9.9 C 0 km/h
3171 12-04-2014 02:50:00 10 C 8.08 g/m*3 10 C 1.6 km/h
3172 12-04-2014 02:55:00 10 C 8.08 g/m*3 10 C 0 km/h
3173 12-04-2014 03:00:00 9.9 C 8.03 g/m*3 9.9 C 0 km/h
3174 12-04-2014 03:05:00 9.9 C 8.03 g/m*3 9.9 C 0 km/h
3175 12-04-2014 03:10:00 9.9 C 8.03 g/m*3 9.9 C 0 km/h
Sensor: Nr:Datum:Temp:Abs-Feuchte:Windchill:Wind:
Aussen-T/F 3176 12-04-2014 03:15:00 9.8 C 7.89 g/m*3 9.8 C 0 km/h
3177 12-04-2014 03:20:00 9.8 C 7.89 g/m*3 8.75 C 8.1 km/h
3178 12-04-2014 03:25:00 9.8 C 7.89 g/m*3 9.8 C 3.2 km/h
3179 12-04-2014 03:30:00 9.8 C 7.89 g/m*3 9.8 C 1.6 km/h
3180 12-04-2014 03:35:00 9.8 C 7.89 g/m*3 9.8 C 1.6 km/h
3181 12-04-2014 03:40:00 9.8 C 7.89 g/m*3 9.8 C 0 km/h
3182 12-04-2014 03:45:00 9.8 C 7.89 g/m*3 9.8 C 0 km/h
3183 12-04-2014 03:50:00 9.8 C 7.89 g/m*3 9.8 C 0 km/h
3184 12-04-2014 03:55:00 9.8 C 7.89 g/m*3 9.8 C 0 km/h
3185 12-04-2014 04:00:00 9.8 C 7.89 g/m*3 9.8 C 0 km/h
3186 12-04-2014 04:05:00 9.8 C 7.89 g/m*3 9.8 C 0 km/h
3187 12-04-2014 04:10:00 9.8 C 7.89 g/m*3 9.8 C 0 km/h
3188 12-04-2014 04:15:00 9.8 C 7.7 g/m*3 9.8 C 1.6 km/h
3189 12-04-2014 04:20:00 9.9 C 7.75 g/m*3 9.9 C 1.6 km/h
3190 12-04-2014 04:25:00 9.9 C 7.75 g/m*3 9.9 C 0 km/h
3191 12-04-2014 04:30:00 9.9 C 7.66 g/m*3 9.9 C 3.2 km/h
3192 12-04-2014 04:35:00 10 C 7.71 g/m*3 10 C 1.6 km/h
3193 12-04-2014 04:40:00 10 C 7.8 g/m*3 10 C 3.2 km/h
3194 12-04-2014 04:45:00 9.9 C 7.75 g/m*3 9.9 C 3.2 km/h
3195 12-04-2014 04:50:00 9.8 C 7.79 g/m*3 9.8 C 0 km/h
3196 12-04-2014 04:55:00 9.6 C 7.69 g/m*3 9.6 C 1.6 km/h
3197 12-04-2014 05:00:00 9.4 C 7.69 g/m*3 9.4 C 3.2 km/h
3198 12-04-2014 05:05:00 9.3 C 7.64 g/m*3 9.3 C 1.6 km/h
3199 12-04-2014 05:10:00 9.2 C 7.68 g/m*3 9.2 C 0 km/h
3200 12-04-2014 05:15:00 9.2 C 7.68 g/m*3 9.2 C 0 km/h
Sensor: Nr:Datum:Temp:Abs-Feuchte:Windchill:Wind:
Aussen-T/F 3201 12-04-2014 05:20:00 9.2 C 7.77 g/m*3 9.2 C 0 km/h
3202 12-04-2014 05:25:00 9.2 C 7.77 g/m*3 9.2 C 0 km/h
3203 12-04-2014 05:30:00 9.2 C 7.77 g/m*3 9.2 C 0 km/h
3204 12-04-2014 05:35:00 9.3 C 7.82 g/m*3 9.3 C 0 km/h
3205 12-04-2014 05:40:00 9.3 C 7.82 g/m*3 9.3 C 0 km/h
3206 12-04-2014 05:45:00 9.3 C 7.82 g/m*3 9.3 C 0 km/h
3207 12-04-2014 05:50:00 9.3 C 7.82 g/m*3 9.3 C 0 km/h
3208 12-04-2014 05:55:00 9.3 C 7.73 g/m*3 9.3 C 0 km/h
3209 12-04-2014 06:00:00 9.3 C 7.73 g/m*3 9.3 C 0 km/h
3210 12-04-2014 06:05:00 9.3 C 7.73 g/m*3 9.3 C 0 km/h
3211 12-04-2014 06:10:00 9.4 C 7.78 g/m*3 9.4 C 0 km/h
3212 12-04-2014 06:15:00 9.4 C 7.78 g/m*3 9.4 C 0 km/h
3213 12-04-2014 06:20:00 9.3 C 7.73 g/m*3 9.3 C 0 km/h
3214 12-04-2014 06:25:00 9.3 C 7.73 g/m*3 9.3 C 0 km/h
3215 12-04-2014 06:30:00 9.3 C 7.73 g/m*3 9.3 C 0 km/h
3216 12-04-2014 06:35:00 9.2 C 7.77 g/m*3 9.2 C 0 km/h
3217 12-04-2014 06:40:00 9.1 C 7.72 g/m*3 9.1 C 0 km/h
3218 12-04-2014 06:45:00 9.1 C 7.72 g/m*3 9.1 C 0 km/h
3219 12-04-2014 06:50:00 9 C 7.67 g/m*3 9 C 1.6 km/h
3220 12-04-2014 06:55:00 8.9 C 7.62 g/m*3 8.9 C 0 km/h
3221 12-04-2014 07:00:00 9 C 7.67 g/m*3 9 C 0 km/h